Darstellungsparameter: Aktuell verwendete Einstellungen:
Skalierung der Graphiken ... ?
xyx+y,   Skalierungsfaktor:      Skalierung: Modus: x, Faktor: 1
Darstellungszeitraum ... ?
Vom - - bis: - -   Zeitraum: 26.01.2015 - 24.04.2015
Min/Max/Avg-Anzeige ... ?
Zeige MMA aktuell
Zeige MMA Monat
Zeige MMA alles
Zeige --A aktuell
Zeige --A Monat
Zeige --A alles
Keine MMA-Anzeige
MMA:
Average (ber die Originaldaten)
MMA-Basis: 26.01.2015 - 24.04.2015
Quicknavigation für Darstellung... ?
Tage:      1T, 2T, 3T, 5T -1T -2T -3T -5T +1T +2T +3T +5T
Wochen: 1W, 2W, 3W -1W -2W -3W +1W +2W +3W
Monate: 1M, 3M, 6M -1M -3M -6M +1M +3M +6M
Jahre:    1J, 3J, 5J, 10J -1J -3J -5J -10J +1J +3J +5J +10J
Nutze für die Darstellung ... ?
Originaldaten oder Mittelwerte auf ...
Stundenbasis Tagesbasis Wochenbasis
Monatsbasis Jahresbasis      Datenbasis: Original-Daten
Darstellen als:
Statistik (Auto) Statistik J:M      Darstellung:
Zur Graphik,    zurück zur Übersicht aller Sensoren.
 
Tabellarische Datenbersicht: ?
 
Sensor: Nr:Datum:Temp:Abs-Feuchte:Windchill:Wind:
Aussen-T/F 1 26-01-2015 00:00:00 1.9 C 5.3 g/m*3 1.9 C 4.8 km/h
2 26-01-2015 00:05:00 1.9 C 5.3 g/m*3 0.01 C 6.4 km/h
3 26-01-2015 00:10:00 1.9 C 5.35 g/m*3 1.9 C 3.2 km/h
4 26-01-2015 00:15:00 1.9 C 5.3 g/m*3 1.9 C 3.2 km/h
5 26-01-2015 00:20:00 1.9 C 5.3 g/m*3 1.9 C 1.6 km/h
6 26-01-2015 00:25:00 1.9 C 5.35 g/m*3 1.9 C 0 km/h
7 26-01-2015 00:30:00 1.9 C 5.35 g/m*3 1.9 C 1.6 km/h
8 26-01-2015 00:35:00 1.9 C 5.35 g/m*3 1.9 C 3.2 km/h
9 26-01-2015 00:40:00 1.9 C 5.35 g/m*3 0.01 C 6.4 km/h
10 26-01-2015 00:45:00 1.8 C 5.32 g/m*3 1.8 C 3.2 km/h
11 26-01-2015 00:50:00 1.8 C 5.32 g/m*3 1.8 C 0 km/h
12 26-01-2015 00:55:00 1.8 C 5.32 g/m*3 1.8 C 1.6 km/h
13 26-01-2015 01:00:00 1.8 C 5.32 g/m*3 1.8 C 1.6 km/h
14 26-01-2015 01:05:00 1.8 C 5.32 g/m*3 1.8 C 3.2 km/h
15 26-01-2015 01:10:00 1.8 C 5.32 g/m*3 1.8 C 0 km/h
16 26-01-2015 01:15:00 1.8 C 5.32 g/m*3 1.8 C 4.8 km/h
17 26-01-2015 01:20:00 1.8 C 5.32 g/m*3 1.8 C 4.8 km/h
18 26-01-2015 01:25:00 1.9 C 5.35 g/m*3 1.9 C 0 km/h
19 26-01-2015 01:30:00 1.9 C 5.35 g/m*3 1.9 C 0 km/h
20 26-01-2015 01:35:00 1.9 C 5.35 g/m*3 1.9 C 4.8 km/h
21 26-01-2015 01:40:00 1.9 C 5.35 g/m*3 1.9 C 4.8 km/h
22 26-01-2015 01:45:00 1.9 C 5.35 g/m*3 1.9 C 0 km/h
23 26-01-2015 01:50:00 1.9 C 5.35 g/m*3 1.9 C 3.2 km/h
24 26-01-2015 01:55:00 1.9 C 5.35 g/m*3 1.9 C 3.2 km/h
25 26-01-2015 02:00:00 1.9 C 5.35 g/m*3 1.9 C 3.2 km/h
Sensor: Nr:Datum:Temp:Abs-Feuchte:Windchill:Wind:
Aussen-T/F 26 26-01-2015 02:05:00 1.9 C 5.35 g/m*3 1.9 C 4.8 km/h
27 26-01-2015 02:10:00 1.9 C 5.35 g/m*3 1.9 C 0 km/h
28 26-01-2015 02:15:00 1.9 C 5.35 g/m*3 1.9 C 4.8 km/h
29 26-01-2015 02:20:00 1.9 C 5.35 g/m*3 1.9 C 1.6 km/h
30 26-01-2015 02:25:00 1.8 C 5.32 g/m*3 1.8 C 4.8 km/h
31 26-01-2015 02:30:00 1.8 C 5.32 g/m*3 -0.1 C 6.4 km/h
32 26-01-2015 02:35:00 1.8 C 5.32 g/m*3 1.8 C 1.6 km/h
33 26-01-2015 02:40:00 1.8 C 5.32 g/m*3 1.8 C 1.6 km/h
34 26-01-2015 02:45:00 1.8 C 5.32 g/m*3 1.8 C 3.2 km/h
35 26-01-2015 02:50:00 1.9 C 5.35 g/m*3 1.9 C 3.2 km/h
36 26-01-2015 02:55:00 1.9 C 5.35 g/m*3 1.9 C 1.6 km/h
37 26-01-2015 03:00:00 2 C 5.39 g/m*3 2 C 3.2 km/h
38 26-01-2015 03:05:00 2 C 5.39 g/m*3 0.13 C 6.4 km/h
39 26-01-2015 03:10:00 2.1 C 5.43 g/m*3 2.1 C 4.8 km/h
40 26-01-2015 03:15:00 2.1 C 5.43 g/m*3 2.1 C 3.2 km/h
41 26-01-2015 03:20:00 2.2 C 5.46 g/m*3 0.36 C 6.4 km/h
42 26-01-2015 03:25:00 2.2 C 5.46 g/m*3 2.2 C 4.8 km/h
43 26-01-2015 03:30:00 2.2 C 5.41 g/m*3 2.2 C 4.8 km/h
44 26-01-2015 03:35:00 2.2 C 5.41 g/m*3 0.36 C 6.4 km/h
45 26-01-2015 03:40:00 2.2 C 5.41 g/m*3 0.36 C 6.4 km/h
46 26-01-2015 03:45:00 2.3 C 5.44 g/m*3 2.3 C 4.8 km/h
47 26-01-2015 03:50:00 2.3 C 5.44 g/m*3 0.47 C 6.4 km/h
48 26-01-2015 03:55:00 2.3 C 5.44 g/m*3 0.47 C 6.4 km/h
49 26-01-2015 04:00:00 2.3 C 5.44 g/m*3 2.3 C 4.8 km/h
50 26-01-2015 04:05:00 2.3 C 5.39 g/m*3 0.47 C 6.4 km/h
Sensor: Nr:Datum:Temp:Abs-Feuchte:Windchill:Wind:
Aussen-T/F 51 26-01-2015 04:10:00 2.3 C 5.39 g/m*3 2.3 C 4.8 km/h
52 26-01-2015 04:15:00 2.3 C 5.39 g/m*3 2.3 C 4.8 km/h
53 26-01-2015 04:20:00 2.3 C 5.39 g/m*3 0.47 C 6.4 km/h
54 26-01-2015 04:25:00 2.3 C 5.39 g/m*3 -0.87 C 11.3 km/h
55 26-01-2015 04:30:00 2.4 C 5.42 g/m*3 0.59 C 6.4 km/h
56 26-01-2015 04:35:00 2.4 C 5.42 g/m*3 0.59 C 6.4 km/h
57 26-01-2015 04:40:00 2.4 C 5.42 g/m*3 0.59 C 6.4 km/h
58 26-01-2015 04:45:00 2.4 C 5.42 g/m*3 2.4 C 4.8 km/h
59 26-01-2015 04:50:00 2.4 C 5.42 g/m*3 0.59 C 6.4 km/h
60 26-01-2015 04:55:00 2.4 C 5.42 g/m*3 0.05 C 8.1 km/h
61 26-01-2015 05:00:00 2.4 C 5.42 g/m*3 2.4 C 3.2 km/h
62 26-01-2015 05:05:00 2.4 C 5.42 g/m*3 -0.37 C 9.7 km/h
63 26-01-2015 05:10:00 2.4 C 5.37 g/m*3 0.05 C 8.1 km/h
64 26-01-2015 05:15:00 2.4 C 5.37 g/m*3 0.59 C 6.4 km/h
65 26-01-2015 05:20:00 2.4 C 5.37 g/m*3 0.59 C 6.4 km/h
66 26-01-2015 05:25:00 2.4 C 5.37 g/m*3 0.05 C 8.1 km/h
67 26-01-2015 05:30:00 2.4 C 5.37 g/m*3 0.59 C 6.4 km/h
68 26-01-2015 05:35:00 2.4 C 5.37 g/m*3 0.59 C 6.4 km/h
69 26-01-2015 05:40:00 2.4 C 5.42 g/m*3 0.59 C 6.4 km/h
70 26-01-2015 05:45:00 2.4 C 5.42 g/m*3 2.4 C 3.2 km/h
71 26-01-2015 05:50:00 2.4 C 5.42 g/m*3 2.4 C 3.2 km/h
72 26-01-2015 05:55:00 2.4 C 5.42 g/m*3 2.4 C 4.8 km/h
73 26-01-2015 06:00:00 2.4 C 5.42 g/m*3 -0.74 C 11.3 km/h
74 26-01-2015 06:05:00 2.4 C 5.42 g/m*3 2.4 C 4.8 km/h
75 26-01-2015 06:10:00 2.4 C 5.42 g/m*3 0.05 C 8.1 km/h
Sensor: Nr:Datum:Temp:Abs-Feuchte:Windchill:Wind:
Aussen-T/F 76 26-01-2015 06:15:00 2.5 C 5.4 g/m*3 0.71 C 6.4 km/h
77 26-01-2015 06:20:00 2.5 C 5.4 g/m*3 0.17 C 8.1 km/h
78 26-01-2015 06:25:00 2.6 C 5.44 g/m*3 2.6 C 4.8 km/h
79 26-01-2015 06:30:00 2.6 C 5.44 g/m*3 2.6 C 4.8 km/h
80 26-01-2015 06:35:00 2.6 C 5.44 g/m*3 -0.5 C 11.3 km/h
81 26-01-2015 06:40:00 2.6 C 5.44 g/m*3 0.82 C 6.4 km/h
82 26-01-2015 06:45:00 2.6 C 5.44 g/m*3 2.6 C 4.8 km/h
83 26-01-2015 06:50:00 2.6 C 5.44 g/m*3 0.82 C 6.4 km/h
84 26-01-2015 06:55:00 2.6 C 5.5 g/m*3 2.6 C 4.8 km/h
85 26-01-2015 07:00:00 2.6 C 5.5 g/m*3 2.6 C 3.2 km/h
86 26-01-2015 07:05:00 2.6 C 5.5 g/m*3 0.82 C 6.4 km/h
87 26-01-2015 07:10:00 2.6 C 5.5 g/m*3 2.6 C 4.8 km/h
88 26-01-2015 07:15:00 2.6 C 5.5 g/m*3 2.6 C 3.2 km/h
89 26-01-2015 07:20:00 2.5 C 5.46 g/m*3 2.5 C 1.6 km/h
90 26-01-2015 07:25:00 2.5 C 5.46 g/m*3 2.5 C 3.2 km/h
91 26-01-2015 07:30:00 2.4 C 5.42 g/m*3 0.59 C 6.4 km/h
92 26-01-2015 07:35:00 2.4 C 5.42 g/m*3 0.59 C 6.4 km/h
93 26-01-2015 07:40:00 2.4 C 5.42 g/m*3 0.59 C 6.4 km/h
94 26-01-2015 07:45:00 2.4 C 5.42 g/m*3 2.4 C 4.8 km/h
95 26-01-2015 07:50:00 2.4 C 5.42 g/m*3 0.59 C 6.4 km/h
96 26-01-2015 07:55:00 2.4 C 5.42 g/m*3 2.4 C 4.8 km/h
97 26-01-2015 08:00:00 2.4 C 5.42 g/m*3 2.4 C 4.8 km/h
98 26-01-2015 08:05:00 2.4 C 5.42 g/m*3 0.59 C 6.4 km/h
99 26-01-2015 08:10:00 2.4 C 5.42 g/m*3 2.4 C 4.8 km/h
100 26-01-2015 08:15:00 2.4 C 5.42 g/m*3 0.59 C 6.4 km/h
Sensor: Nr:Datum:Temp:Abs-Feuchte:Windchill:Wind:
Aussen-T/F 101 26-01-2015 08:20:00 2.4 C 5.42 g/m*3 2.4 C 3.2 km/h
102 26-01-2015 08:25:00 2.4 C 5.48 g/m*3 2.4 C 3.2 km/h
103 26-01-2015 08:30:00 2.5 C 5.52 g/m*3 2.5 C 1.6 km/h
104 26-01-2015 08:35:00 2.5 C 5.52 g/m*3 -0.62 C 11.3 km/h
105 26-01-2015 08:40:00 2.5 C 5.52 g/m*3 2.5 C 4.8 km/h
106 26-01-2015 08:45:00 2.6 C 5.56 g/m*3 2.6 C 4.8 km/h
107 26-01-2015 08:50:00 2.6 C 5.5 g/m*3 -0.14 C 9.7 km/h
108 26-01-2015 08:55:00 2.6 C 5.5 g/m*3 2.6 C 4.8 km/h
109 26-01-2015 09:00:00 2.7 C 5.54 g/m*3 2.7 C 4.8 km/h
110 26-01-2015 09:05:00 2.7 C 5.54 g/m*3 2.7 C 4.8 km/h
111 26-01-2015 09:10:00 2.7 C 5.54 g/m*3 0.4 C 8.1 km/h
112 26-01-2015 09:15:00 2.7 C 5.54 g/m*3 -0.38 C 11.3 km/h
113 26-01-2015 09:20:00 2.8 C 5.57 g/m*3 1.05 C 6.4 km/h
114 26-01-2015 09:25:00 2.8 C 5.57 g/m*3 0.52 C 8.1 km/h
115 26-01-2015 09:30:00 2.8 C 5.57 g/m*3 0.52 C 8.1 km/h
116 26-01-2015 09:35:00 2.8 C 5.57 g/m*3 1.05 C 6.4 km/h
117 26-01-2015 09:40:00 2.7 C 5.54 g/m*3 2.7 C 3.2 km/h
118 26-01-2015 09:45:00 2.7 C 5.54 g/m*3 0.4 C 8.1 km/h
119 26-01-2015 09:50:00 2.7 C 5.54 g/m*3 0.94 C 6.4 km/h
120 26-01-2015 09:55:00 2.7 C 5.54 g/m*3 2.7 C 4.8 km/h
121 26-01-2015 10:00:00 2.6 C 5.5 g/m*3 2.6 C 3.2 km/h
122 26-01-2015 10:05:00 2.6 C 5.5 g/m*3 2.6 C 3.2 km/h
123 26-01-2015 10:10:00 2.6 C 5.5 g/m*3 0.82 C 6.4 km/h
124 26-01-2015 10:15:00 2.6 C 5.5 g/m*3 0.82 C 6.4 km/h
125 26-01-2015 10:20:00 2.6 C 5.5 g/m*3 0.82 C 6.4 km/h
Sensor: Nr:Datum:Temp:Abs-Feuchte:Windchill:Wind:
Aussen-T/F 126 26-01-2015 10:25:00 2.6 C 5.5 g/m*3 2.6 C 4.8 km/h
127 26-01-2015 10:30:00 2.6 C 5.5 g/m*3 -0.14 C 9.7 km/h
128 26-01-2015 10:35:00 2.6 C 5.5 g/m*3 2.6 C 3.2 km/h
129 26-01-2015 10:40:00 2.7 C 5.54 g/m*3 0.4 C 8.1 km/h
130 26-01-2015 10:45:00 2.8 C 5.57 g/m*3 1.05 C 6.4 km/h
131 26-01-2015 10:50:00 2.8 C 5.57 g/m*3 1.05 C 6.4 km/h
132 26-01-2015 10:55:00 2.8 C 5.63 g/m*3 2.8 C 4.8 km/h
133 26-01-2015 11:00:00 2.9 C 5.67 g/m*3 1.17 C 6.4 km/h
134 26-01-2015 11:05:00 2.9 C 5.61 g/m*3 -0.14 C 11.3 km/h
135 26-01-2015 11:10:00 2.9 C 5.61 g/m*3 0.64 C 8.1 km/h
136 26-01-2015 11:15:00 2.9 C 5.61 g/m*3 0.22 C 9.7 km/h
137 26-01-2015 11:20:00 2.9 C 5.61 g/m*3 0.22 C 9.7 km/h
138 26-01-2015 11:25:00 2.9 C 5.61 g/m*3 -0.14 C 11.3 km/h
139 26-01-2015 11:30:00 2.8 C 5.57 g/m*3 -0.26 C 11.3 km/h
140 26-01-2015 11:35:00 2.8 C 5.57 g/m*3 -0.26 C 11.3 km/h
141 26-01-2015 11:40:00 2.8 C 5.57 g/m*3 2.8 C 4.8 km/h
142 26-01-2015 11:45:00 2.8 C 5.57 g/m*3 1.05 C 6.4 km/h
143 26-01-2015 11:50:00 2.9 C 5.61 g/m*3 0.22 C 9.7 km/h
144 26-01-2015 11:55:00 2.9 C 5.61 g/m*3 0.64 C 8.1 km/h
145 26-01-2015 12:00:00 3 C 5.65 g/m*3 -0.02 C 11.3 km/h
146 26-01-2015 12:05:00 3 C 5.65 g/m*3 -0.63 C 14.5 km/h
147 26-01-2015 12:10:00 3.1 C 5.69 g/m*3 -0.51 C 14.5 km/h
148 26-01-2015 12:15:00 3.1 C 5.69 g/m*3 0.1 C 11.3 km/h
149 26-01-2015 12:20:00 3.1 C 5.69 g/m*3 0.46 C 9.7 km/h
150 26-01-2015 12:25:00 3.1 C 5.69 g/m*3 0.87 C 8.1 km/h
Sensor: Nr:Datum:Temp:Abs-Feuchte:Windchill:Wind:
Aussen-T/F 151 26-01-2015 12:30:00 3.1 C 5.69 g/m*3 0.1 C 11.3 km/h
152 26-01-2015 12:35:00 3.1 C 5.69 g/m*3 -0.22 C 12.9 km/h
153 26-01-2015 12:40:00 3.1 C 5.69 g/m*3 -0.77 C 16.1 km/h
154 26-01-2015 12:45:00 3.1 C 5.69 g/m*3 0.1 C 11.3 km/h
155 26-01-2015 12:50:00 3.2 C 5.72 g/m*3 0.22 C 11.3 km/h
156 26-01-2015 12:55:00 3.2 C 5.72 g/m*3 0.99 C 8.1 km/h
157 26-01-2015 13:00:00 3.2 C 5.72 g/m*3 0.22 C 11.3 km/h
158 26-01-2015 13:05:00 3.2 C 5.72 g/m*3 0.58 C 9.7 km/h
159 26-01-2015 13:10:00 3.2 C 5.72 g/m*3 0.58 C 9.7 km/h
160 26-01-2015 13:15:00 3.3 C 5.76 g/m*3 0.34 C 11.3 km/h
161 26-01-2015 13:20:00 3.3 C 5.76 g/m*3 0.02 C 12.9 km/h
162 26-01-2015 13:25:00 3.3 C 5.7 g/m*3 1.11 C 8.1 km/h
163 26-01-2015 13:30:00 3.3 C 5.7 g/m*3 0.34 C 11.3 km/h
164 26-01-2015 13:35:00 3.3 C 5.7 g/m*3 1.11 C 8.1 km/h
165 26-01-2015 13:40:00 3.3 C 5.7 g/m*3 1.11 C 8.1 km/h
166 26-01-2015 13:45:00 3.4 C 5.74 g/m*3 0.14 C 12.9 km/h
167 26-01-2015 13:50:00 3.4 C 5.74 g/m*3 0.46 C 11.3 km/h
168 26-01-2015 13:55:00 3.4 C 5.74 g/m*3 1.23 C 8.1 km/h
169 26-01-2015 14:00:00 3.4 C 5.74 g/m*3 0.82 C 9.7 km/h
170 26-01-2015 14:05:00 3.4 C 5.74 g/m*3 0.46 C 11.3 km/h
171 26-01-2015 14:10:00 3.5 C 5.78 g/m*3 0.27 C 12.9 km/h
172 26-01-2015 14:15:00 3.5 C 5.78 g/m*3 0.27 C 12.9 km/h
173 26-01-2015 14:20:00 3.6 C 5.82 g/m*3 0.7 C 11.3 km/h
174 26-01-2015 14:25:00 3.5 C 5.78 g/m*3 -0.02 C 14.5 km/h
175 26-01-2015 14:30:00 3.5 C 5.78 g/m*3 -0.02 C 14.5 km/h
Sensor: Nr:Datum:Temp:Abs-Feuchte:Windchill:Wind:
Aussen-T/F 176 26-01-2015 14:35:00 3.5 C 5.78 g/m*3 -0.02 C 14.5 km/h
177 26-01-2015 14:40:00 3.4 C 5.74 g/m*3 0.14 C 12.9 km/h
178 26-01-2015 14:45:00 3.4 C 5.74 g/m*3 0.46 C 11.3 km/h
179 26-01-2015 14:50:00 3.3 C 5.7 g/m*3 0.34 C 11.3 km/h
180 26-01-2015 14:55:00 3.3 C 5.7 g/m*3 -0.52 C 16.1 km/h
181 26-01-2015 15:00:00 3.3 C 5.7 g/m*3 0.34 C 11.3 km/h
182 26-01-2015 15:05:00 3.3 C 5.76 g/m*3 1.11 C 8.1 km/h
183 26-01-2015 15:10:00 3.3 C 5.76 g/m*3 0.02 C 12.9 km/h
184 26-01-2015 15:15:00 3.3 C 5.76 g/m*3 0.02 C 12.9 km/h
185 26-01-2015 15:20:00 3.3 C 5.76 g/m*3 0.34 C 11.3 km/h
186 26-01-2015 15:25:00 3.2 C 5.72 g/m*3 0.22 C 11.3 km/h
187 26-01-2015 15:30:00 3.2 C 5.72 g/m*3 0.58 C 9.7 km/h
188 26-01-2015 15:35:00 3.2 C 5.72 g/m*3 1.51 C 6.4 km/h
189 26-01-2015 15:40:00 3.2 C 5.72 g/m*3 0.58 C 9.7 km/h
190 26-01-2015 15:45:00 3.2 C 5.72 g/m*3 -0.1 C 12.9 km/h
191 26-01-2015 15:50:00 3.2 C 5.72 g/m*3 0.22 C 11.3 km/h
192 26-01-2015 15:55:00 3.2 C 5.72 g/m*3 -0.1 C 12.9 km/h
193 26-01-2015 16:00:00 3.2 C 5.72 g/m*3 0.58 C 9.7 km/h
194 26-01-2015 16:05:00 3.2 C 5.72 g/m*3 0.58 C 9.7 km/h
195 26-01-2015 16:10:00 3.2 C 5.72 g/m*3 -0.39 C 14.5 km/h
196 26-01-2015 16:15:00 3.2 C 5.72 g/m*3 -0.1 C 12.9 km/h
197 26-01-2015 16:20:00 3.3 C 5.76 g/m*3 1.11 C 8.1 km/h
198 26-01-2015 16:25:00 3.3 C 5.76 g/m*3 0.34 C 11.3 km/h
199 26-01-2015 16:30:00 3.3 C 5.76 g/m*3 0.34 C 11.3 km/h
200 26-01-2015 16:35:00 3.3 C 5.7 g/m*3 0.34 C 11.3 km/h
Sensor: Nr:Datum:Temp:Abs-Feuchte:Windchill:Wind:
Aussen-T/F 201 26-01-2015 16:40:00 3.3 C 5.7 g/m*3 1.11 C 8.1 km/h
202 26-01-2015 16:45:00 3.3 C 5.7 g/m*3 0.02 C 12.9 km/h
203 26-01-2015 16:50:00 3.3 C 5.76 g/m*3 0.02 C 12.9 km/h
204 26-01-2015 16:55:00 3.3 C 5.76 g/m*3 0.34 C 11.3 km/h
205 26-01-2015 17:00:00 3.3 C 5.76 g/m*3 0.34 C 11.3 km/h
206 26-01-2015 17:05:00 3.2 C 5.72 g/m*3 0.58 C 9.7 km/h
207 26-01-2015 17:10:00 3.2 C 5.72 g/m*3 0.58 C 9.7 km/h
208 26-01-2015 17:15:00 3.2 C 5.72 g/m*3 0.58 C 9.7 km/h
209 26-01-2015 17:20:00 3.2 C 5.72 g/m*3 -0.65 C 16.1 km/h
210 26-01-2015 17:25:00 3.2 C 5.72 g/m*3 0.99 C 8.1 km/h
211 26-01-2015 17:30:00 3.2 C 5.72 g/m*3 -0.1 C 12.9 km/h
212 26-01-2015 17:35:00 3.2 C 5.72 g/m*3 -0.39 C 14.5 km/h
213 26-01-2015 17:40:00 3.2 C 5.72 g/m*3 -0.1 C 12.9 km/h
214 26-01-2015 17:45:00 3.2 C 5.72 g/m*3 0.22 C 11.3 km/h
215 26-01-2015 17:50:00 3.2 C 5.72 g/m*3 0.22 C 11.3 km/h
216 26-01-2015 17:55:00 3.2 C 5.72 g/m*3 -0.65 C 16.1 km/h
217 26-01-2015 18:00:00 3.2 C 5.72 g/m*3 0.99 C 8.1 km/h
218 26-01-2015 18:05:00 3.2 C 5.72 g/m*3 0.22 C 11.3 km/h
219 26-01-2015 18:10:00 3.2 C 5.72 g/m*3 0.58 C 9.7 km/h
220 26-01-2015 18:15:00 3.2 C 5.72 g/m*3 -0.1 C 12.9 km/h
221 26-01-2015 18:20:00 3.3 C 5.76 g/m*3 0.02 C 12.9 km/h
222 26-01-2015 18:25:00 3.3 C 5.76 g/m*3 -0.52 C 16.1 km/h
223 26-01-2015 18:30:00 3.3 C 5.76 g/m*3 -0.26 C 14.5 km/h
224 26-01-2015 18:35:00 3.4 C 5.8 g/m*3 -0.14 C 14.5 km/h
225 26-01-2015 18:40:00 3.4 C 5.8 g/m*3 -0.86 C 19.3 km/h
Sensor: Nr:Datum:Temp:Abs-Feuchte:Windchill:Wind:
Aussen-T/F 226 26-01-2015 18:45:00 3.4 C 5.8 g/m*3 -0.4 C 16.1 km/h
227 26-01-2015 18:50:00 3.4 C 5.8 g/m*3 0.82 C 9.7 km/h
228 26-01-2015 18:55:00 3.4 C 5.8 g/m*3 -0.86 C 19.3 km/h
229 26-01-2015 19:00:00 3.5 C 5.84 g/m*3 -0.28 C 16.1 km/h
230 26-01-2015 19:05:00 3.6 C 5.88 g/m*3 0.7 C 11.3 km/h
231 26-01-2015 19:10:00 3.7 C 5.92 g/m*3 -0.03 C 16.1 km/h
232 26-01-2015 19:15:00 3.7 C 5.92 g/m*3 0.51 C 12.9 km/h
233 26-01-2015 19:20:00 3.7 C 5.92 g/m*3 0.82 C 11.3 km/h
234 26-01-2015 19:25:00 3.7 C 5.92 g/m*3 0.82 C 11.3 km/h
235 26-01-2015 19:30:00 3.7 C 5.92 g/m*3 1.18 C 9.7 km/h
236 26-01-2015 19:35:00 3.8 C 5.96 g/m*3 1.29 C 9.7 km/h
237 26-01-2015 19:40:00 3.8 C 5.96 g/m*3 3.8 C 3.2 km/h
238 26-01-2015 19:45:00 3.8 C 5.96 g/m*3 1.7 C 8.1 km/h
239 26-01-2015 19:50:00 3.8 C 5.96 g/m*3 3.8 C 4.8 km/h
240 26-01-2015 19:55:00 3.9 C 6.06 g/m*3 3.9 C 3.2 km/h
241 26-01-2015 20:00:00 4 C 6.1 g/m*3 2.44 C 6.4 km/h
242 26-01-2015 20:05:00 4.1 C 6.14 g/m*3 4.1 C 3.2 km/h
243 26-01-2015 20:10:00 4.2 C 6.19 g/m*3 4.2 C 3.2 km/h
244 26-01-2015 20:15:00 4.2 C 6.19 g/m*3 4.2 C 3.2 km/h
245 26-01-2015 20:20:00 4.1 C 6.14 g/m*3 4.1 C 3.2 km/h
246 26-01-2015 20:25:00 4.1 C 6.14 g/m*3 4.1 C 0 km/h
247 26-01-2015 20:30:00 3.9 C 6.06 g/m*3 3.9 C 4.8 km/h
248 26-01-2015 20:35:00 4 C 6.1 g/m*3 4 C 4.8 km/h
249 26-01-2015 20:40:00 4 C 6.1 g/m*3 4 C 3.2 km/h
250 26-01-2015 20:45:00 3.9 C 6.06 g/m*3 2.32 C 6.4 km/h
Sensor: Nr:Datum:Temp:Abs-Feuchte:Windchill:Wind:
Aussen-T/F 251 26-01-2015 20:50:00 4.1 C 6.21 g/m*3 2.05 C 8.1 km/h
252 26-01-2015 20:55:00 4.2 C 6.25 g/m*3 2.67 C 6.4 km/h
253 26-01-2015 21:00:00 4.4 C 6.33 g/m*3 2.9 C 6.4 km/h
254 26-01-2015 21:05:00 4.4 C 6.33 g/m*3 4.4 C 3.2 km/h
255 26-01-2015 21:10:00 4.2 C 6.19 g/m*3 2.17 C 8.1 km/h
256 26-01-2015 21:15:00 4.2 C 6.25 g/m*3 4.2 C 4.8 km/h
257 26-01-2015 21:20:00 4.3 C 6.29 g/m*3 4.3 C 4.8 km/h
258 26-01-2015 21:25:00 4.4 C 6.33 g/m*3 4.4 C 4.8 km/h
259 26-01-2015 21:30:00 4.5 C 6.38 g/m*3 4.5 C 4.8 km/h
260 26-01-2015 21:35:00 4.6 C 6.42 g/m*3 4.6 C 4.8 km/h
261 26-01-2015 21:40:00 4.6 C 6.42 g/m*3 2.64 C 8.1 km/h
262 26-01-2015 21:45:00 4.7 C 6.46 g/m*3 2.03 C 11.3 km/h
263 26-01-2015 21:50:00 4.8 C 6.44 g/m*3 2.87 C 8.1 km/h
264 26-01-2015 21:55:00 4.9 C 6.41 g/m*3 4.9 C 4.8 km/h
265 26-01-2015 22:00:00 5 C 6.46 g/m*3 5 C 4.8 km/h
266 26-01-2015 22:05:00 5.1 C 6.43 g/m*3 5.1 C 1.6 km/h
267 26-01-2015 22:10:00 5.1 C 6.43 g/m*3 3.23 C 8.1 km/h
268 26-01-2015 22:15:00 5.1 C 6.43 g/m*3 2.84 C 9.7 km/h
269 26-01-2015 22:20:00 5.1 C 6.36 g/m*3 5.1 C 4.8 km/h
270 26-01-2015 22:25:00 5.1 C 6.29 g/m*3 5.1 C 4.8 km/h
271 26-01-2015 22:30:00 5.2 C 6.33 g/m*3 2.96 C 9.7 km/h
272 26-01-2015 22:35:00 5.2 C 6.27 g/m*3 2.63 C 11.3 km/h
273 26-01-2015 22:40:00 5.2 C 6.27 g/m*3 3.34 C 8.1 km/h
274 26-01-2015 22:45:00 5.2 C 6.2 g/m*3 2.63 C 11.3 km/h
275 26-01-2015 22:50:00 5.2 C 6.2 g/m*3 2.96 C 9.7 km/h
Sensor: Nr:Datum:Temp:Abs-Feuchte:Windchill:Wind:
Aussen-T/F 276 26-01-2015 22:55:00 5.1 C 6.22 g/m*3 3.71 C 6.4 km/h
277 26-01-2015 23:00:00 5.1 C 6.16 g/m*3 1.95 C 14.5 km/h
278 26-01-2015 23:05:00 5.1 C 6.22 g/m*3 2.51 C 11.3 km/h
279 26-01-2015 23:10:00 5.1 C 6.22 g/m*3 2.51 C 11.3 km/h
280 26-01-2015 23:15:00 5.1 C 6.16 g/m*3 3.23 C 8.1 km/h
281 26-01-2015 23:20:00 5 C 6.05 g/m*3 3.11 C 8.1 km/h
282 26-01-2015 23:25:00 4.9 C 6.01 g/m*3 2.61 C 9.7 km/h
283 26-01-2015 23:30:00 4.9 C 6.08 g/m*3 3.48 C 6.4 km/h
284 26-01-2015 23:35:00 4.8 C 6.04 g/m*3 2.49 C 9.7 km/h
285 26-01-2015 23:40:00 4.7 C 6 g/m*3 1.73 C 12.9 km/h
286 26-01-2015 23:45:00 4.5 C 5.98 g/m*3 0.96 C 16.1 km/h
287 26-01-2015 23:50:00 4.3 C 5.9 g/m*3 0.72 C 16.1 km/h
288 26-01-2015 23:55:00 4.2 C 5.86 g/m*3 0.84 C 14.5 km/h
289 27-01-2015 00:00:00 4.1 C 5.89 g/m*3 1.31 C 11.3 km/h
290 27-01-2015 00:05:00 4 C 5.85 g/m*3 1.93 C 8.1 km/h
291 27-01-2015 00:10:00 3.9 C 5.81 g/m*3 2.32 C 6.4 km/h
292 27-01-2015 00:15:00 3.8 C 5.77 g/m*3 0.63 C 12.9 km/h
293 27-01-2015 00:20:00 3.6 C 5.69 g/m*3 3.6 C 4.8 km/h
294 27-01-2015 00:25:00 3.4 C 5.68 g/m*3 1.75 C 6.4 km/h
295 27-01-2015 00:30:00 3.3 C 5.7 g/m*3 1.11 C 8.1 km/h
296 27-01-2015 00:35:00 3.3 C 5.7 g/m*3 3.3 C 3.2 km/h
297 27-01-2015 00:40:00 3.4 C 5.74 g/m*3 1.23 C 8.1 km/h
298 27-01-2015 00:45:00 3.5 C 5.78 g/m*3 1.34 C 8.1 km/h
299 27-01-2015 00:50:00 3.5 C 5.78 g/m*3 1.34 C 8.1 km/h
300 27-01-2015 00:55:00 3.5 C 5.72 g/m*3 3.5 C 0 km/h
Sensor: Nr:Datum:Temp:Abs-Feuchte:Windchill:Wind:
Aussen-T/F 301 27-01-2015 01:00:00 3.5 C 5.78 g/m*3 3.5 C 3.2 km/h
302 27-01-2015 01:05:00 3.5 C 5.78 g/m*3 3.5 C 0 km/h
303 27-01-2015 01:10:00 3.4 C 5.74 g/m*3 3.4 C 1.6 km/h
304 27-01-2015 01:15:00 3.3 C 5.7 g/m*3 3.3 C 4.8 km/h
305 27-01-2015 01:20:00 3.3 C 5.7 g/m*3 3.3 C 4.8 km/h
306 27-01-2015 01:25:00 3.3 C 5.76 g/m*3 3.3 C 3.2 km/h
307 27-01-2015 01:30:00 3.3 C 5.76 g/m*3 1.63 C 6.4 km/h
308 27-01-2015 01:35:00 3.4 C 5.8 g/m*3 3.4 C 4.8 km/h
309 27-01-2015 01:40:00 3.6 C 5.88 g/m*3 1.46 C 8.1 km/h
310 27-01-2015 01:45:00 3.7 C 5.92 g/m*3 3.7 C 4.8 km/h
311 27-01-2015 01:50:00 3.8 C 5.9 g/m*3 3.8 C 4.8 km/h
312 27-01-2015 01:55:00 3.8 C 5.9 g/m*3 3.8 C 4.8 km/h
313 27-01-2015 02:00:00 3.9 C 5.94 g/m*3 3.9 C 3.2 km/h
314 27-01-2015 02:05:00 3.9 C 5.94 g/m*3 3.9 C 4.8 km/h
315 27-01-2015 02:10:00 3.9 C 5.94 g/m*3 2.32 C 6.4 km/h
316 27-01-2015 02:15:00 4 C 5.91 g/m*3 1.53 C 9.7 km/h
317 27-01-2015 02:20:00 4.1 C 5.95 g/m*3 4.1 C 4.8 km/h
318 27-01-2015 02:25:00 4.1 C 5.95 g/m*3 4.1 C 1.6 km/h
319 27-01-2015 02:30:00 4.1 C 5.95 g/m*3 4.1 C 4.8 km/h
320 27-01-2015 02:35:00 4 C 5.91 g/m*3 4 C 3.2 km/h
321 27-01-2015 02:40:00 4 C 5.91 g/m*3 4 C 1.6 km/h
322 27-01-2015 02:45:00 4 C 5.98 g/m*3 1.93 C 8.1 km/h
323 27-01-2015 02:50:00 4 C 5.91 g/m*3 2.44 C 6.4 km/h
324 27-01-2015 02:55:00 4.1 C 5.89 g/m*3 1.31 C 11.3 km/h
325 27-01-2015 03:00:00 4.1 C 5.89 g/m*3 2.55 C 6.4 km/h
Sensor: Nr:Datum:Temp:Abs-Feuchte:Windchill:Wind:
Aussen-T/F 326 27-01-2015 03:05:00 4.1 C 5.89 g/m*3 4.1 C 4.8 km/h
327 27-01-2015 03:10:00 4 C 5.85 g/m*3 2.44 C 6.4 km/h
328 27-01-2015 03:15:00 3.9 C 5.81 g/m*3 3.9 C 4.8 km/h
329 27-01-2015 03:20:00 3.9 C 5.87 g/m*3 3.9 C 3.2 km/h
330 27-01-2015 03:25:00 3.9 C 5.87 g/m*3 2.32 C 6.4 km/h
331 27-01-2015 03:30:00 3.9 C 5.87 g/m*3 3.9 C 3.2 km/h
332 27-01-2015 03:35:00 3.9 C 5.87 g/m*3 3.9 C 1.6 km/h
333 27-01-2015 03:40:00 3.8 C 5.83 g/m*3 3.8 C 4.8 km/h
334 27-01-2015 03:45:00 3.8 C 5.83 g/m*3 3.8 C 1.6 km/h
335 27-01-2015 03:50:00 3.8 C 5.9 g/m*3 3.8 C 4.8 km/h
336 27-01-2015 03:55:00 3.8 C 5.9 g/m*3 3.8 C 1.6 km/h
337 27-01-2015 04:00:00 3.8 C 5.9 g/m*3 3.8 C 3.2 km/h
338 27-01-2015 04:05:00 3.8 C 5.9 g/m*3 3.8 C 3.2 km/h
339 27-01-2015 04:10:00 3.7 C 5.86 g/m*3 3.7 C 1.6 km/h
340 27-01-2015 04:15:00 3.7 C 5.86 g/m*3 3.7 C 3.2 km/h
341 27-01-2015 04:20:00 3.7 C 5.86 g/m*3 3.7 C 1.6 km/h
342 27-01-2015 04:25:00 3.7 C 5.86 g/m*3 1.18 C 9.7 km/h
343 27-01-2015 04:30:00 3.7 C 5.86 g/m*3 2.09 C 6.4 km/h
344 27-01-2015 04:35:00 3.7 C 5.86 g/m*3 3.7 C 3.2 km/h
345 27-01-2015 04:40:00 3.7 C 5.86 g/m*3 3.7 C 1.6 km/h
346 27-01-2015 04:45:00 3.7 C 5.86 g/m*3 1.18 C 9.7 km/h
347 27-01-2015 04:50:00 3.7 C 5.8 g/m*3 3.7 C 3.2 km/h
348 27-01-2015 04:55:00 3.7 C 5.8 g/m*3 1.18 C 9.7 km/h
349 27-01-2015 05:00:00 3.6 C 5.76 g/m*3 3.6 C 4.8 km/h
350 27-01-2015 05:05:00 3.6 C 5.76 g/m*3 1.98 C 6.4 km/h
Sensor: Nr:Datum:Temp:Abs-Feuchte:Windchill:Wind:
Aussen-T/F 351 27-01-2015 05:10:00 3.5 C 5.72 g/m*3 3.5 C 3.2 km/h
352 27-01-2015 05:15:00 3.3 C 5.64 g/m*3 3.3 C 0 km/h
353 27-01-2015 05:20:00 3.2 C 5.66 g/m*3 3.2 C 3.2 km/h
354 27-01-2015 05:25:00 3.1 C 5.63 g/m*3 3.1 C 1.6 km/h
355 27-01-2015 05:30:00 3.1 C 5.69 g/m*3 3.1 C 1.6 km/h
356 27-01-2015 05:35:00 3.2 C 5.72 g/m*3 -0.1 C 12.9 km/h
357 27-01-2015 05:40:00 3.2 C 5.72 g/m*3 3.2 C 1.6 km/h
358 27-01-2015 05:45:00 3.1 C 5.69 g/m*3 3.1 C 1.6 km/h
359 27-01-2015 05:50:00 3.1 C 5.69 g/m*3 3.1 C 1.6 km/h
360 27-01-2015 05:55:00 3.1 C 5.69 g/m*3 3.1 C 1.6 km/h
361 27-01-2015 06:00:00 3.2 C 5.72 g/m*3 3.2 C 3.2 km/h
362 27-01-2015 06:05:00 3.3 C 5.76 g/m*3 3.3 C 1.6 km/h
363 27-01-2015 06:10:00 3.3 C 5.76 g/m*3 3.3 C 4.8 km/h
364 27-01-2015 06:15:00 3.4 C 5.74 g/m*3 3.4 C 4.8 km/h
365 27-01-2015 06:20:00 3.5 C 5.78 g/m*3 0.94 C 9.7 km/h
366 27-01-2015 06:25:00 3.6 C 5.76 g/m*3 3.6 C 3.2 km/h
367 27-01-2015 06:30:00 3.5 C 5.72 g/m*3 3.5 C 3.2 km/h
368 27-01-2015 06:35:00 3.5 C 5.72 g/m*3 3.5 C 3.2 km/h
369 27-01-2015 06:40:00 3.5 C 5.72 g/m*3 3.5 C 4.8 km/h
370 27-01-2015 06:45:00 3.5 C 5.72 g/m*3 3.5 C 1.6 km/h
371 27-01-2015 06:50:00 3.5 C 5.78 g/m*3 1.86 C 6.4 km/h
372 27-01-2015 06:55:00 3.5 C 5.78 g/m*3 3.5 C 1.6 km/h
373 27-01-2015 07:00:00 3.5 C 5.78 g/m*3 3.5 C 0 km/h
374 27-01-2015 07:05:00 3.4 C 5.74 g/m*3 3.4 C 3.2 km/h
375 27-01-2015 07:10:00 3.4 C 5.74 g/m*3 1.23 C 8.1 km/h
Sensor: Nr:Datum:Temp:Abs-Feuchte:Windchill:Wind:
Aussen-T/F 376 27-01-2015 07:15:00 3.3 C 5.7 g/m*3 3.3 C 3.2 km/h
377 27-01-2015 07:20:00 3.3 C 5.7 g/m*3 3.3 C 3.2 km/h
378 27-01-2015 07:25:00 3.4 C 5.74 g/m*3 3.4 C 0 km/h
379 27-01-2015 07:30:00 3.4 C 5.74 g/m*3 3.4 C 1.6 km/h
380 27-01-2015 07:35:00 3.4 C 5.74 g/m*3 3.4 C 3.2 km/h
381 27-01-2015 07:40:00 3.4 C 5.74 g/m*3 1.23 C 8.1 km/h
382 27-01-2015 07:45:00 3.5 C 5.72 g/m*3 1.86 C 6.4 km/h
383 27-01-2015 07:50:00 3.6 C 5.76 g/m*3 3.6 C 4.8 km/h
384 27-01-2015 07:55:00 3.7 C 5.73 g/m*3 3.7 C 4.8 km/h
385 27-01-2015 08:00:00 3.8 C 5.71 g/m*3 3.8 C 3.2 km/h
386 27-01-2015 08:05:00 3.8 C 5.71 g/m*3 3.8 C 3.2 km/h
387 27-01-2015 08:10:00 3.7 C 5.73 g/m*3 3.7 C 1.6 km/h
388 27-01-2015 08:15:00 3.7 C 5.73 g/m*3 3.7 C 3.2 km/h
389 27-01-2015 08:20:00 3.7 C 5.73 g/m*3 3.7 C 1.6 km/h
390 27-01-2015 08:25:00 3.7 C 5.73 g/m*3 3.7 C 3.2 km/h
391 27-01-2015 08:30:00 3.7 C 5.73 g/m*3 3.7 C 1.6 km/h
392 27-01-2015 08:35:00 3.7 C 5.73 g/m*3 3.7 C 3.2 km/h
393 27-01-2015 08:40:00 3.7 C 5.67 g/m*3 2.09 C 6.4 km/h
394 27-01-2015 08:45:00 3.7 C 5.67 g/m*3 2.09 C 6.4 km/h
395 27-01-2015 08:50:00 3.7 C 5.67 g/m*3 2.09 C 6.4 km/h
396 27-01-2015 08:55:00 3.8 C 5.71 g/m*3 3.8 C 3.2 km/h
397 27-01-2015 09:00:00 3.8 C 5.71 g/m*3 3.8 C 3.2 km/h
398 27-01-2015 09:05:00 3.8 C 5.71 g/m*3 3.8 C 4.8 km/h
399 27-01-2015 09:10:00 3.8 C 5.71 g/m*3 3.8 C 1.6 km/h
400 27-01-2015 09:15:00 3.8 C 5.71 g/m*3 3.8 C 3.2 km/h
Sensor: Nr:Datum:Temp:Abs-Feuchte:Windchill:Wind:
Aussen-T/F 401 27-01-2015 09:20:00 3.8 C 5.71 g/m*3 3.8 C 3.2 km/h
402 27-01-2015 09:25:00 3.8 C 5.71 g/m*3 1.7 C 8.1 km/h
403 27-01-2015 09:30:00 3.8 C 5.71 g/m*3 3.8 C 4.8 km/h
404 27-01-2015 09:35:00 3.9 C 5.75 g/m*3 1.82 C 8.1 km/h
405 27-01-2015 09:40:00 3.9 C 5.68 g/m*3 1.82 C 8.1 km/h
406 27-01-2015 09:45:00 3.9 C 5.68 g/m*3 3.9 C 4.8 km/h
407 27-01-2015 09:50:00 3.9 C 5.68 g/m*3 3.9 C 4.8 km/h
408 27-01-2015 09:55:00 3.9 C 5.68 g/m*3 2.32 C 6.4 km/h
409 27-01-2015 10:00:00 3.9 C 5.68 g/m*3 2.32 C 6.4 km/h
410 27-01-2015 10:05:00 3.9 C 5.68 g/m*3 2.32 C 6.4 km/h
411 27-01-2015 10:10:00 3.9 C 5.68 g/m*3 2.32 C 6.4 km/h
412 27-01-2015 10:15:00 3.9 C 5.75 g/m*3 1.82 C 8.1 km/h
413 27-01-2015 10:20:00 3.9 C 5.75 g/m*3 3.9 C 3.2 km/h
414 27-01-2015 10:25:00 3.8 C 5.77 g/m*3 3.8 C 1.6 km/h
415 27-01-2015 10:30:00 3.8 C 5.77 g/m*3 3.8 C 3.2 km/h
416 27-01-2015 10:35:00 3.7 C 5.73 g/m*3 1.58 C 8.1 km/h
417 27-01-2015 10:40:00 3.7 C 5.8 g/m*3 2.09 C 6.4 km/h
418 27-01-2015 10:45:00 3.7 C 5.8 g/m*3 1.58 C 8.1 km/h
419 27-01-2015 10:50:00 3.8 C 5.83 g/m*3 3.8 C 3.2 km/h
420 27-01-2015 10:55:00 3.8 C 5.83 g/m*3 3.8 C 4.8 km/h
421 27-01-2015 11:00:00 3.8 C 5.83 g/m*3 3.8 C 4.8 km/h
422 27-01-2015 11:05:00 3.9 C 5.87 g/m*3 3.9 C 3.2 km/h
423 27-01-2015 11:10:00 3.9 C 5.94 g/m*3 3.9 C 1.6 km/h
424 27-01-2015 11:15:00 3.9 C 5.87 g/m*3 3.9 C 4.8 km/h
425 27-01-2015 11:20:00 4 C 5.91 g/m*3 4 C 1.6 km/h
Sensor: Nr:Datum:Temp:Abs-Feuchte:Windchill:Wind:
Aussen-T/F 426 27-01-2015 11:25:00 4 C 5.98 g/m*3 4 C 1.6 km/h
427 27-01-2015 11:30:00 4 C 5.98 g/m*3 4 C 1.6 km/h
428 27-01-2015 11:35:00 4 C 5.98 g/m*3 4 C 3.2 km/h
429 27-01-2015 11:40:00 4.1 C 6.02 g/m*3 2.55 C 6.4 km/h
430 27-01-2015 11:45:00 4.1 C 6.02 g/m*3 1.31 C 11.3 km/h
431 27-01-2015 11:50:00 4.2 C 6.06 g/m*3 4.2 C 3.2 km/h
432 27-01-2015 11:55:00 4.3 C 6.1 g/m*3 1.89 C 9.7 km/h
433 27-01-2015 12:00:00 4.4 C 6.07 g/m*3 4.4 C 4.8 km/h
434 27-01-2015 12:05:00 4.5 C 6.11 g/m*3 4.5 C 4.8 km/h
435 27-01-2015 12:10:00 4.6 C 6.22 g/m*3 4.6 C 3.2 km/h
436 27-01-2015 12:15:00 4.7 C 6.19 g/m*3 4.7 C 4.8 km/h
437 27-01-2015 12:20:00 4.7 C 6.19 g/m*3 4.7 C 4.8 km/h
438 27-01-2015 12:25:00 4.8 C 6.24 g/m*3 4.8 C 3.2 km/h
439 27-01-2015 12:30:00 4.8 C 6.24 g/m*3 2.87 C 8.1 km/h
440 27-01-2015 12:35:00 4.8 C 6.17 g/m*3 4.8 C 4.8 km/h
441 27-01-2015 12:40:00 4.9 C 6.21 g/m*3 4.9 C 4.8 km/h
442 27-01-2015 12:45:00 4.9 C 6.21 g/m*3 2.99 C 8.1 km/h
443 27-01-2015 12:50:00 4.9 C 6.14 g/m*3 3.48 C 6.4 km/h
444 27-01-2015 12:55:00 4.9 C 6.14 g/m*3 4.9 C 4.8 km/h
445 27-01-2015 13:00:00 5 C 6.18 g/m*3 3.11 C 8.1 km/h
446 27-01-2015 13:05:00 5 C 6.18 g/m*3 3.59 C 6.4 km/h
447 27-01-2015 13:10:00 4.9 C 6.14 g/m*3 2.99 C 8.1 km/h
448 27-01-2015 13:15:00 4.9 C 6.08 g/m*3 2.99 C 8.1 km/h
449 27-01-2015 13:20:00 4.8 C 6.1 g/m*3 2.49 C 9.7 km/h
450 27-01-2015 13:25:00 4.7 C 6 g/m*3 2.37 C 9.7 km/h
Sensor: Nr:Datum:Temp:Abs-Feuchte:Windchill:Wind:
Aussen-T/F 451 27-01-2015 13:30:00 4.7 C 6.06 g/m*3 2.37 C 9.7 km/h
452 27-01-2015 13:35:00 4.7 C 6.06 g/m*3 2.03 C 11.3 km/h
453 27-01-2015 13:40:00 4.7 C 6.06 g/m*3 3.25 C 6.4 km/h
454 27-01-2015 13:45:00 4.6 C 6.02 g/m*3 3.13 C 6.4 km/h
455 27-01-2015 13:50:00 4.6 C 6.09 g/m*3 4.6 C 3.2 km/h
456 27-01-2015 13:55:00 4.6 C 6.09 g/m*3 4.6 C 4.8 km/h
457 27-01-2015 14:00:00 4.6 C 6.09 g/m*3 3.13 C 6.4 km/h
458 27-01-2015 14:05:00 4.6 C 6.09 g/m*3 3.13 C 6.4 km/h
459 27-01-2015 14:10:00 4.7 C 6.13 g/m*3 3.25 C 6.4 km/h
460 27-01-2015 14:15:00 4.8 C 6.17 g/m*3 4.8 C 3.2 km/h
461 27-01-2015 14:20:00 4.9 C 6.21 g/m*3 2.99 C 8.1 km/h
462 27-01-2015 14:25:00 5.1 C 6.22 g/m*3 5.1 C 4.8 km/h
463 27-01-2015 14:30:00 5.1 C 6.16 g/m*3 3.23 C 8.1 km/h
464 27-01-2015 14:35:00 5.2 C 6.2 g/m*3 5.2 C 4.8 km/h
465 27-01-2015 14:40:00 5.2 C 6.2 g/m*3 5.2 C 4.8 km/h
466 27-01-2015 14:45:00 5.3 C 6.24 g/m*3 2.75 C 11.3 km/h
467 27-01-2015 14:50:00 5.2 C 6.2 g/m*3 3.82 C 6.4 km/h
468 27-01-2015 14:55:00 5.2 C 6.2 g/m*3 3.82 C 6.4 km/h
469 27-01-2015 15:00:00 5.1 C 6.16 g/m*3 2.51 C 11.3 km/h
470 27-01-2015 15:05:00 5.1 C 6.16 g/m*3 3.71 C 6.4 km/h
471 27-01-2015 15:10:00 5.1 C 6.16 g/m*3 2.84 C 9.7 km/h
472 27-01-2015 15:15:00 5.1 C 6.09 g/m*3 3.71 C 6.4 km/h
473 27-01-2015 15:20:00 5.2 C 6.13 g/m*3 2.63 C 11.3 km/h
474 27-01-2015 15:25:00 5.2 C 6.06 g/m*3 2.63 C 11.3 km/h
475 27-01-2015 15:30:00 5.2 C 6.13 g/m*3 2.63 C 11.3 km/h
Sensor: Nr:Datum:Temp:Abs-Feuchte:Windchill:Wind:
Aussen-T/F 476 27-01-2015 15:35:00 5.1 C 6.09 g/m*3 2.51 C 11.3 km/h
477 27-01-2015 15:40:00 5.1 C 6.09 g/m*3 3.23 C 8.1 km/h
478 27-01-2015 15:45:00 4.9 C 6.08 g/m*3 2.61 C 9.7 km/h
479 27-01-2015 15:50:00 4.7 C 6 g/m*3 2.37 C 9.7 km/h
480 27-01-2015 15:55:00 4.6 C 6.02 g/m*3 2.64 C 8.1 km/h
481 27-01-2015 16:00:00 4.4 C 5.94 g/m*3 2.9 C 6.4 km/h
482 27-01-2015 16:05:00 4.3 C 5.97 g/m*3 4.3 C 4.8 km/h
483 27-01-2015 16:10:00 4.2 C 5.93 g/m*3 1.77 C 9.7 km/h
484 27-01-2015 16:15:00 4.1 C 5.89 g/m*3 1.65 C 9.7 km/h
485 27-01-2015 16:20:00 3.9 C 5.81 g/m*3 2.32 C 6.4 km/h
486 27-01-2015 16:25:00 3.8 C 5.83 g/m*3 1.7 C 8.1 km/h
487 27-01-2015 16:30:00 3.8 C 5.83 g/m*3 0.94 C 11.3 km/h
488 27-01-2015 16:35:00 3.7 C 5.8 g/m*3 1.18 C 9.7 km/h
489 27-01-2015 16:40:00 3.7 C 5.8 g/m*3 2.09 C 6.4 km/h
490 27-01-2015 16:45:00 3.7 C 5.8 g/m*3 3.7 C 1.6 km/h
491 27-01-2015 16:50:00 3.6 C 5.76 g/m*3 3.6 C 3.2 km/h
492 27-01-2015 16:55:00 3.6 C 5.82 g/m*3 3.6 C 4.8 km/h
493 27-01-2015 17:00:00 3.6 C 5.82 g/m*3 1.98 C 6.4 km/h
494 27-01-2015 17:05:00 3.6 C 5.82 g/m*3 1.98 C 6.4 km/h
495 27-01-2015 17:10:00 3.6 C 5.82 g/m*3 3.6 C 3.2 km/h
496 27-01-2015 17:15:00 3.6 C 5.82 g/m*3 3.6 C 3.2 km/h
497 27-01-2015 17:20:00 3.6 C 5.82 g/m*3 3.6 C 0 km/h
498 27-01-2015 17:25:00 3.6 C 5.82 g/m*3 3.6 C 0 km/h
499 27-01-2015 17:30:00 3.6 C 5.88 g/m*3 3.6 C 0 km/h
500 27-01-2015 17:35:00 3.6 C 5.88 g/m*3 3.6 C 0 km/h
Sensor: Nr:Datum:Temp:Abs-Feuchte:Windchill:Wind:
Aussen-T/F 501 27-01-2015 17:40:00 3.6 C 5.88 g/m*3 3.6 C 1.6 km/h
502 27-01-2015 17:45:00 3.6 C 5.88 g/m*3 3.6 C 0 km/h
503 27-01-2015 17:50:00 3.6 C 5.88 g/m*3 3.6 C 0 km/h
504 27-01-2015 17:55:00 3.6 C 5.88 g/m*3 3.6 C 0 km/h
505 27-01-2015 18:00:00 3.6 C 5.94 g/m*3 3.6 C 0 km/h
506 27-01-2015 18:05:00 3.6 C 5.94 g/m*3 3.6 C 0 km/h
507 27-01-2015 18:10:00 3.6 C 5.94 g/m*3 3.6 C 3.2 km/h
508 27-01-2015 18:15:00 3.6 C 5.94 g/m*3 3.6 C 0 km/h
509 27-01-2015 18:20:00 3.6 C 5.94 g/m*3 3.6 C 1.6 km/h
510 27-01-2015 18:25:00 3.6 C 5.94 g/m*3 3.6 C 1.6 km/h
511 27-01-2015 18:30:00 3.6 C 5.94 g/m*3 3.6 C 0 km/h
512 27-01-2015 18:35:00 3.6 C 5.94 g/m*3 3.6 C 0 km/h
513 27-01-2015 18:40:00 3.6 C 5.94 g/m*3 3.6 C 1.6 km/h
514 27-01-2015 18:45:00 3.6 C 5.94 g/m*3 3.6 C 1.6 km/h
515 27-01-2015 18:50:00 3.6 C 5.94 g/m*3 3.6 C 3.2 km/h
516 27-01-2015 18:55:00 3.6 C 5.94 g/m*3 3.6 C 1.6 km/h
517 27-01-2015 19:00:00 3.6 C 5.94 g/m*3 3.6 C 0 km/h
518 27-01-2015 19:05:00 3.6 C 5.94 g/m*3 3.6 C 0 km/h
519 27-01-2015 19:10:00 3.6 C 6 g/m*3 3.6 C 0 km/h
520 27-01-2015 19:15:00 3.6 C 6 g/m*3 3.6 C 3.2 km/h
521 27-01-2015 19:20:00 3.6 C 6 g/m*3 3.6 C 4.8 km/h
522 27-01-2015 19:25:00 3.6 C 6 g/m*3 3.6 C 3.2 km/h
523 27-01-2015 19:30:00 3.6 C 6 g/m*3 3.6 C 0 km/h
524 27-01-2015 19:35:00 3.6 C 6 g/m*3 3.6 C 0 km/h
525 27-01-2015 19:40:00 3.7 C 6.04 g/m*3 3.7 C 1.6 km/h
Sensor: Nr:Datum:Temp:Abs-Feuchte:Windchill:Wind:
Aussen-T/F 526 27-01-2015 19:45:00 3.6 C 6 g/m*3 3.6 C 4.8 km/h
527 27-01-2015 19:50:00 3.6 C 6 g/m*3 3.6 C 1.6 km/h
528 27-01-2015 19:55:00 3.6 C 6 g/m*3 3.6 C 0 km/h
529 27-01-2015 20:00:00 3.6 C 6 g/m*3 3.6 C 1.6 km/h
530 27-01-2015 20:05:00 3.6 C 6 g/m*3 3.6 C 0 km/h
531 27-01-2015 20:10:00 3.6 C 6 g/m*3 3.6 C 0 km/h
532 27-01-2015 20:15:00 3.6 C 6 g/m*3 3.6 C 0 km/h
533 27-01-2015 20:20:00 3.6 C 6 g/m*3 3.6 C 1.6 km/h
534 27-01-2015 20:25:00 3.6 C 6 g/m*3 3.6 C 1.6 km/h
535 27-01-2015 20:30:00 3.6 C 6 g/m*3 3.6 C 1.6 km/h
536 27-01-2015 20:35:00 3.6 C 6 g/m*3 3.6 C 0 km/h
537 27-01-2015 20:40:00 3.6 C 6 g/m*3 3.6 C 0 km/h
538 27-01-2015 20:45:00 3.6 C 6 g/m*3 3.6 C 3.2 km/h
539 27-01-2015 20:50:00 3.6 C 6 g/m*3 3.6 C 1.6 km/h
540 27-01-2015 20:55:00 3.6 C 6 g/m*3 3.6 C 0 km/h
541 27-01-2015 21:00:00 3.5 C 5.96 g/m*3 3.5 C 0 km/h
542 27-01-2015 21:05:00 3.5 C 5.96 g/m*3 3.5 C 0 km/h
543 27-01-2015 21:10:00 3.5 C 5.96 g/m*3 3.5 C 0 km/h
544 27-01-2015 21:15:00 3.5 C 5.96 g/m*3 3.5 C 1.6 km/h
545 27-01-2015 21:20:00 3.5 C 5.96 g/m*3 3.5 C 1.6 km/h
546 27-01-2015 21:25:00 3.4 C 5.92 g/m*3 3.4 C 0 km/h
547 27-01-2015 21:30:00 3.4 C 5.92 g/m*3 3.4 C 0 km/h
548 27-01-2015 21:35:00 3.4 C 5.92 g/m*3 3.4 C 0 km/h
549 27-01-2015 21:40:00 3.4 C 5.92 g/m*3 3.4 C 3.2 km/h
550 27-01-2015 21:45:00 3.4 C 5.92 g/m*3 3.4 C 1.6 km/h
Sensor: Nr:Datum:Temp:Abs-Feuchte:Windchill:Wind:
Aussen-T/F 551 27-01-2015 21:50:00 3.4 C 5.92 g/m*3 3.4 C 0 km/h
552 27-01-2015 21:55:00 3.4 C 5.92 g/m*3 3.4 C 0 km/h
553 27-01-2015 22:00:00 3.4 C 5.92 g/m*3 3.4 C 3.2 km/h
554 27-01-2015 22:05:00 3.4 C 5.92 g/m*3 3.4 C 1.6 km/h
555 27-01-2015 22:10:00 3.4 C 5.92 g/m*3 3.4 C 0 km/h
556 27-01-2015 22:15:00 3.4 C 5.92 g/m*3 3.4 C 1.6 km/h
557 27-01-2015 22:20:00 3.4 C 5.92 g/m*3 3.4 C 1.6 km/h
558 27-01-2015 22:25:00 3.4 C 5.92 g/m*3 3.4 C 0 km/h
559 27-01-2015 22:30:00 3.4 C 5.92 g/m*3 3.4 C 0 km/h
560 27-01-2015 22:35:00 3.4 C 5.92 g/m*3 3.4 C 0 km/h
561 27-01-2015 22:40:00 3.4 C 5.92 g/m*3 3.4 C 4.8 km/h
562 27-01-2015 22:45:00 3.4 C 5.92 g/m*3 3.4 C 1.6 km/h
563 27-01-2015 22:50:00 3.4 C 5.92 g/m*3 3.4 C 4.8 km/h
564 27-01-2015 22:55:00 3.4 C 5.92 g/m*3 3.4 C 0 km/h
565 27-01-2015 23:00:00 3.4 C 5.92 g/m*3 3.4 C 4.8 km/h
566 27-01-2015 23:05:00 3.4 C 5.92 g/m*3 3.4 C 3.2 km/h
567 27-01-2015 23:10:00 3.5 C 5.96 g/m*3 3.5 C 4.8 km/h
568 27-01-2015 23:15:00 3.5 C 5.96 g/m*3 3.5 C 1.6 km/h
569 27-01-2015 23:20:00 3.5 C 5.96 g/m*3 3.5 C 4.8 km/h
570 27-01-2015 23:25:00 3.5 C 5.96 g/m*3 3.5 C 4.8 km/h
571 27-01-2015 23:30:00 3.5 C 5.96 g/m*3 3.5 C 4.8 km/h
572 27-01-2015 23:35:00 3.5 C 5.96 g/m*3 3.5 C 3.2 km/h
573 27-01-2015 23:40:00 3.5 C 5.96 g/m*3 3.5 C 3.2 km/h
574 27-01-2015 23:45:00 3.5 C 5.96 g/m*3 3.5 C 4.8 km/h
575 27-01-2015 23:50:00 3.5 C 5.96 g/m*3 1.86 C 6.4 km/h
Sensor: Nr:Datum:Temp:Abs-Feuchte:Windchill:Wind:
Aussen-T/F 576 27-01-2015 23:55:00 3.6 C 6 g/m*3 1.98 C 6.4 km/h
577 28-01-2015 00:00:00 3.6 C 6 g/m*3 3.6 C 1.6 km/h
578 28-01-2015 00:05:00 3.6 C 6 g/m*3 3.6 C 4.8 km/h
579 28-01-2015 00:10:00 3.6 C 6 g/m*3 3.6 C 0 km/h
580 28-01-2015 00:15:00 3.5 C 5.9 g/m*3 3.5 C 0 km/h
581 28-01-2015 00:20:00 3.5 C 5.9 g/m*3 3.5 C 0 km/h
582 28-01-2015 00:25:00 3.4 C 5.86 g/m*3 3.4 C 0 km/h
583 28-01-2015 00:30:00 3.4 C 5.86 g/m*3 3.4 C 0 km/h
584 28-01-2015 00:35:00 3.4 C 5.86 g/m*3 3.4 C 1.6 km/h
585 28-01-2015 00:40:00 3.4 C 5.92 g/m*3 3.4 C 0 km/h
586 28-01-2015 00:45:00 3.3 C 5.82 g/m*3 3.3 C 1.6 km/h
587 28-01-2015 00:50:00 3.3 C 5.82 g/m*3 3.3 C 1.6 km/h
588 28-01-2015 00:55:00 3.2 C 5.79 g/m*3 3.2 C 0 km/h
589 28-01-2015 01:00:00 3.1 C 5.75 g/m*3 3.1 C 0 km/h
590 28-01-2015 01:05:00 3 C 5.71 g/m*3 3 C 0 km/h
591 28-01-2015 01:10:00 2.8 C 5.63 g/m*3 2.8 C 0 km/h
592 28-01-2015 01:15:00 2.7 C 5.59 g/m*3 2.7 C 0 km/h
593 28-01-2015 01:20:00 2.6 C 5.56 g/m*3 2.6 C 0 km/h
594 28-01-2015 01:25:00 2.6 C 5.56 g/m*3 2.6 C 0 km/h
595 28-01-2015 01:30:00 2.5 C 5.52 g/m*3 2.5 C 3.2 km/h
596 28-01-2015 01:35:00 2.4 C 5.48 g/m*3 2.4 C 0 km/h
597 28-01-2015 01:40:00 2.3 C 5.5 g/m*3 2.3 C 0 km/h
598 28-01-2015 01:45:00 2.3 C 5.5 g/m*3 2.3 C 0 km/h
599 28-01-2015 01:50:00 2.3 C 5.5 g/m*3 2.3 C 1.6 km/h
600 28-01-2015 01:55:00 2.3 C 5.5 g/m*3 2.3 C 1.6 km/h
Sensor: Nr:Datum:Temp:Abs-Feuchte:Windchill:Wind:
Aussen-T/F 601 28-01-2015 02:00:00 2.3 C 5.5 g/m*3 2.3 C 1.6 km/h
602 28-01-2015 02:05:00 2.3 C 5.5 g/m*3 2.3 C 1.6 km/h
603 28-01-2015 02:10:00 2.2 C 5.46 g/m*3 2.2 C 3.2 km/h
604 28-01-2015 02:15:00 2.1 C 5.43 g/m*3 2.1 C 1.6 km/h
605 28-01-2015 02:20:00 2.1 C 5.43 g/m*3 2.1 C 0 km/h
606 28-01-2015 02:25:00 1.9 C 5.35 g/m*3 1.9 C 0 km/h
607 28-01-2015 02:30:00 1.9 C 5.35 g/m*3 1.9 C 0 km/h
608 28-01-2015 02:35:00 1.8 C 5.32 g/m*3 1.8 C 1.6 km/h
609 28-01-2015 02:40:00 1.8 C 5.32 g/m*3 1.8 C 1.6 km/h
610 28-01-2015 02:45:00 1.8 C 5.32 g/m*3 1.8 C 1.6 km/h
611 28-01-2015 02:50:00 1.8 C 5.32 g/m*3 1.8 C 4.8 km/h
612 28-01-2015 02:55:00 1.9 C 5.35 g/m*3 1.9 C 3.2 km/h
613 28-01-2015 03:00:00 1.9 C 5.35 g/m*3 1.9 C 4.8 km/h
614 28-01-2015 03:05:00 1.9 C 5.35 g/m*3 1.9 C 3.2 km/h
615 28-01-2015 03:10:00 1.9 C 5.35 g/m*3 1.9 C 1.6 km/h
616 28-01-2015 03:15:00 1.8 C 5.32 g/m*3 1.8 C 1.6 km/h
617 28-01-2015 03:20:00 1.8 C 5.32 g/m*3 1.8 C 1.6 km/h
618 28-01-2015 03:25:00 1.8 C 5.32 g/m*3 1.8 C 1.6 km/h
619 28-01-2015 03:30:00 1.9 C 5.35 g/m*3 1.9 C 1.6 km/h
620 28-01-2015 03:35:00 1.9 C 5.35 g/m*3 1.9 C 0 km/h
621 28-01-2015 03:40:00 1.9 C 5.35 g/m*3 1.9 C 3.2 km/h
622 28-01-2015 03:45:00 1.9 C 5.35 g/m*3 1.9 C 1.6 km/h
623 28-01-2015 03:50:00 1.9 C 5.35 g/m*3 1.9 C 1.6 km/h
624 28-01-2015 03:55:00 1.9 C 5.35 g/m*3 1.9 C 0 km/h
625 28-01-2015 04:00:00 1.9 C 5.35 g/m*3 1.9 C 0 km/h
Sensor: Nr:Datum:Temp:Abs-Feuchte:Windchill:Wind:
Aussen-T/F 626 28-01-2015 04:05:00 1.9 C 5.35 g/m*3 1.9 C 0 km/h
627 28-01-2015 04:10:00 1.9 C 5.35 g/m*3 1.9 C 0 km/h
628 28-01-2015 04:15:00 1.9 C 5.35 g/m*3 1.9 C 0 km/h
629 28-01-2015 04:20:00 1.9 C 5.35 g/m*3 1.9 C 0 km/h
630 28-01-2015 04:25:00 2 C 5.39 g/m*3 2 C 0 km/h
631 28-01-2015 04:30:00 2.1 C 5.43 g/m*3 2.1 C 0 km/h
632 28-01-2015 04:35:00 2.1 C 5.43 g/m*3 2.1 C 0 km/h
633 28-01-2015 04:40:00 2.2 C 5.52 g/m*3 2.2 C 1.6 km/h
634 28-01-2015 04:45:00 2.3 C 5.56 g/m*3 0.47 C 6.4 km/h
635 28-01-2015 04:50:00 2.4 C 5.6 g/m*3 0.59 C 6.4 km/h
636 28-01-2015 04:55:00 2.4 C 5.6 g/m*3 2.4 C 3.2 km/h
637 28-01-2015 05:00:00 2.4 C 5.54 g/m*3 2.4 C 3.2 km/h
638 28-01-2015 05:05:00 2.4 C 5.54 g/m*3 2.4 C 3.2 km/h
639 28-01-2015 05:10:00 2.3 C 5.5 g/m*3 2.3 C 3.2 km/h
640 28-01-2015 05:15:00 2.3 C 5.5 g/m*3 2.3 C 3.2 km/h
641 28-01-2015 05:20:00 2.3 C 5.5 g/m*3 -0.49 C 9.7 km/h
642 28-01-2015 05:25:00 2.3 C 5.5 g/m*3 -0.49 C 9.7 km/h
643 28-01-2015 05:30:00 2.3 C 5.5 g/m*3 0.47 C 6.4 km/h
644 28-01-2015 05:35:00 2.3 C 5.5 g/m*3 0.47 C 6.4 km/h
645 28-01-2015 05:40:00 2.3 C 5.5 g/m*3 2.3 C 1.6 km/h
646 28-01-2015 05:45:00 2.3 C 5.5 g/m*3 2.3 C 4.8 km/h
647 28-01-2015 05:50:00 2.2 C 5.46 g/m*3 2.2 C 3.2 km/h
648 28-01-2015 05:55:00 2.2 C 5.46 g/m*3 2.2 C 3.2 km/h
649 28-01-2015 06:00:00 2.2 C 5.46 g/m*3 0.36 C 6.4 km/h
650 28-01-2015 06:05:00 2.3 C 5.5 g/m*3 0.47 C 6.4 km/h
Sensor: Nr:Datum:Temp:Abs-Feuchte:Windchill:Wind:
Aussen-T/F 651 28-01-2015 06:10:00 2.4 C 5.54 g/m*3 2.4 C 4.8 km/h
652 28-01-2015 06:15:00 2.5 C 5.58 g/m*3 2.5 C 4.8 km/h
653 28-01-2015 06:20:00 2.6 C 5.61 g/m*3 0.82 C 6.4 km/h
654 28-01-2015 06:25:00 2.6 C 5.56 g/m*3 0.29 C 8.1 km/h
655 28-01-2015 06:30:00 2.7 C 5.59 g/m*3 0.94 C 6.4 km/h
656 28-01-2015 06:35:00 2.7 C 5.59 g/m*3 0.4 C 8.1 km/h
657 28-01-2015 06:40:00 2.8 C 5.63 g/m*3 2.8 C 4.8 km/h
658 28-01-2015 06:45:00 2.8 C 5.63 g/m*3 1.05 C 6.4 km/h
659 28-01-2015 06:50:00 2.9 C 5.61 g/m*3 0.64 C 8.1 km/h
660 28-01-2015 06:55:00 2.9 C 5.61 g/m*3 0.22 C 9.7 km/h
661 28-01-2015 07:00:00 2.9 C 5.61 g/m*3 1.17 C 6.4 km/h
662 28-01-2015 07:05:00 2.9 C 5.55 g/m*3 1.17 C 6.4 km/h
663 28-01-2015 07:10:00 2.9 C 5.55 g/m*3 2.9 C 1.6 km/h
664 28-01-2015 07:15:00 2.8 C 5.57 g/m*3 2.8 C 3.2 km/h
665 28-01-2015 07:20:00 2.8 C 5.57 g/m*3 2.8 C 3.2 km/h
666 28-01-2015 07:25:00 2.9 C 5.61 g/m*3 2.9 C 4.8 km/h
667 28-01-2015 07:30:00 2.8 C 5.57 g/m*3 2.8 C 3.2 km/h
668 28-01-2015 07:35:00 2.8 C 5.57 g/m*3 2.8 C 4.8 km/h
669 28-01-2015 07:40:00 2.9 C 5.61 g/m*3 2.9 C 1.6 km/h
670 28-01-2015 07:45:00 2.9 C 5.61 g/m*3 2.9 C 3.2 km/h
671 28-01-2015 07:50:00 2.9 C 5.61 g/m*3 2.9 C 3.2 km/h
672 28-01-2015 07:55:00 3 C 5.65 g/m*3 3 C 3.2 km/h
673 28-01-2015 08:00:00 3 C 5.65 g/m*3 3 C 4.8 km/h
674 28-01-2015 08:05:00 3.1 C 5.69 g/m*3 3.1 C 3.2 km/h
675 28-01-2015 08:10:00 3.1 C 5.69 g/m*3 3.1 C 3.2 km/h
Sensor: Nr:Datum:Temp:Abs-Feuchte:Windchill:Wind:
Aussen-T/F 676 28-01-2015 08:15:00 3.2 C 5.72 g/m*3 3.2 C 4.8 km/h
677 28-01-2015 08:20:00 3.2 C 5.72 g/m*3 3.2 C 4.8 km/h
678 28-01-2015 08:25:00 3.3 C 5.7 g/m*3 3.3 C 4.8 km/h
679 28-01-2015 08:30:00 3.4 C 5.74 g/m*3 3.4 C 4.8 km/h
680 28-01-2015 08:35:00 3.4 C 5.74 g/m*3 3.4 C 4.8 km/h
681 28-01-2015 08:40:00 3.4 C 5.68 g/m*3 3.4 C 1.6 km/h
682 28-01-2015 08:45:00 3.5 C 5.72 g/m*3 3.5 C 0 km/h
683 28-01-2015 08:50:00 3.5 C 5.78 g/m*3 3.5 C 0 km/h
684 28-01-2015 08:55:00 3.5 C 5.78 g/m*3 3.5 C 1.6 km/h
685 28-01-2015 09:00:00 3.5 C 5.78 g/m*3 3.5 C 3.2 km/h
686 28-01-2015 09:05:00 3.6 C 5.82 g/m*3 1.46 C 8.1 km/h
687 28-01-2015 09:10:00 3.6 C 5.82 g/m*3 3.6 C 0 km/h
688 28-01-2015 09:15:00 3.6 C 5.82 g/m*3 1.98 C 6.4 km/h
689 28-01-2015 09:20:00 3.6 C 5.82 g/m*3 3.6 C 3.2 km/h
690 28-01-2015 09:25:00 3.6 C 5.82 g/m*3 3.6 C 0 km/h
691 28-01-2015 09:30:00 3.7 C 5.86 g/m*3 3.7 C 0 km/h
692 28-01-2015 09:35:00 3.7 C 5.86 g/m*3 3.7 C 3.2 km/h
693 28-01-2015 09:40:00 3.7 C 5.8 g/m*3 3.7 C 1.6 km/h
694 28-01-2015 09:45:00 3.8 C 5.83 g/m*3 3.8 C 0 km/h
695 28-01-2015 09:50:00 3.9 C 5.87 g/m*3 3.9 C 3.2 km/h
696 28-01-2015 09:55:00 4 C 5.91 g/m*3 4 C 3.2 km/h
697 28-01-2015 10:00:00 4.1 C 5.95 g/m*3 4.1 C 1.6 km/h
698 28-01-2015 10:05:00 4.1 C 5.95 g/m*3 2.05 C 8.1 km/h
699 28-01-2015 10:10:00 4.2 C 5.93 g/m*3 4.2 C 4.8 km/h
700 28-01-2015 10:15:00 4.2 C 5.93 g/m*3 4.2 C 1.6 km/h
Sensor: Nr:Datum:Temp:Abs-Feuchte:Windchill:Wind:
Aussen-T/F 701 28-01-2015 10:20:00 4.2 C 5.93 g/m*3 4.2 C 3.2 km/h
702 28-01-2015 10:25:00 4.3 C 5.97 g/m*3 4.3 C 1.6 km/h
703 28-01-2015 10:30:00 4.2 C 5.93 g/m*3 4.2 C 0 km/h
704 28-01-2015 10:35:00 4.3 C 5.97 g/m*3 4.3 C 0 km/h
705 28-01-2015 10:40:00 4.3 C 5.97 g/m*3 2.78 C 6.4 km/h
706 28-01-2015 10:45:00 4.3 C 5.9 g/m*3 4.3 C 4.8 km/h
707 28-01-2015 10:50:00 4.4 C 5.94 g/m*3 2.9 C 6.4 km/h
708 28-01-2015 10:55:00 4.6 C 6.02 g/m*3 4.6 C 1.6 km/h
709 28-01-2015 11:00:00 4.6 C 6.02 g/m*3 3.13 C 6.4 km/h
710 28-01-2015 11:05:00 4.7 C 6 g/m*3 2.76 C 8.1 km/h
711 28-01-2015 11:10:00 4.8 C 6.04 g/m*3 2.15 C 11.3 km/h
712 28-01-2015 11:15:00 4.8 C 6.04 g/m*3 3.36 C 6.4 km/h
713 28-01-2015 11:20:00 4.9 C 6.01 g/m*3 1.46 C 16.1 km/h
714 28-01-2015 11:25:00 4.9 C 6.01 g/m*3 4.9 C 1.6 km/h
715 28-01-2015 11:30:00 5 C 6.05 g/m*3 2.72 C 9.7 km/h
716 28-01-2015 11:35:00 5.1 C 6.09 g/m*3 5.1 C 4.8 km/h
717 28-01-2015 11:40:00 5.1 C 6.09 g/m*3 3.71 C 6.4 km/h
718 28-01-2015 11:45:00 5.2 C 6.06 g/m*3 2.96 C 9.7 km/h
719 28-01-2015 11:50:00 5.3 C 6.1 g/m*3 5.3 C 4.8 km/h
720 28-01-2015 11:55:00 5.4 C 6.14 g/m*3 5.4 C 4.8 km/h
721 28-01-2015 12:00:00 5.5 C 6.18 g/m*3 3.7 C 8.1 km/h
722 28-01-2015 12:05:00 5.6 C 6.15 g/m*3 4.29 C 6.4 km/h
723 28-01-2015 12:10:00 5.6 C 6.15 g/m*3 5.6 C 3.2 km/h
724 28-01-2015 12:15:00 5.6 C 6.15 g/m*3 4.29 C 6.4 km/h
725 28-01-2015 12:20:00 5.6 C 6.15 g/m*3 5.6 C 3.2 km/h
Sensor: Nr:Datum:Temp:Abs-Feuchte:Windchill:Wind:
Aussen-T/F 726 28-01-2015 12:25:00 5.5 C 6.04 g/m*3 3.32 C 9.7 km/h
727 28-01-2015 12:30:00 5.6 C 6.08 g/m*3 2.11 C 17.7 km/h
728 28-01-2015 12:35:00 5.6 C 6.08 g/m*3 3.44 C 9.7 km/h
729 28-01-2015 12:40:00 5.7 C 6.12 g/m*3 2.95 C 12.9 km/h
730 28-01-2015 12:45:00 5.7 C 6.12 g/m*3 4.4 C 6.4 km/h
731 28-01-2015 12:50:00 5.8 C 6.09 g/m*3 4.52 C 6.4 km/h
732 28-01-2015 12:55:00 5.9 C 6.13 g/m*3 4.17 C 8.1 km/h
733 28-01-2015 13:00:00 5.9 C 6.06 g/m*3 4.17 C 8.1 km/h
734 28-01-2015 13:05:00 5.9 C 6.13 g/m*3 2.48 C 17.7 km/h
735 28-01-2015 13:10:00 5.9 C 6.06 g/m*3 4.17 C 8.1 km/h
736 28-01-2015 13:15:00 5.9 C 6.13 g/m*3 4.17 C 8.1 km/h
737 28-01-2015 13:20:00 5.9 C 6.13 g/m*3 3.48 C 11.3 km/h
738 28-01-2015 13:25:00 5.9 C 6.06 g/m*3 2.93 C 14.5 km/h
739 28-01-2015 13:30:00 5.9 C 6.06 g/m*3 2.7 C 16.1 km/h
740 28-01-2015 13:35:00 5.9 C 6.13 g/m*3 2.7 C 16.1 km/h
741 28-01-2015 13:40:00 5.8 C 6.09 g/m*3 3.07 C 12.9 km/h
742 28-01-2015 13:45:00 5.8 C 6.16 g/m*3 2.58 C 16.1 km/h
743 28-01-2015 13:50:00 5.9 C 6.13 g/m*3 3.8 C 9.7 km/h
744 28-01-2015 13:55:00 6.1 C 6.14 g/m*3 3.18 C 14.5 km/h
745 28-01-2015 14:00:00 6.2 C 6.03 g/m*3 3.56 C 12.9 km/h
746 28-01-2015 14:05:00 6.3 C 6.07 g/m*3 2.98 C 17.7 km/h
747 28-01-2015 14:10:00 6.4 C 6.04 g/m*3 2.91 C 19.3 km/h
748 28-01-2015 14:15:00 6.5 C 6 g/m*3 2.69 C 22.5 km/h
749 28-01-2015 14:20:00 6.5 C 6 g/m*3 2.38 C 25.7 km/h
750 28-01-2015 14:25:00 6.5 C 6 g/m*3 2.38 C 25.7 km/h
Sensor: Nr:Datum:Temp:Abs-Feuchte:Windchill:Wind:
Aussen-T/F 751 28-01-2015 14:30:00 6.4 C 5.96 g/m*3 2.4 C 24.1 km/h
752 28-01-2015 14:35:00 6.4 C 5.89 g/m*3 2.91 C 19.3 km/h
753 28-01-2015 14:40:00 6.4 C 5.96 g/m*3 2.91 C 19.3 km/h
754 28-01-2015 14:45:00 6.4 C 5.89 g/m*3 2.56 C 22.5 km/h
755 28-01-2015 14:50:00 6.4 C 5.89 g/m*3 2.73 C 20.9 km/h
756 28-01-2015 14:55:00 6.4 C 5.89 g/m*3 3.32 C 16.1 km/h
757 28-01-2015 15:00:00 6.3 C 5.92 g/m*3 2.43 C 22.5 km/h
758 28-01-2015 15:05:00 6.3 C 5.92 g/m*3 3.68 C 12.9 km/h
759 28-01-2015 15:10:00 6.3 C 6 g/m*3 3.43 C 14.5 km/h
760 28-01-2015 15:15:00 6.2 C 5.96 g/m*3 3.56 C 12.9 km/h
761 28-01-2015 15:20:00 6.2 C 5.88 g/m*3 2.86 C 17.7 km/h
762 28-01-2015 15:25:00 6.2 C 5.88 g/m*3 1.99 C 25.7 km/h
763 28-01-2015 15:30:00 6.3 C 5.92 g/m*3 3.43 C 14.5 km/h
764 28-01-2015 15:35:00 6.2 C 5.88 g/m*3 4.15 C 9.7 km/h
765 28-01-2015 15:40:00 6.2 C 5.88 g/m*3 3.3 C 14.5 km/h
766 28-01-2015 15:45:00 6.2 C 5.88 g/m*3 2.48 C 20.9 km/h
767 28-01-2015 15:50:00 6.2 C 5.88 g/m*3 1.99 C 25.7 km/h
768 28-01-2015 15:55:00 6.3 C 5.92 g/m*3 2.27 C 24.1 km/h
769 28-01-2015 16:00:00 6.3 C 5.92 g/m*3 3.68 C 12.9 km/h
770 28-01-2015 16:05:00 6.3 C 5.92 g/m*3 2.98 C 17.7 km/h
771 28-01-2015 16:10:00 6.3 C 5.92 g/m*3 2.61 C 20.9 km/h
772 28-01-2015 16:15:00 6.3 C 5.92 g/m*3 1.34 C 35.4 km/h
773 28-01-2015 16:20:00 6.3 C 5.92 g/m*3 2.98 C 17.7 km/h
774 28-01-2015 16:25:00 6.3 C 6 g/m*3 2.79 C 19.3 km/h
775 28-01-2015 16:30:00 6.3 C 6 g/m*3 2.12 C 25.7 km/h
Sensor: Nr:Datum:Temp:Abs-Feuchte:Windchill:Wind:
Aussen-T/F 776 28-01-2015 16:35:00 6.2 C 5.96 g/m*3 1.99 C 25.7 km/h
777 28-01-2015 16:40:00 6.2 C 6.03 g/m*3 2.48 C 20.9 km/h
778 28-01-2015 16:45:00 6.2 C 6.1 g/m*3 2.15 C 24.1 km/h
779 28-01-2015 16:50:00 6.1 C 6.14 g/m*3 2.35 C 20.9 km/h
780 28-01-2015 16:55:00 6 C 6.1 g/m*3 2.61 C 17.7 km/h
781 28-01-2015 17:00:00 5.9 C 6.13 g/m*3 2.29 C 19.3 km/h
782 28-01-2015 17:05:00 5.8 C 6.16 g/m*3 2.81 C 14.5 km/h
783 28-01-2015 17:10:00 5.8 C 6.16 g/m*3 3.36 C 11.3 km/h
784 28-01-2015 17:15:00 5.7 C 6.19 g/m*3 3.23 C 11.3 km/h
785 28-01-2015 17:20:00 5.6 C 6.22 g/m*3 3.44 C 9.7 km/h
786 28-01-2015 17:25:00 5.5 C 6.25 g/m*3 3.7 C 8.1 km/h
787 28-01-2015 17:30:00 5.4 C 6.21 g/m*3 1.86 C 17.7 km/h
788 28-01-2015 17:35:00 5.4 C 6.21 g/m*3 5.4 C 4.8 km/h
789 28-01-2015 17:40:00 5.4 C 6.21 g/m*3 5.4 C 4.8 km/h
790 28-01-2015 17:45:00 5.4 C 6.21 g/m*3 4.06 C 6.4 km/h
791 28-01-2015 17:50:00 5.4 C 6.21 g/m*3 4.06 C 6.4 km/h
792 28-01-2015 17:55:00 5.5 C 6.25 g/m*3 5.5 C 4.8 km/h
793 28-01-2015 18:00:00 5.5 C 6.25 g/m*3 5.5 C 3.2 km/h
794 28-01-2015 18:05:00 5.5 C 6.25 g/m*3 3.7 C 8.1 km/h
795 28-01-2015 18:10:00 5.6 C 6.29 g/m*3 3.11 C 11.3 km/h
796 28-01-2015 18:15:00 5.6 C 6.36 g/m*3 5.6 C 4.8 km/h
797 28-01-2015 18:20:00 5.7 C 6.4 g/m*3 4.4 C 6.4 km/h
798 28-01-2015 18:25:00 5.7 C 6.4 g/m*3 3.93 C 8.1 km/h
799 28-01-2015 18:30:00 5.7 C 6.4 g/m*3 2.45 C 16.1 km/h
800 28-01-2015 18:35:00 5.7 C 6.4 g/m*3 3.23 C 11.3 km/h
Sensor: Nr:Datum:Temp:Abs-Feuchte:Windchill:Wind:
Aussen-T/F 801 28-01-2015 18:40:00 5.7 C 6.4 g/m*3 3.56 C 9.7 km/h
802 28-01-2015 18:45:00 5.7 C 6.4 g/m*3 4.4 C 6.4 km/h
803 28-01-2015 18:50:00 5.7 C 6.48 g/m*3 5.7 C 1.6 km/h
804 28-01-2015 18:55:00 5.7 C 6.55 g/m*3 2.95 C 12.9 km/h
805 28-01-2015 19:00:00 5.7 C 6.48 g/m*3 4.4 C 6.4 km/h
806 28-01-2015 19:05:00 5.7 C 6.4 g/m*3 2.69 C 14.5 km/h
807 28-01-2015 19:10:00 5.8 C 6.45 g/m*3 2.58 C 16.1 km/h
808 28-01-2015 19:15:00 5.8 C 6.45 g/m*3 3.36 C 11.3 km/h
809 28-01-2015 19:20:00 5.8 C 6.45 g/m*3 2.81 C 14.5 km/h
810 28-01-2015 19:25:00 5.9 C 6.42 g/m*3 2.7 C 16.1 km/h
811 28-01-2015 19:30:00 5.9 C 6.42 g/m*3 1.76 C 24.1 km/h
812 28-01-2015 19:35:00 6 C 6.46 g/m*3 2.82 C 16.1 km/h
813 28-01-2015 19:40:00 6 C 6.46 g/m*3 2.41 C 19.3 km/h
814 28-01-2015 19:45:00 6 C 6.39 g/m*3 2.41 C 19.3 km/h
815 28-01-2015 19:50:00 6.1 C 6.43 g/m*3 2.35 C 20.9 km/h
816 28-01-2015 19:55:00 6.1 C 6.43 g/m*3 2.73 C 17.7 km/h
817 28-01-2015 20:00:00 6.1 C 6.43 g/m*3 1.57 C 29 km/h
818 28-01-2015 20:05:00 6.1 C 6.5 g/m*3 2.35 C 20.9 km/h
819 28-01-2015 20:10:00 6 C 6.53 g/m*3 2.41 C 19.3 km/h
820 28-01-2015 20:15:00 5.9 C 6.63 g/m*3 0.93 C 33.8 km/h
821 28-01-2015 20:20:00 5.7 C 6.55 g/m*3 1.85 C 20.9 km/h
822 28-01-2015 20:25:00 5.4 C 6.42 g/m*3 2.32 C 14.5 km/h
823 28-01-2015 20:30:00 5.2 C 6.27 g/m*3 1.83 C 16.1 km/h
824 28-01-2015 20:35:00 5.2 C 6.33 g/m*3 2.96 C 9.7 km/h
825 28-01-2015 20:40:00 5.1 C 6.29 g/m*3 2.22 C 12.9 km/h
Sensor: Nr:Datum:Temp:Abs-Feuchte:Windchill:Wind:
Aussen-T/F 826 28-01-2015 20:45:00 4.9 C 6.14 g/m*3 2.27 C 11.3 km/h
827 28-01-2015 20:50:00 4.8 C 6.1 g/m*3 2.15 C 11.3 km/h
828 28-01-2015 20:55:00 4.6 C 6.02 g/m*3 0.65 C 19.3 km/h
829 28-01-2015 21:00:00 4.3 C 5.84 g/m*3 1.24 C 12.9 km/h
830 28-01-2015 21:05:00 4.2 C 5.73 g/m*3 1.77 C 9.7 km/h
831 28-01-2015 21:10:00 4 C 5.59 g/m*3 1.53 C 9.7 km/h
832 28-01-2015 21:15:00 3.9 C 5.62 g/m*3 3.9 C 4.8 km/h
833 28-01-2015 21:20:00 3.8 C 5.65 g/m*3 3.8 C 3.2 km/h
834 28-01-2015 21:25:00 3.7 C 5.73 g/m*3 3.7 C 4.8 km/h
835 28-01-2015 21:30:00 3.5 C 5.66 g/m*3 3.5 C 3.2 km/h
836 28-01-2015 21:35:00 3.4 C 5.68 g/m*3 3.4 C 4.8 km/h
837 28-01-2015 21:40:00 3.3 C 5.64 g/m*3 3.3 C 4.8 km/h
838 28-01-2015 21:45:00 3.3 C 5.64 g/m*3 3.3 C 4.8 km/h
839 28-01-2015 21:50:00 3.3 C 5.64 g/m*3 1.63 C 6.4 km/h
840 28-01-2015 21:55:00 3.5 C 5.6 g/m*3 0.58 C 11.3 km/h
841 28-01-2015 22:00:00 3.6 C 5.57 g/m*3 1.46 C 8.1 km/h
842 28-01-2015 22:05:00 3.6 C 5.51 g/m*3 1.98 C 6.4 km/h
843 28-01-2015 22:10:00 3.6 C 5.57 g/m*3 3.6 C 4.8 km/h
844 28-01-2015 22:15:00 3.5 C 5.41 g/m*3 1.86 C 6.4 km/h
845 28-01-2015 22:20:00 3.5 C 5.41 g/m*3 3.5 C 4.8 km/h
846 28-01-2015 22:25:00 3.4 C 5.37 g/m*3 1.75 C 6.4 km/h
847 28-01-2015 22:30:00 3.4 C 5.31 g/m*3 1.75 C 6.4 km/h
848 28-01-2015 22:35:00 3.4 C 5.25 g/m*3 0.82 C 9.7 km/h
849 28-01-2015 22:40:00 3.5 C 5.29 g/m*3 0.58 C 11.3 km/h
850 28-01-2015 22:45:00 3.4 C 5.31 g/m*3 1.23 C 8.1 km/h
Sensor: Nr:Datum:Temp:Abs-Feuchte:Windchill:Wind:
Aussen-T/F 851 28-01-2015 22:50:00 3.3 C 5.22 g/m*3 1.63 C 6.4 km/h
852 28-01-2015 22:55:00 3.3 C 5.22 g/m*3 3.3 C 4.8 km/h
853 28-01-2015 23:00:00 3.2 C 5.24 g/m*3 3.2 C 4.8 km/h
854 28-01-2015 23:05:00 3.1 C 5.21 g/m*3 0.87 C 8.1 km/h
855 28-01-2015 23:10:00 2.9 C 5.2 g/m*3 1.17 C 6.4 km/h
856 28-01-2015 23:15:00 2.8 C 5.16 g/m*3 1.05 C 6.4 km/h
857 28-01-2015 23:20:00 2.7 C 5.13 g/m*3 2.7 C 4.8 km/h
858 28-01-2015 23:25:00 2.7 C 5.13 g/m*3 0.94 C 6.4 km/h
859 28-01-2015 23:30:00 2.7 C 5.13 g/m*3 2.7 C 4.8 km/h
860 28-01-2015 23:35:00 2.7 C 5.13 g/m*3 2.7 C 4.8 km/h
861 28-01-2015 23:40:00 2.7 C 5.13 g/m*3 0.94 C 6.4 km/h
862 28-01-2015 23:45:00 2.6 C 5.09 g/m*3 0.82 C 6.4 km/h
863 28-01-2015 23:50:00 2.5 C 5.06 g/m*3 -0.26 C 9.7 km/h
864 28-01-2015 23:55:00 2.5 C 5.06 g/m*3 0.71 C 6.4 km/h
865 29-01-2015 00:00:00 2.5 C 5.06 g/m*3 0.71 C 6.4 km/h
866 29-01-2015 00:05:00 2.5 C 5.06 g/m*3 0.17 C 8.1 km/h
867 29-01-2015 00:10:00 2.4 C 5.02 g/m*3 0.05 C 8.1 km/h
868 29-01-2015 00:15:00 2.4 C 5.02 g/m*3 2.4 C 4.8 km/h
869 29-01-2015 00:20:00 2.3 C 4.99 g/m*3 -1.2 C 12.9 km/h
870 29-01-2015 00:25:00 2.4 C 5.02 g/m*3 -0.74 C 11.3 km/h
871 29-01-2015 00:30:00 2.4 C 5.02 g/m*3 0.59 C 6.4 km/h
872 29-01-2015 00:35:00 2.4 C 4.97 g/m*3 2.4 C 4.8 km/h
873 29-01-2015 00:40:00 2.4 C 5.02 g/m*3 2.4 C 4.8 km/h
874 29-01-2015 00:45:00 2.3 C 4.99 g/m*3 -0.49 C 9.7 km/h
875 29-01-2015 00:50:00 2.3 C 4.99 g/m*3 -0.07 C 8.1 km/h
Sensor: Nr:Datum:Temp:Abs-Feuchte:Windchill:Wind:
Aussen-T/F 876 29-01-2015 00:55:00 2.4 C 4.97 g/m*3 0.05 C 8.1 km/h
877 29-01-2015 01:00:00 2.6 C 4.98 g/m*3 -0.14 C 9.7 km/h
878 29-01-2015 01:05:00 2.8 C 4.99 g/m*3 -0.59 C 12.9 km/h
879 29-01-2015 01:10:00 2.8 C 4.93 g/m*3 -0.88 C 14.5 km/h
880 29-01-2015 01:15:00 2.9 C 4.9 g/m*3 -0.76 C 14.5 km/h
881 29-01-2015 01:20:00 3 C 4.93 g/m*3 0.34 C 9.7 km/h
882 29-01-2015 01:25:00 2.9 C 4.9 g/m*3 -1.02 C 16.1 km/h
883 29-01-2015 01:30:00 2.9 C 4.96 g/m*3 -1.02 C 16.1 km/h
884 29-01-2015 01:35:00 2.8 C 4.93 g/m*3 0.1 C 9.7 km/h
885 29-01-2015 01:40:00 2.8 C 4.93 g/m*3 -0.59 C 12.9 km/h
886 29-01-2015 01:45:00 2.7 C 4.89 g/m*3 0.4 C 8.1 km/h
887 29-01-2015 01:50:00 2.7 C 4.89 g/m*3 0.4 C 8.1 km/h
888 29-01-2015 01:55:00 2.6 C 4.86 g/m*3 -0.83 C 12.9 km/h
889 29-01-2015 02:00:00 2.5 C 4.89 g/m*3 2.5 C 4.8 km/h
890 29-01-2015 02:05:00 2.4 C 4.85 g/m*3 -1.07 C 12.9 km/h
891 29-01-2015 02:10:00 2.3 C 4.82 g/m*3 -1.49 C 14.5 km/h
892 29-01-2015 02:15:00 2.4 C 4.8 g/m*3 -0.74 C 11.3 km/h
893 29-01-2015 02:20:00 2.4 C 4.8 g/m*3 0.59 C 6.4 km/h
894 29-01-2015 02:25:00 2.3 C 4.82 g/m*3 -0.07 C 8.1 km/h
895 29-01-2015 02:30:00 2.2 C 4.79 g/m*3 -0.18 C 8.1 km/h
896 29-01-2015 02:35:00 2 C 4.78 g/m*3 0.13 C 6.4 km/h
897 29-01-2015 02:40:00 1.9 C 4.8 g/m*3 1.9 C 4.8 km/h
898 29-01-2015 02:45:00 1.8 C 4.77 g/m*3 -1.47 C 11.3 km/h
899 29-01-2015 02:50:00 2 C 4.78 g/m*3 2 C 4.8 km/h
900 29-01-2015 02:55:00 2 C 4.78 g/m*3 0.13 C 6.4 km/h
Sensor: Nr:Datum:Temp:Abs-Feuchte:Windchill:Wind:
Aussen-T/F 901 29-01-2015 03:00:00 2 C 4.72 g/m*3 -0.42 C 8.1 km/h
902 29-01-2015 03:05:00 2.1 C 4.76 g/m*3 -0.73 C 9.7 km/h
903 29-01-2015 03:10:00 2.1 C 4.76 g/m*3 -0.3 C 8.1 km/h
904 29-01-2015 03:15:00 2 C 4.78 g/m*3 0.13 C 6.4 km/h
905 29-01-2015 03:20:00 1.9 C 4.75 g/m*3 -2.26 C 16.1 km/h
906 29-01-2015 03:25:00 2 C 4.78 g/m*3 -0.85 C 9.7 km/h
907 29-01-2015 03:30:00 2.1 C 4.76 g/m*3 -0.73 C 9.7 km/h
908 29-01-2015 03:35:00 2.1 C 4.76 g/m*3 -1.11 C 11.3 km/h
909 29-01-2015 03:40:00 2.1 C 4.76 g/m*3 -1.44 C 12.9 km/h
910 29-01-2015 03:45:00 2.1 C 4.76 g/m*3 -0.73 C 9.7 km/h
911 29-01-2015 03:50:00 2.1 C 4.76 g/m*3 -0.73 C 9.7 km/h
912 29-01-2015 03:55:00 2.1 C 4.7 g/m*3 -0.3 C 8.1 km/h
913 29-01-2015 04:00:00 2.1 C 4.7 g/m*3 -1.44 C 12.9 km/h
914 29-01-2015 04:05:00 2.1 C 4.7 g/m*3 -1.44 C 12.9 km/h
915 29-01-2015 04:10:00 2.1 C 4.7 g/m*3 -1.11 C 11.3 km/h
916 29-01-2015 04:15:00 2.1 C 4.7 g/m*3 -1.11 C 11.3 km/h
917 29-01-2015 04:20:00 2.1 C 4.64 g/m*3 -1.44 C 12.9 km/h
918 29-01-2015 04:25:00 2.1 C 4.7 g/m*3 -0.73 C 9.7 km/h
919 29-01-2015 04:30:00 2.1 C 4.7 g/m*3 0.24 C 6.4 km/h
920 29-01-2015 04:35:00 1.9 C 4.64 g/m*3 -0.54 C 8.1 km/h
921 29-01-2015 04:40:00 1.8 C 4.66 g/m*3 -1.47 C 11.3 km/h
922 29-01-2015 04:45:00 1.8 C 4.66 g/m*3 -1.47 C 11.3 km/h
923 29-01-2015 04:50:00 1.9 C 4.69 g/m*3 -0.97 C 9.7 km/h
924 29-01-2015 04:55:00 1.8 C 4.66 g/m*3 -1.09 C 9.7 km/h
925 29-01-2015 05:00:00 1.8 C 4.66 g/m*3 -1.09 C 9.7 km/h
Sensor: Nr:Datum:Temp:Abs-Feuchte:Windchill:Wind:
Aussen-T/F 926 29-01-2015 05:05:00 1.7 C 4.68 g/m*3 -1.21 C 9.7 km/h
927 29-01-2015 05:10:00 1.7 C 4.68 g/m*3 -1.21 C 9.7 km/h
928 29-01-2015 05:15:00 1.6 C 4.65 g/m*3 -1.33 C 9.7 km/h
929 29-01-2015 05:20:00 1.7 C 4.68 g/m*3 -1.93 C 12.9 km/h
930 29-01-2015 05:25:00 1.7 C 4.74 g/m*3 -1.59 C 11.3 km/h
931 29-01-2015 05:30:00 1.7 C 4.68 g/m*3 -2.23 C 14.5 km/h
932 29-01-2015 05:35:00 1.8 C 4.71 g/m*3 -2.64 C 17.7 km/h
933 29-01-2015 05:40:00 1.8 C 4.71 g/m*3 -1.09 C 9.7 km/h
934 29-01-2015 05:45:00 1.8 C 4.77 g/m*3 -2.11 C 14.5 km/h
935 29-01-2015 05:50:00 1.8 C 4.77 g/m*3 -1.8 C 12.9 km/h
936 29-01-2015 05:55:00 1.8 C 4.77 g/m*3 -1.47 C 11.3 km/h
937 29-01-2015 06:00:00 1.9 C 4.8 g/m*3 -1.98 C 14.5 km/h
938 29-01-2015 06:05:00 2.1 C 4.81 g/m*3 -2.26 C 17.7 km/h
939 29-01-2015 06:10:00 2.1 C 4.81 g/m*3 -1.74 C 14.5 km/h
940 29-01-2015 06:15:00 2 C 4.78 g/m*3 -1.56 C 12.9 km/h
941 29-01-2015 06:20:00 2.1 C 4.81 g/m*3 -1.44 C 12.9 km/h
942 29-01-2015 06:25:00 2.1 C 4.81 g/m*3 -2.92 C 22.5 km/h
943 29-01-2015 06:30:00 2.1 C 4.81 g/m*3 -2.92 C 22.5 km/h
944 29-01-2015 06:35:00 2.1 C 4.81 g/m*3 -1.44 C 12.9 km/h
945 29-01-2015 06:40:00 2.2 C 4.84 g/m*3 -1.89 C 16.1 km/h
946 29-01-2015 06:45:00 2.2 C 4.84 g/m*3 -1.89 C 16.1 km/h
947 29-01-2015 06:50:00 2.3 C 4.88 g/m*3 -2.85 C 24.1 km/h
948 29-01-2015 06:55:00 2.3 C 4.88 g/m*3 -0.49 C 9.7 km/h
949 29-01-2015 07:00:00 2.3 C 4.88 g/m*3 -0.49 C 9.7 km/h
950 29-01-2015 07:05:00 2.3 C 4.88 g/m*3 -1.49 C 14.5 km/h
Sensor: Nr:Datum:Temp:Abs-Feuchte:Windchill:Wind:
Aussen-T/F 951 29-01-2015 07:10:00 2.4 C 4.91 g/m*3 0.05 C 8.1 km/h
952 29-01-2015 07:15:00 2.4 C 4.91 g/m*3 -0.37 C 9.7 km/h
953 29-01-2015 07:20:00 2.4 C 4.91 g/m*3 0.05 C 8.1 km/h
954 29-01-2015 07:25:00 2.4 C 4.91 g/m*3 -0.74 C 11.3 km/h
955 29-01-2015 07:30:00 2.4 C 4.91 g/m*3 -0.37 C 9.7 km/h
956 29-01-2015 07:35:00 2.5 C 4.89 g/m*3 -0.26 C 9.7 km/h
957 29-01-2015 07:40:00 2.6 C 4.98 g/m*3 2.6 C 4.8 km/h
958 29-01-2015 07:45:00 2.5 C 4.94 g/m*3 0.17 C 8.1 km/h
959 29-01-2015 07:50:00 2.4 C 4.91 g/m*3 -1.07 C 12.9 km/h
960 29-01-2015 07:55:00 2.4 C 4.91 g/m*3 0.05 C 8.1 km/h
961 29-01-2015 08:00:00 2.4 C 4.91 g/m*3 0.05 C 8.1 km/h
962 29-01-2015 08:05:00 2.4 C 4.91 g/m*3 -0.37 C 9.7 km/h
963 29-01-2015 08:10:00 2.5 C 4.94 g/m*3 -0.62 C 11.3 km/h
964 29-01-2015 08:15:00 2.6 C 4.98 g/m*3 -0.14 C 9.7 km/h
965 29-01-2015 08:20:00 2.6 C 4.98 g/m*3 0.29 C 8.1 km/h
966 29-01-2015 08:25:00 2.5 C 5 g/m*3 -0.62 C 11.3 km/h
967 29-01-2015 08:30:00 2.5 C 5 g/m*3 -0.26 C 9.7 km/h
968 29-01-2015 08:35:00 2.5 C 4.94 g/m*3 0.17 C 8.1 km/h
969 29-01-2015 08:40:00 2.6 C 4.98 g/m*3 0.29 C 8.1 km/h
970 29-01-2015 08:45:00 2.6 C 4.98 g/m*3 -2.28 C 22.5 km/h
971 29-01-2015 08:50:00 2.6 C 4.98 g/m*3 -1.12 C 14.5 km/h
972 29-01-2015 08:55:00 2.7 C 5.01 g/m*3 -1.51 C 17.7 km/h
973 29-01-2015 09:00:00 2.7 C 5.01 g/m*3 -0.38 C 11.3 km/h
974 29-01-2015 09:05:00 2.7 C 5.01 g/m*3 -0.71 C 12.9 km/h
975 29-01-2015 09:10:00 2.7 C 5.01 g/m*3 -0.02 C 9.7 km/h
Sensor: Nr:Datum:Temp:Abs-Feuchte:Windchill:Wind:
Aussen-T/F 976 29-01-2015 09:15:00 2.7 C 5.01 g/m*3 -0.71 C 12.9 km/h
977 29-01-2015 09:20:00 2.7 C 5.01 g/m*3 -1.51 C 17.7 km/h
978 29-01-2015 09:25:00 2.7 C 5.07 g/m*3 -1.51 C 17.7 km/h
979 29-01-2015 09:30:00 2.7 C 5.07 g/m*3 -1.27 C 16.1 km/h
980 29-01-2015 09:35:00 2.7 C 5.07 g/m*3 -1.27 C 16.1 km/h
981 29-01-2015 09:40:00 2.7 C 5.13 g/m*3 -0.02 C 9.7 km/h
982 29-01-2015 09:45:00 2.7 C 5.13 g/m*3 -0.71 C 12.9 km/h
983 29-01-2015 09:50:00 2.7 C 5.13 g/m*3 -0.38 C 11.3 km/h
984 29-01-2015 09:55:00 2.8 C 5.16 g/m*3 -0.59 C 12.9 km/h
985 29-01-2015 10:00:00 2.8 C 5.16 g/m*3 -0.88 C 14.5 km/h
986 29-01-2015 10:05:00 2.8 C 5.16 g/m*3 -0.59 C 12.9 km/h
987 29-01-2015 10:10:00 2.9 C 5.14 g/m*3 -1.02 C 16.1 km/h
988 29-01-2015 10:15:00 3.1 C 5.21 g/m*3 0.46 C 9.7 km/h
989 29-01-2015 10:20:00 3.2 C 5.18 g/m*3 -0.39 C 14.5 km/h
990 29-01-2015 10:25:00 3.2 C 5.18 g/m*3 0.58 C 9.7 km/h
991 29-01-2015 10:30:00 3.3 C 5.16 g/m*3 0.02 C 12.9 km/h
992 29-01-2015 10:35:00 3.3 C 5.16 g/m*3 -0.52 C 16.1 km/h
993 29-01-2015 10:40:00 3.4 C 5.19 g/m*3 -0.4 C 16.1 km/h
994 29-01-2015 10:45:00 3.4 C 5.19 g/m*3 1.23 C 8.1 km/h
995 29-01-2015 10:50:00 3.3 C 5.16 g/m*3 0.7 C 9.7 km/h
996 29-01-2015 10:55:00 3.3 C 5.16 g/m*3 1.11 C 8.1 km/h
997 29-01-2015 11:00:00 3.3 C 5.16 g/m*3 1.11 C 8.1 km/h
998 29-01-2015 11:05:00 3.3 C 5.16 g/m*3 0.02 C 12.9 km/h
999 29-01-2015 11:10:00 3.3 C 5.22 g/m*3 0.7 C 9.7 km/h
1000 29-01-2015 11:15:00 3.3 C 5.22 g/m*3 0.34 C 11.3 km/h
Sensor: Nr:Datum:Temp:Abs-Feuchte:Windchill:Wind:
Aussen-T/F 1001 29-01-2015 11:20:00 3.3 C 5.28 g/m*3 1.11 C 8.1 km/h
1002 29-01-2015 11:25:00 3.3 C 5.34 g/m*3 1.11 C 8.1 km/h
1003 29-01-2015 11:30:00 3.3 C 5.34 g/m*3 0.7 C 9.7 km/h
1004 29-01-2015 11:35:00 3.4 C 5.37 g/m*3 0.46 C 11.3 km/h
1005 29-01-2015 11:40:00 3.4 C 5.31 g/m*3 0.46 C 11.3 km/h
1006 29-01-2015 11:45:00 3.5 C 5.35 g/m*3 0.58 C 11.3 km/h
1007 29-01-2015 11:50:00 3.6 C 5.32 g/m*3 1.46 C 8.1 km/h
1008 29-01-2015 11:55:00 3.6 C 5.32 g/m*3 0.39 C 12.9 km/h
1009 29-01-2015 12:00:00 3.6 C 5.32 g/m*3 1.98 C 6.4 km/h
1010 29-01-2015 12:05:00 3.7 C 5.36 g/m*3 0.82 C 11.3 km/h
1011 29-01-2015 12:10:00 3.7 C 5.36 g/m*3 0.23 C 14.5 km/h
1012 29-01-2015 12:15:00 3.8 C 5.4 g/m*3 1.29 C 9.7 km/h
1013 29-01-2015 12:20:00 3.8 C 5.4 g/m*3 -0.36 C 19.3 km/h
1014 29-01-2015 12:25:00 3.8 C 5.4 g/m*3 0.35 C 14.5 km/h
1015 29-01-2015 12:30:00 3.8 C 5.33 g/m*3 1.7 C 8.1 km/h
1016 29-01-2015 12:35:00 3.8 C 5.33 g/m*3 1.29 C 9.7 km/h
1017 29-01-2015 12:40:00 3.8 C 5.33 g/m*3 0.63 C 12.9 km/h
1018 29-01-2015 12:45:00 3.9 C 5.37 g/m*3 -0.23 C 19.3 km/h
1019 29-01-2015 12:50:00 4 C 5.47 g/m*3 1.18 C 11.3 km/h
1020 29-01-2015 12:55:00 4 C 5.47 g/m*3 0.11 C 17.7 km/h
1021 29-01-2015 13:00:00 4 C 5.53 g/m*3 0.6 C 14.5 km/h
1022 29-01-2015 13:05:00 3.9 C 5.49 g/m*3 0.47 C 14.5 km/h
1023 29-01-2015 13:10:00 3.8 C 5.58 g/m*3 -0.36 C 19.3 km/h
1024 29-01-2015 13:15:00 3.9 C 5.68 g/m*3 1.06 C 11.3 km/h
1025 29-01-2015 13:20:00 4 C 5.66 g/m*3 0.11 C 17.7 km/h
Sensor: Nr:Datum:Temp:Abs-Feuchte:Windchill:Wind:
Aussen-T/F 1026 29-01-2015 13:25:00 4.1 C 5.7 g/m*3 0.47 C 16.1 km/h
1027 29-01-2015 13:30:00 4.1 C 5.7 g/m*3 1 C 12.9 km/h
1028 29-01-2015 13:35:00 4.1 C 5.63 g/m*3 1 C 12.9 km/h
1029 29-01-2015 13:40:00 4.2 C 5.61 g/m*3 0.59 C 16.1 km/h
1030 29-01-2015 13:45:00 4.3 C 5.58 g/m*3 -0.11 C 22.5 km/h
1031 29-01-2015 13:50:00 4.4 C 5.55 g/m*3 0.4 C 19.3 km/h
1032 29-01-2015 13:55:00 4.6 C 5.56 g/m*3 1.34 C 14.5 km/h
1033 29-01-2015 14:00:00 4.7 C 5.6 g/m*3 1.46 C 14.5 km/h
1034 29-01-2015 14:05:00 4.8 C 5.57 g/m*3 1.11 C 17.7 km/h
1035 29-01-2015 14:10:00 4.8 C 5.57 g/m*3 1.34 C 16.1 km/h
1036 29-01-2015 14:15:00 4.8 C 5.57 g/m*3 2.15 C 11.3 km/h
1037 29-01-2015 14:20:00 4.9 C 5.6 g/m*3 1.7 C 14.5 km/h
1038 29-01-2015 14:25:00 4.9 C 5.54 g/m*3 1.97 C 12.9 km/h
1039 29-01-2015 14:30:00 4.9 C 5.54 g/m*3 1.46 C 16.1 km/h
1040 29-01-2015 14:35:00 4.9 C 5.54 g/m*3 1.7 C 14.5 km/h
1041 29-01-2015 14:40:00 5.1 C 5.61 g/m*3 1.71 C 16.1 km/h
1042 29-01-2015 14:45:00 5.2 C 5.65 g/m*3 2.07 C 14.5 km/h
1043 29-01-2015 14:50:00 5.2 C 5.58 g/m*3 2.07 C 14.5 km/h
1044 29-01-2015 14:55:00 5.2 C 5.65 g/m*3 1.83 C 16.1 km/h
1045 29-01-2015 15:00:00 5.1 C 5.68 g/m*3 1.09 C 20.9 km/h
1046 29-01-2015 15:05:00 5.1 C 5.75 g/m*3 2.51 C 11.3 km/h
1047 29-01-2015 15:10:00 5.1 C 5.75 g/m*3 1.95 C 14.5 km/h
1048 29-01-2015 15:15:00 5.2 C 5.71 g/m*3 2.63 C 11.3 km/h
1049 29-01-2015 15:20:00 5.2 C 5.71 g/m*3 2.63 C 11.3 km/h
1050 29-01-2015 15:25:00 5.1 C 5.68 g/m*3 2.22 C 12.9 km/h
Sensor: Nr:Datum:Temp:Abs-Feuchte:Windchill:Wind:
Aussen-T/F 1051 29-01-2015 15:30:00 5.1 C 5.75 g/m*3 2.51 C 11.3 km/h
1052 29-01-2015 15:35:00 5.1 C 5.68 g/m*3 2.22 C 12.9 km/h
1053 29-01-2015 15:40:00 5.1 C 5.61 g/m*3 2.22 C 12.9 km/h
1054 29-01-2015 15:45:00 5.1 C 5.54 g/m*3 3.23 C 8.1 km/h
1055 29-01-2015 15:50:00 5.2 C 5.65 g/m*3 5.2 C 4.8 km/h
1056 29-01-2015 15:55:00 5.2 C 5.65 g/m*3 5.2 C 4.8 km/h
1057 29-01-2015 16:00:00 5.2 C 5.65 g/m*3 3.34 C 8.1 km/h
1058 29-01-2015 16:05:00 5.2 C 5.65 g/m*3 3.34 C 8.1 km/h
1059 29-01-2015 16:10:00 5.2 C 5.65 g/m*3 5.2 C 3.2 km/h
1060 29-01-2015 16:15:00 5.2 C 5.71 g/m*3 5.2 C 4.8 km/h
1061 29-01-2015 16:20:00 5.1 C 5.68 g/m*3 5.1 C 3.2 km/h
1062 29-01-2015 16:25:00 5.1 C 5.68 g/m*3 5.1 C 4.8 km/h
1063 29-01-2015 16:30:00 4.9 C 5.67 g/m*3 4.9 C 3.2 km/h
1064 29-01-2015 16:35:00 4.8 C 5.7 g/m*3 4.8 C 3.2 km/h
1065 29-01-2015 16:40:00 4.7 C 5.66 g/m*3 4.7 C 4.8 km/h
1066 29-01-2015 16:45:00 4.7 C 5.73 g/m*3 4.7 C 1.6 km/h
1067 29-01-2015 16:50:00 4.6 C 5.76 g/m*3 4.6 C 1.6 km/h
1068 29-01-2015 16:55:00 4.4 C 5.68 g/m*3 2.4 C 8.1 km/h
1069 29-01-2015 17:00:00 4.3 C 5.71 g/m*3 4.3 C 4.8 km/h
1070 29-01-2015 17:05:00 4.2 C 5.67 g/m*3 2.67 C 6.4 km/h
1071 29-01-2015 17:10:00 4.1 C 5.7 g/m*3 4.1 C 4.8 km/h
1072 29-01-2015 17:15:00 3.9 C 5.62 g/m*3 3.9 C 3.2 km/h
1073 29-01-2015 17:20:00 3.8 C 5.65 g/m*3 3.8 C 1.6 km/h
1074 29-01-2015 17:25:00 3.6 C 5.57 g/m*3 3.6 C 0 km/h
1075 29-01-2015 17:30:00 3.6 C 5.57 g/m*3 3.6 C 0 km/h
Sensor: Nr:Datum:Temp:Abs-Feuchte:Windchill:Wind:
Aussen-T/F 1076 29-01-2015 17:35:00 3.4 C 5.56 g/m*3 3.4 C 3.2 km/h
1077 29-01-2015 17:40:00 3.3 C 5.58 g/m*3 3.3 C 0 km/h
1078 29-01-2015 17:45:00 3.3 C 5.58 g/m*3 3.3 C 0 km/h
1079 29-01-2015 17:50:00 3.2 C 5.6 g/m*3 3.2 C 1.6 km/h
1080 29-01-2015 17:55:00 3.1 C 5.57 g/m*3 3.1 C 3.2 km/h
1081 29-01-2015 18:00:00 3.1 C 5.57 g/m*3 3.1 C 4.8 km/h
1082 29-01-2015 18:05:00 3 C 5.53 g/m*3 3 C 1.6 km/h
1083 29-01-2015 18:10:00 3 C 5.59 g/m*3 1.28 C 6.4 km/h
1084 29-01-2015 18:15:00 2.9 C 5.55 g/m*3 1.17 C 6.4 km/h
1085 29-01-2015 18:20:00 2.9 C 5.55 g/m*3 2.9 C 3.2 km/h
1086 29-01-2015 18:25:00 2.9 C 5.55 g/m*3 2.9 C 0 km/h
1087 29-01-2015 18:30:00 2.9 C 5.55 g/m*3 2.9 C 1.6 km/h
1088 29-01-2015 18:35:00 2.9 C 5.55 g/m*3 2.9 C 0 km/h
1089 29-01-2015 18:40:00 2.9 C 5.61 g/m*3 2.9 C 3.2 km/h
1090 29-01-2015 18:45:00 2.9 C 5.61 g/m*3 2.9 C 1.6 km/h
1091 29-01-2015 18:50:00 2.9 C 5.61 g/m*3 2.9 C 1.6 km/h
1092 29-01-2015 18:55:00 3 C 5.65 g/m*3 3 C 3.2 km/h
1093 29-01-2015 19:00:00 3 C 5.65 g/m*3 3 C 4.8 km/h
1094 29-01-2015 19:05:00 3.1 C 5.69 g/m*3 3.1 C 1.6 km/h
1095 29-01-2015 19:10:00 3.1 C 5.69 g/m*3 3.1 C 1.6 km/h
1096 29-01-2015 19:15:00 3.1 C 5.69 g/m*3 3.1 C 4.8 km/h
1097 29-01-2015 19:20:00 3.1 C 5.69 g/m*3 3.1 C 1.6 km/h
1098 29-01-2015 19:25:00 3.1 C 5.69 g/m*3 3.1 C 0 km/h
1099 29-01-2015 19:30:00 3.1 C 5.69 g/m*3 3.1 C 1.6 km/h
1100 29-01-2015 19:35:00 3 C 5.65 g/m*3 3 C 0 km/h
Sensor: Nr:Datum:Temp:Abs-Feuchte:Windchill:Wind:
Aussen-T/F 1101 29-01-2015 19:40:00 3 C 5.65 g/m*3 3 C 0 km/h
1102 29-01-2015 19:45:00 2.9 C 5.67 g/m*3 2.9 C 0 km/h
1103 29-01-2015 19:50:00 2.9 C 5.67 g/m*3 2.9 C 1.6 km/h
1104 29-01-2015 19:55:00 2.9 C 5.67 g/m*3 2.9 C 0 km/h
1105 29-01-2015 20:00:00 2.9 C 5.67 g/m*3 2.9 C 0 km/h
1106 29-01-2015 20:05:00 2.9 C 5.67 g/m*3 2.9 C 0 km/h
1107 29-01-2015 20:10:00 2.9 C 5.67 g/m*3 2.9 C 0 km/h
1108 29-01-2015 20:15:00 2.9 C 5.67 g/m*3 2.9 C 0 km/h
1109 29-01-2015 20:20:00 2.9 C 5.67 g/m*3 2.9 C 0 km/h
1110 29-01-2015 20:25:00 2.9 C 5.67 g/m*3 2.9 C 0 km/h
1111 29-01-2015 20:30:00 2.9 C 5.67 g/m*3 2.9 C 0 km/h
1112 29-01-2015 20:35:00 2.9 C 5.67 g/m*3 2.9 C 0 km/h
1113 29-01-2015 20:40:00 2.8 C 5.63 g/m*3 2.8 C 0 km/h
1114 29-01-2015 20:45:00 2.8 C 5.63 g/m*3 2.8 C 0 km/h
1115 29-01-2015 20:50:00 2.8 C 5.63 g/m*3 2.8 C 0 km/h
1116 29-01-2015 20:55:00 2.8 C 5.63 g/m*3 2.8 C 0 km/h
1117 29-01-2015 21:00:00 2.8 C 5.63 g/m*3 2.8 C 0 km/h
1118 29-01-2015 21:05:00 2.8 C 5.63 g/m*3 2.8 C 0 km/h
1119 29-01-2015 21:10:00 2.8 C 5.63 g/m*3 2.8 C 0 km/h
1120 29-01-2015 21:15:00 2.7 C 5.59 g/m*3 2.7 C 0 km/h
1121 29-01-2015 21:20:00 2.7 C 5.59 g/m*3 2.7 C 0 km/h
1122 29-01-2015 21:25:00 2.6 C 5.56 g/m*3 2.6 C 0 km/h
1123 29-01-2015 21:30:00 2.6 C 5.56 g/m*3 2.6 C 1.6 km/h
1124 29-01-2015 21:35:00 2.6 C 5.56 g/m*3 2.6 C 0 km/h
1125 29-01-2015 21:40:00 2.6 C 5.61 g/m*3 2.6 C 0 km/h
Sensor: Nr:Datum:Temp:Abs-Feuchte:Windchill:Wind:
Aussen-T/F 1126 29-01-2015 21:45:00 2.6 C 5.61 g/m*3 2.6 C 0 km/h
1127 29-01-2015 21:50:00 2.6 C 5.61 g/m*3 2.6 C 1.6 km/h
1128 29-01-2015 21:55:00 2.6 C 5.61 g/m*3 2.6 C 1.6 km/h
1129 29-01-2015 22:00:00 2.6 C 5.61 g/m*3 2.6 C 0 km/h
1130 29-01-2015 22:05:00 2.6 C 5.61 g/m*3 2.6 C 4.8 km/h
1131 29-01-2015 22:10:00 2.7 C 5.65 g/m*3 2.7 C 1.6 km/h
1132 29-01-2015 22:15:00 2.6 C 5.61 g/m*3 2.6 C 3.2 km/h
1133 29-01-2015 22:20:00 2.7 C 5.65 g/m*3 2.7 C 0 km/h
1134 29-01-2015 22:25:00 2.7 C 5.65 g/m*3 2.7 C 1.6 km/h
1135 29-01-2015 22:30:00 2.7 C 5.65 g/m*3 2.7 C 4.8 km/h
1136 29-01-2015 22:35:00 2.7 C 5.59 g/m*3 2.7 C 1.6 km/h
1137 29-01-2015 22:40:00 2.7 C 5.59 g/m*3 2.7 C 0 km/h
1138 29-01-2015 22:45:00 2.7 C 5.59 g/m*3 2.7 C 4.8 km/h
1139 29-01-2015 22:50:00 2.7 C 5.59 g/m*3 2.7 C 3.2 km/h
1140 29-01-2015 22:55:00 2.7 C 5.59 g/m*3 2.7 C 1.6 km/h
1141 29-01-2015 23:00:00 2.7 C 5.59 g/m*3 2.7 C 1.6 km/h
1142 29-01-2015 23:05:00 2.7 C 5.59 g/m*3 2.7 C 1.6 km/h
1143 29-01-2015 23:10:00 2.7 C 5.59 g/m*3 2.7 C 3.2 km/h
1144 29-01-2015 23:15:00 2.7 C 5.59 g/m*3 2.7 C 1.6 km/h
1145 29-01-2015 23:20:00 2.6 C 5.56 g/m*3 2.6 C 0 km/h
1146 29-01-2015 23:25:00 2.6 C 5.56 g/m*3 2.6 C 0 km/h
1147 29-01-2015 23:30:00 2.6 C 5.56 g/m*3 2.6 C 1.6 km/h
1148 29-01-2015 23:35:00 2.6 C 5.56 g/m*3 2.6 C 0 km/h
1149 29-01-2015 23:40:00 2.6 C 5.56 g/m*3 2.6 C 0 km/h
1150 29-01-2015 23:45:00 2.6 C 5.56 g/m*3 2.6 C 0 km/h
Sensor: Nr:Datum:Temp:Abs-Feuchte:Windchill:Wind:
Aussen-T/F 1151 29-01-2015 23:50:00 2.6 C 5.56 g/m*3 2.6 C 0 km/h
1152 29-01-2015 23:55:00 2.6 C 5.56 g/m*3 2.6 C 0 km/h
1153 30-01-2015 00:00:00 2.6 C 5.56 g/m*3 2.6 C 0 km/h
1154 30-01-2015 00:05:00 2.6 C 5.56 g/m*3 2.6 C 1.6 km/h
1155 30-01-2015 00:10:00 2.6 C 5.56 g/m*3 2.6 C 0 km/h
1156 30-01-2015 00:15:00 2.5 C 5.52 g/m*3 2.5 C 0 km/h
1157 30-01-2015 00:20:00 2.4 C 5.48 g/m*3 2.4 C 1.6 km/h
1158 30-01-2015 00:25:00 2.4 C 5.48 g/m*3 2.4 C 1.6 km/h
1159 30-01-2015 00:30:00 2.4 C 5.48 g/m*3 2.4 C 0 km/h
1160 30-01-2015 00:35:00 2.4 C 5.54 g/m*3 2.4 C 0 km/h
1161 30-01-2015 00:40:00 2.4 C 5.54 g/m*3 2.4 C 0 km/h
1162 30-01-2015 00:45:00 2.4 C 5.48 g/m*3 2.4 C 0 km/h
1163 30-01-2015 00:50:00 2.4 C 5.48 g/m*3 2.4 C 0 km/h
1164 30-01-2015 00:55:00 2.3 C 5.44 g/m*3 2.3 C 0 km/h
1165 30-01-2015 01:00:00 2.3 C 5.44 g/m*3 2.3 C 0 km/h
1166 30-01-2015 01:05:00 2.3 C 5.44 g/m*3 2.3 C 1.6 km/h
1167 30-01-2015 01:10:00 2.3 C 5.5 g/m*3 2.3 C 3.2 km/h
1168 30-01-2015 01:15:00 2.3 C 5.5 g/m*3 2.3 C 3.2 km/h
1169 30-01-2015 01:20:00 2.3 C 5.5 g/m*3 2.3 C 1.6 km/h
1170 30-01-2015 01:25:00 2.3 C 5.5 g/m*3 2.3 C 1.6 km/h
1171 30-01-2015 01:30:00 2.3 C 5.44 g/m*3 2.3 C 3.2 km/h
1172 30-01-2015 01:35:00 2.3 C 5.44 g/m*3 2.3 C 4.8 km/h
1173 30-01-2015 01:40:00 2.3 C 5.44 g/m*3 2.3 C 0 km/h
1174 30-01-2015 01:45:00 2.2 C 5.41 g/m*3 2.2 C 0 km/h
1175 30-01-2015 01:50:00 2 C 5.33 g/m*3 2 C 0 km/h
Sensor: Nr:Datum:Temp:Abs-Feuchte:Windchill:Wind:
Aussen-T/F 1176 30-01-2015 01:55:00 2 C 5.33 g/m*3 2 C 0 km/h
1177 30-01-2015 02:00:00 2 C 5.33 g/m*3 2 C 0 km/h
1178 30-01-2015 02:05:00 2.1 C 5.37 g/m*3 2.1 C 0 km/h
1179 30-01-2015 02:10:00 2.1 C 5.43 g/m*3 2.1 C 4.8 km/h
1180 30-01-2015 02:15:00 2.2 C 5.46 g/m*3 2.2 C 1.6 km/h
1181 30-01-2015 02:20:00 2.2 C 5.46 g/m*3 2.2 C 0 km/h
1182 30-01-2015 02:25:00 2.2 C 5.46 g/m*3 2.2 C 0 km/h
1183 30-01-2015 02:30:00 2.3 C 5.5 g/m*3 2.3 C 0 km/h
1184 30-01-2015 02:35:00 2.3 C 5.5 g/m*3 -0.07 C 8.1 km/h
1185 30-01-2015 02:40:00 2.2 C 5.46 g/m*3 -0.18 C 8.1 km/h
1186 30-01-2015 02:45:00 2.1 C 5.37 g/m*3 -1.11 C 11.3 km/h
1187 30-01-2015 02:50:00 1.9 C 5.3 g/m*3 1.9 C 4.8 km/h
1188 30-01-2015 02:55:00 1.8 C 5.26 g/m*3 -1.09 C 9.7 km/h
1189 30-01-2015 03:00:00 1.7 C 5.23 g/m*3 1.7 C 1.6 km/h
1190 30-01-2015 03:05:00 1.6 C 5.19 g/m*3 -0.33 C 6.4 km/h
1191 30-01-2015 03:10:00 1.5 C 5.16 g/m*3 1.5 C 1.6 km/h
1192 30-01-2015 03:15:00 1.5 C 5.16 g/m*3 1.5 C 1.6 km/h
1193 30-01-2015 03:20:00 1.5 C 5.16 g/m*3 1.5 C 1.6 km/h
1194 30-01-2015 03:25:00 1.5 C 5.16 g/m*3 1.5 C 4.8 km/h
1195 30-01-2015 03:30:00 1.6 C 5.19 g/m*3 1.6 C 3.2 km/h
1196 30-01-2015 03:35:00 1.6 C 5.19 g/m*3 1.6 C 4.8 km/h
1197 30-01-2015 03:40:00 1.6 C 5.19 g/m*3 1.6 C 3.2 km/h
1198 30-01-2015 03:45:00 1.6 C 5.19 g/m*3 -2.05 C 12.9 km/h
1199 30-01-2015 03:50:00 1.7 C 5.17 g/m*3 -1.93 C 12.9 km/h
1200 30-01-2015 03:55:00 1.7 C 5.12 g/m*3 1.7 C 4.8 km/h
Sensor: Nr:Datum:Temp:Abs-Feuchte:Windchill:Wind:
Aussen-T/F 1201 30-01-2015 04:00:00 1.8 C 5.15 g/m*3 1.8 C 4.8 km/h
1202 30-01-2015 04:05:00 1.8 C 5.1 g/m*3 -1.8 C 12.9 km/h
1203 30-01-2015 04:10:00 1.8 C 5.04 g/m*3 1.8 C 3.2 km/h
1204 30-01-2015 04:15:00 1.8 C 4.99 g/m*3 1.8 C 1.6 km/h
1205 30-01-2015 04:20:00 1.8 C 5.04 g/m*3 1.8 C 1.6 km/h
1206 30-01-2015 04:25:00 1.8 C 5.1 g/m*3 1.8 C 4.8 km/h
1207 30-01-2015 04:30:00 1.7 C 4.95 g/m*3 -2.23 C 14.5 km/h
1208 30-01-2015 04:35:00 1.7 C 4.95 g/m*3 1.7 C 3.2 km/h
1209 30-01-2015 04:40:00 1.6 C 4.92 g/m*3 -0.89 C 8.1 km/h
1210 30-01-2015 04:45:00 1.6 C 4.87 g/m*3 -1.33 C 9.7 km/h
1211 30-01-2015 04:50:00 1.6 C 4.87 g/m*3 -0.89 C 8.1 km/h
1212 30-01-2015 04:55:00 1.6 C 4.87 g/m*3 -0.33 C 6.4 km/h
1213 30-01-2015 05:00:00 1.6 C 4.81 g/m*3 -0.33 C 6.4 km/h
1214 30-01-2015 05:05:00 1.6 C 4.81 g/m*3 -0.33 C 6.4 km/h
1215 30-01-2015 05:10:00 1.6 C 4.87 g/m*3 1.6 C 4.8 km/h
1216 30-01-2015 05:15:00 1.6 C 4.87 g/m*3 1.6 C 4.8 km/h
1217 30-01-2015 05:20:00 1.6 C 4.81 g/m*3 -1.71 C 11.3 km/h
1218 30-01-2015 05:25:00 1.6 C 4.81 g/m*3 -0.33 C 6.4 km/h
1219 30-01-2015 05:30:00 1.6 C 4.76 g/m*3 -0.33 C 6.4 km/h
1220 30-01-2015 05:35:00 1.6 C 4.76 g/m*3 -0.89 C 8.1 km/h
1221 30-01-2015 05:40:00 1.6 C 4.76 g/m*3 1.6 C 4.8 km/h
1222 30-01-2015 05:45:00 1.6 C 4.7 g/m*3 -0.89 C 8.1 km/h
1223 30-01-2015 05:50:00 1.6 C 4.7 g/m*3 -2.05 C 12.9 km/h
1224 30-01-2015 05:55:00 1.6 C 4.65 g/m*3 -2.35 C 14.5 km/h
1225 30-01-2015 06:00:00 1.6 C 4.7 g/m*3 -1.71 C 11.3 km/h
Sensor: Nr:Datum:Temp:Abs-Feuchte:Windchill:Wind:
Aussen-T/F 1226 30-01-2015 06:05:00 1.6 C 4.7 g/m*3 -0.33 C 6.4 km/h
1227 30-01-2015 06:10:00 1.6 C 4.65 g/m*3 -1.33 C 9.7 km/h
1228 30-01-2015 06:15:00 1.7 C 4.63 g/m*3 -1.59 C 11.3 km/h
1229 30-01-2015 06:20:00 1.7 C 4.68 g/m*3 -0.22 C 6.4 km/h
1230 30-01-2015 06:25:00 1.7 C 4.68 g/m*3 -1.21 C 9.7 km/h
1231 30-01-2015 06:30:00 1.7 C 4.63 g/m*3 -0.77 C 8.1 km/h
1232 30-01-2015 06:35:00 1.7 C 4.63 g/m*3 -2.51 C 16.1 km/h
1233 30-01-2015 06:40:00 1.7 C 4.63 g/m*3 -1.21 C 9.7 km/h
1234 30-01-2015 06:45:00 1.7 C 4.63 g/m*3 -0.77 C 8.1 km/h
1235 30-01-2015 06:50:00 1.6 C 4.6 g/m*3 -2.35 C 14.5 km/h
1236 30-01-2015 06:55:00 1.7 C 4.63 g/m*3 -1.93 C 12.9 km/h
1237 30-01-2015 07:00:00 1.7 C 4.63 g/m*3 -0.77 C 8.1 km/h
1238 30-01-2015 07:05:00 1.7 C 4.57 g/m*3 -2.23 C 14.5 km/h
1239 30-01-2015 07:10:00 1.8 C 4.6 g/m*3 -1.47 C 11.3 km/h
1240 30-01-2015 07:15:00 1.8 C 4.55 g/m*3 -1.47 C 11.3 km/h
1241 30-01-2015 07:20:00 1.8 C 4.6 g/m*3 -1.8 C 12.9 km/h
1242 30-01-2015 07:25:00 1.8 C 4.66 g/m*3 -1.09 C 9.7 km/h
1243 30-01-2015 07:30:00 1.7 C 4.68 g/m*3 -1.21 C 9.7 km/h
1244 30-01-2015 07:35:00 1.6 C 4.7 g/m*3 -0.89 C 8.1 km/h
1245 30-01-2015 07:40:00 1.5 C 4.73 g/m*3 -1.45 C 9.7 km/h
1246 30-01-2015 07:45:00 1.4 C 4.75 g/m*3 -1.57 C 9.7 km/h
1247 30-01-2015 07:50:00 1.4 C 4.75 g/m*3 -1.12 C 8.1 km/h
1248 30-01-2015 07:55:00 1.3 C 4.72 g/m*3 -2.41 C 12.9 km/h
1249 30-01-2015 08:00:00 1.3 C 4.77 g/m*3 -1.69 C 9.7 km/h
1250 30-01-2015 08:05:00 1.3 C 4.77 g/m*3 -1.24 C 8.1 km/h
Sensor: Nr:Datum:Temp:Abs-Feuchte:Windchill:Wind:
Aussen-T/F 1251 30-01-2015 08:10:00 1.2 C 4.79 g/m*3 -2.19 C 11.3 km/h
1252 30-01-2015 08:15:00 1.2 C 4.79 g/m*3 -2.19 C 11.3 km/h
1253 30-01-2015 08:20:00 1.2 C 4.79 g/m*3 -1.36 C 8.1 km/h
1254 30-01-2015 08:25:00 1.2 C 4.79 g/m*3 -2.19 C 11.3 km/h
1255 30-01-2015 08:30:00 1.2 C 4.79 g/m*3 -0.8 C 6.4 km/h
1256 30-01-2015 08:35:00 1.2 C 4.79 g/m*3 1.2 C 4.8 km/h
1257 30-01-2015 08:40:00 1.3 C 4.77 g/m*3 -1.69 C 9.7 km/h
1258 30-01-2015 08:45:00 1.4 C 4.75 g/m*3 -1.57 C 9.7 km/h
1259 30-01-2015 08:50:00 1.6 C 4.76 g/m*3 -2.05 C 12.9 km/h
1260 30-01-2015 08:55:00 1.6 C 4.76 g/m*3 -0.89 C 8.1 km/h
1261 30-01-2015 09:00:00 1.7 C 4.74 g/m*3 -2.23 C 14.5 km/h
1262 30-01-2015 09:05:00 1.8 C 4.77 g/m*3 -0.65 C 8.1 km/h
1263 30-01-2015 09:10:00 1.8 C 4.77 g/m*3 -0.65 C 8.1 km/h
1264 30-01-2015 09:15:00 1.8 C 4.77 g/m*3 -1.47 C 11.3 km/h
1265 30-01-2015 09:20:00 1.9 C 4.75 g/m*3 -2.97 C 20.9 km/h
1266 30-01-2015 09:25:00 2 C 4.72 g/m*3 -1.56 C 12.9 km/h
1267 30-01-2015 09:30:00 2.2 C 4.79 g/m*3 -1.89 C 16.1 km/h
1268 30-01-2015 09:35:00 2.2 C 4.73 g/m*3 -2.14 C 17.7 km/h
1269 30-01-2015 09:40:00 2.2 C 4.73 g/m*3 -1.32 C 12.9 km/h
1270 30-01-2015 09:45:00 2.2 C 4.73 g/m*3 -0.99 C 11.3 km/h
1271 30-01-2015 09:50:00 2.1 C 4.76 g/m*3 -2.01 C 16.1 km/h
1272 30-01-2015 09:55:00 2.1 C 4.76 g/m*3 -2.01 C 16.1 km/h
1273 30-01-2015 10:00:00 2.1 C 4.76 g/m*3 -0.3 C 8.1 km/h
1274 30-01-2015 10:05:00 2.1 C 4.76 g/m*3 -0.3 C 8.1 km/h
1275 30-01-2015 10:10:00 2.1 C 4.76 g/m*3 -0.3 C 8.1 km/h
Sensor: Nr:Datum:Temp:Abs-Feuchte:Windchill:Wind:
Aussen-T/F 1276 30-01-2015 10:15:00 2.1 C 4.81 g/m*3 -0.73 C 9.7 km/h
1277 30-01-2015 10:20:00 2.1 C 4.81 g/m*3 -1.74 C 14.5 km/h
1278 30-01-2015 10:25:00 2.1 C 4.81 g/m*3 -1.11 C 11.3 km/h
1279 30-01-2015 10:30:00 2.2 C 4.84 g/m*3 -1.32 C 12.9 km/h
1280 30-01-2015 10:35:00 2.3 C 4.88 g/m*3 -0.87 C 11.3 km/h
1281 30-01-2015 10:40:00 2.4 C 4.91 g/m*3 -0.37 C 9.7 km/h
1282 30-01-2015 10:45:00 2.4 C 4.91 g/m*3 -1.64 C 16.1 km/h
1283 30-01-2015 10:50:00 2.5 C 4.94 g/m*3 -1.25 C 14.5 km/h
1284 30-01-2015 10:55:00 2.6 C 4.98 g/m*3 -0.5 C 11.3 km/h
1285 30-01-2015 11:00:00 2.6 C 4.98 g/m*3 -0.14 C 9.7 km/h
1286 30-01-2015 11:05:00 2.7 C 5.01 g/m*3 -0.38 C 11.3 km/h
1287 30-01-2015 11:10:00 2.8 C 4.99 g/m*3 -1.39 C 17.7 km/h
1288 30-01-2015 11:15:00 2.8 C 4.99 g/m*3 -0.88 C 14.5 km/h
1289 30-01-2015 11:20:00 2.9 C 5.02 g/m*3 -0.46 C 12.9 km/h
1290 30-01-2015 11:25:00 2.9 C 5.08 g/m*3 -0.46 C 12.9 km/h
1291 30-01-2015 11:30:00 2.8 C 4.99 g/m*3 -0.26 C 11.3 km/h
1292 30-01-2015 11:35:00 2.8 C 4.99 g/m*3 0.1 C 9.7 km/h
1293 30-01-2015 11:40:00 2.8 C 4.99 g/m*3 0.1 C 9.7 km/h
1294 30-01-2015 11:45:00 2.8 C 4.93 g/m*3 -1.83 C 20.9 km/h
1295 30-01-2015 11:50:00 2.9 C 4.96 g/m*3 -1.02 C 16.1 km/h
1296 30-01-2015 11:55:00 2.9 C 4.96 g/m*3 -0.46 C 12.9 km/h
1297 30-01-2015 12:00:00 2.9 C 4.96 g/m*3 -0.14 C 11.3 km/h
1298 30-01-2015 12:05:00 2.9 C 4.96 g/m*3 -0.46 C 12.9 km/h
1299 30-01-2015 12:10:00 2.9 C 4.96 g/m*3 0.64 C 8.1 km/h
1300 30-01-2015 12:15:00 2.9 C 4.96 g/m*3 -0.14 C 11.3 km/h
Sensor: Nr:Datum:Temp:Abs-Feuchte:Windchill:Wind:
Aussen-T/F 1301 30-01-2015 12:20:00 2.9 C 5.02 g/m*3 0.64 C 8.1 km/h
1302 30-01-2015 12:25:00 2.9 C 5.02 g/m*3 0.22 C 9.7 km/h
1303 30-01-2015 12:30:00 3 C 5.05 g/m*3 0.76 C 8.1 km/h
1304 30-01-2015 12:35:00 3.1 C 5.03 g/m*3 -0.22 C 12.9 km/h
1305 30-01-2015 12:40:00 3.2 C 5.12 g/m*3 -0.1 C 12.9 km/h
1306 30-01-2015 12:45:00 3.3 C 5.16 g/m*3 1.63 C 6.4 km/h
1307 30-01-2015 12:50:00 3.3 C 5.1 g/m*3 0.02 C 12.9 km/h
1308 30-01-2015 12:55:00 3.4 C 5.13 g/m*3 0.82 C 9.7 km/h
1309 30-01-2015 13:00:00 3.4 C 5.13 g/m*3 -0.64 C 17.7 km/h
1310 30-01-2015 13:05:00 3.4 C 5.07 g/m*3 0.82 C 9.7 km/h
1311 30-01-2015 13:10:00 3.4 C 5.01 g/m*3 -1.07 C 20.9 km/h
1312 30-01-2015 13:15:00 3.4 C 5.01 g/m*3 -0.4 C 16.1 km/h
1313 30-01-2015 13:20:00 3.3 C 4.97 g/m*3 0.34 C 11.3 km/h
1314 30-01-2015 13:25:00 3.2 C 4.94 g/m*3 0.22 C 11.3 km/h
1315 30-01-2015 13:30:00 3.2 C 4.94 g/m*3 0.58 C 9.7 km/h
1316 30-01-2015 13:35:00 3.1 C 4.91 g/m*3 1.4 C 6.4 km/h
1317 30-01-2015 13:40:00 3.1 C 4.97 g/m*3 -0.22 C 12.9 km/h
1318 30-01-2015 13:45:00 3.1 C 4.97 g/m*3 1.4 C 6.4 km/h
1319 30-01-2015 13:50:00 3 C 4.93 g/m*3 0.76 C 8.1 km/h
1320 30-01-2015 13:55:00 3 C 4.99 g/m*3 1.28 C 6.4 km/h
1321 30-01-2015 14:00:00 3 C 4.99 g/m*3 3 C 4.8 km/h
1322 30-01-2015 14:05:00 2.9 C 4.9 g/m*3 0.22 C 9.7 km/h
1323 30-01-2015 14:10:00 2.9 C 4.9 g/m*3 1.17 C 6.4 km/h
1324 30-01-2015 14:15:00 3 C 4.88 g/m*3 0.34 C 9.7 km/h
1325 30-01-2015 14:20:00 2.9 C 4.9 g/m*3 0.22 C 9.7 km/h
Sensor: Nr:Datum:Temp:Abs-Feuchte:Windchill:Wind:
Aussen-T/F 1326 30-01-2015 14:25:00 2.9 C 4.9 g/m*3 2.9 C 4.8 km/h
1327 30-01-2015 14:30:00 2.9 C 4.96 g/m*3 2.9 C 4.8 km/h
1328 30-01-2015 14:35:00 2.8 C 4.93 g/m*3 1.05 C 6.4 km/h
1329 30-01-2015 14:40:00 2.8 C 4.99 g/m*3 0.1 C 9.7 km/h
1330 30-01-2015 14:45:00 2.8 C 4.99 g/m*3 0.52 C 8.1 km/h
1331 30-01-2015 14:50:00 2.7 C 5.01 g/m*3 2.7 C 3.2 km/h
1332 30-01-2015 14:55:00 2.6 C 4.98 g/m*3 2.6 C 3.2 km/h
1333 30-01-2015 15:00:00 2.6 C 5.03 g/m*3 2.6 C 3.2 km/h
1334 30-01-2015 15:05:00 2.4 C 4.97 g/m*3 2.4 C 4.8 km/h
1335 30-01-2015 15:10:00 2.3 C 4.99 g/m*3 2.3 C 4.8 km/h
1336 30-01-2015 15:15:00 2.2 C 5.01 g/m*3 2.2 C 3.2 km/h
1337 30-01-2015 15:20:00 2.2 C 5.01 g/m*3 2.2 C 1.6 km/h
1338 30-01-2015 15:25:00 2 C 5 g/m*3 2 C 3.2 km/h
1339 30-01-2015 15:30:00 1.9 C 4.97 g/m*3 1.9 C 4.8 km/h
1340 30-01-2015 15:35:00 1.9 C 5.02 g/m*3 1.9 C 3.2 km/h
1341 30-01-2015 15:40:00 1.9 C 5.02 g/m*3 1.9 C 3.2 km/h
1342 30-01-2015 15:45:00 1.8 C 4.99 g/m*3 1.8 C 3.2 km/h
1343 30-01-2015 15:50:00 1.8 C 4.99 g/m*3 1.8 C 1.6 km/h
1344 30-01-2015 15:55:00 1.8 C 4.99 g/m*3 -0.1 C 6.4 km/h
1345 30-01-2015 16:00:00 1.8 C 4.99 g/m*3 1.8 C 1.6 km/h
1346 30-01-2015 16:05:00 1.8 C 4.99 g/m*3 1.8 C 3.2 km/h
1347 30-01-2015 16:10:00 1.7 C 4.95 g/m*3 1.7 C 3.2 km/h
1348 30-01-2015 16:15:00 1.6 C 4.97 g/m*3 1.6 C 3.2 km/h
1349 30-01-2015 16:20:00 1.5 C 4.94 g/m*3 1.5 C 3.2 km/h
1350 30-01-2015 16:25:00 1.4 C 4.91 g/m*3 1.4 C 3.2 km/h
Sensor: Nr:Datum:Temp:Abs-Feuchte:Windchill:Wind:
Aussen-T/F 1351 30-01-2015 16:30:00 1.3 C 4.93 g/m*3 1.3 C 3.2 km/h
1352 30-01-2015 16:35:00 1.2 C 4.89 g/m*3 1.2 C 3.2 km/h
1353 30-01-2015 16:40:00 1.2 C 4.89 g/m*3 1.2 C 3.2 km/h
1354 30-01-2015 16:45:00 1.2 C 4.89 g/m*3 1.2 C 3.2 km/h
1355 30-01-2015 16:50:00 1.1 C 4.91 g/m*3 1.1 C 3.2 km/h
1356 30-01-2015 16:55:00 1.1 C 4.91 g/m*3 1.1 C 3.2 km/h
1357 30-01-2015 17:00:00 1 C 4.88 g/m*3 1 C 3.2 km/h
1358 30-01-2015 17:05:00 1 C 4.88 g/m*3 1 C 3.2 km/h
1359 30-01-2015 17:10:00 0.9 C 4.85 g/m*3 0.9 C 3.2 km/h
1360 30-01-2015 17:15:00 1 C 4.93 g/m*3 1 C 3.2 km/h
1361 30-01-2015 17:20:00 1.1 C 4.96 g/m*3 1.1 C 4.8 km/h
1362 30-01-2015 17:25:00 1.1 C 4.91 g/m*3 1.1 C 3.2 km/h
1363 30-01-2015 17:30:00 1.2 C 4.95 g/m*3 -0.8 C 6.4 km/h
1364 30-01-2015 17:35:00 1.2 C 5 g/m*3 1.2 C 3.2 km/h
1365 30-01-2015 17:40:00 1.2 C 5 g/m*3 1.2 C 3.2 km/h
1366 30-01-2015 17:45:00 1.2 C 5 g/m*3 1.2 C 3.2 km/h
1367 30-01-2015 17:50:00 1.2 C 5 g/m*3 1.2 C 4.8 km/h
1368 30-01-2015 17:55:00 1.2 C 5 g/m*3 -0.8 C 6.4 km/h
1369 30-01-2015 18:00:00 1.3 C 5.03 g/m*3 1.3 C 4.8 km/h
1370 30-01-2015 18:05:00 1.3 C 5.03 g/m*3 1.3 C 1.6 km/h
1371 30-01-2015 18:10:00 1.3 C 5.03 g/m*3 1.3 C 1.6 km/h
1372 30-01-2015 18:15:00 1.3 C 5.03 g/m*3 1.3 C 1.6 km/h
1373 30-01-2015 18:20:00 1.3 C 5.03 g/m*3 1.3 C 3.2 km/h
1374 30-01-2015 18:25:00 1.2 C 5 g/m*3 1.2 C 1.6 km/h
1375 30-01-2015 18:30:00 1.2 C 5 g/m*3 1.2 C 1.6 km/h
Sensor: Nr:Datum:Temp:Abs-Feuchte:Windchill:Wind:
Aussen-T/F 1376 30-01-2015 18:35:00 1.2 C 5 g/m*3 1.2 C 0 km/h
1377 30-01-2015 18:40:00 1.2 C 5 g/m*3 1.2 C 1.6 km/h
1378 30-01-2015 18:45:00 1.2 C 5 g/m*3 1.2 C 3.2 km/h
1379 30-01-2015 18:50:00 1.3 C 5.03 g/m*3 1.3 C 4.8 km/h
1380 30-01-2015 18:55:00 1.4 C 5.07 g/m*3 1.4 C 3.2 km/h
1381 30-01-2015 19:00:00 1.5 C 5.05 g/m*3 1.5 C 4.8 km/h
1382 30-01-2015 19:05:00 1.6 C 5.08 g/m*3 1.6 C 1.6 km/h
1383 30-01-2015 19:10:00 1.7 C 5.12 g/m*3 1.7 C 1.6 km/h
1384 30-01-2015 19:15:00 1.6 C 5.08 g/m*3 1.6 C 0 km/h
1385 30-01-2015 19:20:00 1.6 C 5.08 g/m*3 1.6 C 1.6 km/h
1386 30-01-2015 19:25:00 1.6 C 5.08 g/m*3 1.6 C 0 km/h
1387 30-01-2015 19:30:00 1.6 C 5.08 g/m*3 1.6 C 1.6 km/h
1388 30-01-2015 19:35:00 1.6 C 5.08 g/m*3 1.6 C 0 km/h
1389 30-01-2015 19:40:00 1.6 C 5.08 g/m*3 1.6 C 0 km/h
1390 30-01-2015 19:45:00 1.6 C 5.08 g/m*3 1.6 C 1.6 km/h
1391 30-01-2015 19:50:00 1.6 C 5.08 g/m*3 1.6 C 3.2 km/h
1392 30-01-2015 19:55:00 1.6 C 5.14 g/m*3 1.6 C 1.6 km/h
1393 30-01-2015 20:00:00 1.6 C 5.14 g/m*3 1.6 C 0 km/h
1394 30-01-2015 20:05:00 1.6 C 5.14 g/m*3 1.6 C 1.6 km/h
1395 30-01-2015 20:10:00 1.6 C 5.14 g/m*3 1.6 C 1.6 km/h
1396 30-01-2015 20:15:00 1.5 C 5.1 g/m*3 1.5 C 0 km/h
1397 30-01-2015 20:20:00 1.5 C 5.05 g/m*3 1.5 C 0 km/h
1398 30-01-2015 20:25:00 1.4 C 5.01 g/m*3 1.4 C 0 km/h
1399 30-01-2015 20:30:00 1.4 C 5.01 g/m*3 1.4 C 0 km/h
1400 30-01-2015 20:35:00 1.4 C 5.01 g/m*3 1.4 C 0 km/h
Sensor: Nr:Datum:Temp:Abs-Feuchte:Windchill:Wind:
Aussen-T/F 1401 30-01-2015 20:40:00 1.4 C 5.01 g/m*3 1.4 C 0 km/h
1402 30-01-2015 20:45:00 1.4 C 5.01 g/m*3 1.4 C 0 km/h
1403 30-01-2015 20:50:00 1.4 C 5.01 g/m*3 1.4 C 0 km/h
1404 30-01-2015 20:55:00 1.4 C 5.01 g/m*3 1.4 C 0 km/h
1405 30-01-2015 21:00:00 1.4 C 5.01 g/m*3 1.4 C 3.2 km/h
1406 30-01-2015 21:05:00 1.5 C 5.05 g/m*3 1.5 C 3.2 km/h
1407 30-01-2015 21:10:00 1.5 C 5.05 g/m*3 1.5 C 0 km/h
1408 30-01-2015 21:15:00 1.5 C 5.05 g/m*3 1.5 C 0 km/h
1409 30-01-2015 21:20:00 1.5 C 5.05 g/m*3 1.5 C 0 km/h
1410 30-01-2015 21:25:00 1.5 C 5.05 g/m*3 1.5 C 1.6 km/h
1411 30-01-2015 21:30:00 1.5 C 5.05 g/m*3 1.5 C 0 km/h
1412 30-01-2015 21:35:00 1.5 C 5.05 g/m*3 1.5 C 0 km/h
1413 30-01-2015 21:40:00 1.5 C 5.05 g/m*3 1.5 C 0 km/h
1414 30-01-2015 21:45:00 1.4 C 5.01 g/m*3 1.4 C 1.6 km/h
1415 30-01-2015 21:50:00 1.4 C 5.01 g/m*3 1.4 C 0 km/h
1416 30-01-2015 21:55:00 1.4 C 5.01 g/m*3 1.4 C 0 km/h
1417 30-01-2015 22:00:00 1.4 C 5.01 g/m*3 1.4 C 0 km/h
1418 30-01-2015 22:05:00 1.4 C 5.01 g/m*3 1.4 C 0 km/h
1419 30-01-2015 22:10:00 1.4 C 4.96 g/m*3 1.4 C 1.6 km/h
1420 30-01-2015 22:15:00 1.5 C 4.99 g/m*3 1.5 C 1.6 km/h
1421 30-01-2015 22:20:00 1.6 C 4.97 g/m*3 1.6 C 1.6 km/h
1422 30-01-2015 22:25:00 1.6 C 4.97 g/m*3 1.6 C 1.6 km/h
1423 30-01-2015 22:30:00 1.6 C 4.92 g/m*3 1.6 C 4.8 km/h
1424 30-01-2015 22:35:00 1.7 C 4.95 g/m*3 -0.77 C 8.1 km/h
1425 30-01-2015 22:40:00 1.8 C 4.88 g/m*3 1.8 C 4.8 km/h
Sensor: Nr:Datum:Temp:Abs-Feuchte:Windchill:Wind:
Aussen-T/F 1426 30-01-2015 22:45:00 1.9 C 4.86 g/m*3 1.9 C 4.8 km/h
1427 30-01-2015 22:50:00 2 C 4.95 g/m*3 2 C 1.6 km/h
1428 30-01-2015 22:55:00 1.9 C 4.91 g/m*3 1.9 C 1.6 km/h
1429 30-01-2015 23:00:00 1.9 C 4.91 g/m*3 1.9 C 1.6 km/h
1430 30-01-2015 23:05:00 1.9 C 4.97 g/m*3 1.9 C 0 km/h
1431 30-01-2015 23:10:00 1.8 C 4.93 g/m*3 1.8 C 0 km/h
1432 30-01-2015 23:15:00 1.7 C 4.9 g/m*3 1.7 C 3.2 km/h
1433 30-01-2015 23:20:00 1.7 C 4.95 g/m*3 1.7 C 1.6 km/h
1434 30-01-2015 23:25:00 1.7 C 4.95 g/m*3 1.7 C 0 km/h
1435 30-01-2015 23:30:00 1.6 C 4.92 g/m*3 1.6 C 3.2 km/h
1436 30-01-2015 23:35:00 1.5 C 4.83 g/m*3 1.5 C 4.8 km/h
1437 30-01-2015 23:40:00 1.6 C 4.87 g/m*3 -0.33 C 6.4 km/h
1438 30-01-2015 23:45:00 1.6 C 4.81 g/m*3 1.6 C 4.8 km/h
1439 30-01-2015 23:50:00 1.6 C 4.81 g/m*3 1.6 C 3.2 km/h
1440 30-01-2015 23:55:00 1.6 C 4.81 g/m*3 1.6 C 1.6 km/h
1441 31-01-2015 00:00:00 1.6 C 4.87 g/m*3 1.6 C 3.2 km/h
1442 31-01-2015 00:05:00 1.6 C 4.81 g/m*3 1.6 C 3.2 km/h
1443 31-01-2015 00:10:00 1.6 C 4.81 g/m*3 1.6 C 4.8 km/h
1444 31-01-2015 00:15:00 1.6 C 4.76 g/m*3 1.6 C 4.8 km/h
1445 31-01-2015 00:20:00 1.7 C 4.79 g/m*3 1.7 C 4.8 km/h
1446 31-01-2015 00:25:00 1.7 C 4.74 g/m*3 -0.22 C 6.4 km/h
1447 31-01-2015 00:30:00 1.7 C 4.74 g/m*3 1.7 C 4.8 km/h
1448 31-01-2015 00:35:00 1.6 C 4.76 g/m*3 -0.89 C 8.1 km/h
1449 31-01-2015 00:40:00 1.4 C 4.69 g/m*3 1.4 C 4.8 km/h
1450 31-01-2015 00:45:00 1.5 C 4.73 g/m*3 -1.01 C 8.1 km/h
Sensor: Nr:Datum:Temp:Abs-Feuchte:Windchill:Wind:
Aussen-T/F 1451 31-01-2015 00:50:00 1.6 C 4.76 g/m*3 -1.33 C 9.7 km/h
1452 31-01-2015 00:55:00 1.7 C 4.79 g/m*3 -0.22 C 6.4 km/h
1453 31-01-2015 01:00:00 1.8 C 4.77 g/m*3 -0.1 C 6.4 km/h
1454 31-01-2015 01:05:00 1.8 C 4.77 g/m*3 -0.65 C 8.1 km/h
1455 31-01-2015 01:10:00 1.9 C 4.75 g/m*3 -1.68 C 12.9 km/h
1456 31-01-2015 01:15:00 1.9 C 4.75 g/m*3 -1.68 C 12.9 km/h
1457 31-01-2015 01:20:00 1.9 C 4.75 g/m*3 -1.35 C 11.3 km/h
1458 31-01-2015 01:25:00 2.1 C 4.81 g/m*3 -1.74 C 14.5 km/h
1459 31-01-2015 01:30:00 2.1 C 4.81 g/m*3 -1.74 C 14.5 km/h
1460 31-01-2015 01:35:00 2.1 C 4.81 g/m*3 -1.44 C 12.9 km/h
1461 31-01-2015 01:40:00 2 C 4.72 g/m*3 -1.23 C 11.3 km/h
1462 31-01-2015 01:45:00 2.1 C 4.7 g/m*3 -0.73 C 9.7 km/h
1463 31-01-2015 01:50:00 2.1 C 4.7 g/m*3 -1.44 C 12.9 km/h
1464 31-01-2015 01:55:00 2 C 4.67 g/m*3 0.13 C 6.4 km/h
1465 31-01-2015 02:00:00 2 C 4.67 g/m*3 -1.23 C 11.3 km/h
1466 31-01-2015 02:05:00 2 C 4.67 g/m*3 -1.23 C 11.3 km/h
1467 31-01-2015 02:10:00 2.1 C 4.7 g/m*3 -1.44 C 12.9 km/h
1468 31-01-2015 02:15:00 2.1 C 4.64 g/m*3 -1.44 C 12.9 km/h
1469 31-01-2015 02:20:00 2.1 C 4.64 g/m*3 -1.11 C 11.3 km/h
1470 31-01-2015 02:25:00 2.1 C 4.64 g/m*3 -1.44 C 12.9 km/h
1471 31-01-2015 02:30:00 2.1 C 4.64 g/m*3 -1.44 C 12.9 km/h
1472 31-01-2015 02:35:00 2.1 C 4.7 g/m*3 -1.44 C 12.9 km/h
1473 31-01-2015 02:40:00 2.1 C 4.7 g/m*3 -1.74 C 14.5 km/h
1474 31-01-2015 02:45:00 2 C 4.67 g/m*3 -0.85 C 9.7 km/h
1475 31-01-2015 02:50:00 2 C 4.72 g/m*3 -1.56 C 12.9 km/h
Sensor: Nr:Datum:Temp:Abs-Feuchte:Windchill:Wind:
Aussen-T/F 1476 31-01-2015 02:55:00 2 C 4.72 g/m*3 -1.56 C 12.9 km/h
1477 31-01-2015 03:00:00 1.9 C 4.69 g/m*3 -1.68 C 12.9 km/h
1478 31-01-2015 03:05:00 1.9 C 4.75 g/m*3 -1.35 C 11.3 km/h
1479 31-01-2015 03:10:00 1.9 C 4.75 g/m*3 -2.51 C 17.7 km/h
1480 31-01-2015 03:15:00 1.9 C 4.75 g/m*3 -2.51 C 17.7 km/h
1481 31-01-2015 03:20:00 1.9 C 4.75 g/m*3 -1.35 C 11.3 km/h
1482 31-01-2015 03:25:00 1.9 C 4.75 g/m*3 -2.75 C 19.3 km/h
1483 31-01-2015 03:30:00 2 C 4.78 g/m*3 -2.62 C 19.3 km/h
1484 31-01-2015 03:35:00 2 C 4.78 g/m*3 -0.85 C 9.7 km/h
1485 31-01-2015 03:40:00 1.9 C 4.75 g/m*3 -2.51 C 17.7 km/h
1486 31-01-2015 03:45:00 1.9 C 4.8 g/m*3 -2.75 C 19.3 km/h
1487 31-01-2015 03:50:00 1.9 C 4.8 g/m*3 -1.98 C 14.5 km/h
1488 31-01-2015 03:55:00 1.9 C 4.8 g/m*3 -0.97 C 9.7 km/h
1489 31-01-2015 04:00:00 1.9 C 4.86 g/m*3 -1.35 C 11.3 km/h
1490 31-01-2015 04:05:00 1.9 C 4.86 g/m*3 -1.35 C 11.3 km/h
1491 31-01-2015 04:10:00 1.9 C 4.86 g/m*3 -0.97 C 9.7 km/h
1492 31-01-2015 04:15:00 1.9 C 4.86 g/m*3 -1.98 C 14.5 km/h
1493 31-01-2015 04:20:00 1.9 C 4.86 g/m*3 -2.26 C 16.1 km/h
1494 31-01-2015 04:25:00 1.9 C 4.86 g/m*3 -1.35 C 11.3 km/h
1495 31-01-2015 04:30:00 1.9 C 4.86 g/m*3 -2.26 C 16.1 km/h
1496 31-01-2015 04:35:00 2 C 4.89 g/m*3 -2.14 C 16.1 km/h
1497 31-01-2015 04:40:00 1.9 C 4.86 g/m*3 -1.68 C 12.9 km/h
1498 31-01-2015 04:45:00 1.9 C 4.86 g/m*3 -1.98 C 14.5 km/h
1499 31-01-2015 04:50:00 1.9 C 4.86 g/m*3 -2.51 C 17.7 km/h
1500 31-01-2015 04:55:00 1.9 C 4.86 g/m*3 -1.98 C 14.5 km/h
Sensor: Nr:Datum:Temp:Abs-Feuchte:Windchill:Wind:
Aussen-T/F 1501 31-01-2015 05:00:00 1.9 C 4.86 g/m*3 -1.35 C 11.3 km/h
1502 31-01-2015 05:05:00 1.9 C 4.91 g/m*3 -3.17 C 22.5 km/h
1503 31-01-2015 05:10:00 1.9 C 4.91 g/m*3 -1.68 C 12.9 km/h
1504 31-01-2015 05:15:00 1.8 C 4.88 g/m*3 -0.65 C 8.1 km/h
1505 31-01-2015 05:20:00 1.8 C 4.88 g/m*3 -1.47 C 11.3 km/h
1506 31-01-2015 05:25:00 1.8 C 4.88 g/m*3 -0.1 C 6.4 km/h
1507 31-01-2015 05:30:00 1.7 C 4.9 g/m*3 -1.59 C 11.3 km/h
1508 31-01-2015 05:35:00 1.7 C 4.9 g/m*3 -0.77 C 8.1 km/h
1509 31-01-2015 05:40:00 1.7 C 4.9 g/m*3 -0.77 C 8.1 km/h
1510 31-01-2015 05:45:00 1.7 C 4.9 g/m*3 -1.21 C 9.7 km/h
1511 31-01-2015 05:50:00 1.7 C 4.9 g/m*3 -0.77 C 8.1 km/h
1512 31-01-2015 05:55:00 1.7 C 4.9 g/m*3 -0.22 C 6.4 km/h
1513 31-01-2015 06:00:00 1.8 C 4.93 g/m*3 -1.47 C 11.3 km/h
1514 31-01-2015 06:05:00 1.8 C 4.93 g/m*3 -0.65 C 8.1 km/h
1515 31-01-2015 06:10:00 1.8 C 4.93 g/m*3 -0.1 C 6.4 km/h
1516 31-01-2015 06:15:00 1.8 C 4.93 g/m*3 -0.65 C 8.1 km/h
1517 31-01-2015 06:20:00 1.8 C 4.93 g/m*3 -0.1 C 6.4 km/h
1518 31-01-2015 06:25:00 1.8 C 4.93 g/m*3 -1.47 C 11.3 km/h
1519 31-01-2015 06:30:00 1.8 C 4.93 g/m*3 -1.47 C 11.3 km/h
1520 31-01-2015 06:35:00 1.9 C 4.97 g/m*3 -0.54 C 8.1 km/h
1521 31-01-2015 06:40:00 1.9 C 4.91 g/m*3 0.01 C 6.4 km/h
1522 31-01-2015 06:45:00 1.9 C 4.91 g/m*3 -1.68 C 12.9 km/h
1523 31-01-2015 06:50:00 1.9 C 4.91 g/m*3 -0.97 C 9.7 km/h
1524 31-01-2015 06:55:00 1.9 C 4.91 g/m*3 -1.35 C 11.3 km/h
1525 31-01-2015 07:00:00 1.8 C 4.88 g/m*3 -1.47 C 11.3 km/h
Sensor: Nr:Datum:Temp:Abs-Feuchte:Windchill:Wind:
Aussen-T/F 1526 31-01-2015 07:05:00 1.8 C 4.88 g/m*3 1.8 C 3.2 km/h
1527 31-01-2015 07:10:00 1.6 C 4.81 g/m*3 1.6 C 4.8 km/h
1528 31-01-2015 07:15:00 1.4 C 4.8 g/m*3 -0.56 C 6.4 km/h
1529 31-01-2015 07:20:00 1.3 C 4.77 g/m*3 -2.07 C 11.3 km/h
1530 31-01-2015 07:25:00 1.3 C 4.77 g/m*3 -0.68 C 6.4 km/h
1531 31-01-2015 07:30:00 1.2 C 4.79 g/m*3 1.2 C 4.8 km/h
1532 31-01-2015 07:35:00 1.2 C 4.79 g/m*3 -0.8 C 6.4 km/h
1533 31-01-2015 07:40:00 1.1 C 4.76 g/m*3 1.1 C 4.8 km/h
1534 31-01-2015 07:45:00 1.1 C 4.81 g/m*3 -1.92 C 9.7 km/h
1535 31-01-2015 07:50:00 1.3 C 4.82 g/m*3 -1.24 C 8.1 km/h
1536 31-01-2015 07:55:00 1.2 C 4.74 g/m*3 -0.8 C 6.4 km/h
1537 31-01-2015 08:00:00 1.3 C 4.82 g/m*3 1.3 C 4.8 km/h
1538 31-01-2015 08:05:00 1.3 C 4.77 g/m*3 1.3 C 3.2 km/h
1539 31-01-2015 08:10:00 1.2 C 4.79 g/m*3 1.2 C 4.8 km/h
1540 31-01-2015 08:15:00 1.2 C 4.79 g/m*3 1.2 C 4.8 km/h
1541 31-01-2015 08:20:00 1.2 C 4.79 g/m*3 1.2 C 4.8 km/h
1542 31-01-2015 08:25:00 1.2 C 4.79 g/m*3 1.2 C 4.8 km/h
1543 31-01-2015 08:30:00 1.3 C 4.82 g/m*3 -1.24 C 8.1 km/h
1544 31-01-2015 08:35:00 1.3 C 4.82 g/m*3 -0.68 C 6.4 km/h
1545 31-01-2015 08:40:00 1.4 C 4.85 g/m*3 -1.12 C 8.1 km/h
1546 31-01-2015 08:45:00 1.5 C 4.83 g/m*3 -1.83 C 11.3 km/h
1547 31-01-2015 08:50:00 1.6 C 4.87 g/m*3 1.6 C 4.8 km/h
1548 31-01-2015 08:55:00 1.6 C 4.87 g/m*3 -0.89 C 8.1 km/h
1549 31-01-2015 09:00:00 1.7 C 4.9 g/m*3 1.7 C 4.8 km/h
1550 31-01-2015 09:05:00 1.7 C 4.9 g/m*3 1.7 C 3.2 km/h
Sensor: Nr:Datum:Temp:Abs-Feuchte:Windchill:Wind:
Aussen-T/F 1551 31-01-2015 09:10:00 1.7 C 4.9 g/m*3 1.7 C 3.2 km/h
1552 31-01-2015 09:15:00 1.6 C 4.87 g/m*3 1.6 C 4.8 km/h
1553 31-01-2015 09:20:00 1.6 C 4.87 g/m*3 1.6 C 4.8 km/h
1554 31-01-2015 09:25:00 1.7 C 4.9 g/m*3 1.7 C 3.2 km/h
1555 31-01-2015 09:30:00 1.7 C 4.9 g/m*3 1.7 C 3.2 km/h
1556 31-01-2015 09:35:00 1.7 C 4.9 g/m*3 1.7 C 3.2 km/h
1557 31-01-2015 09:40:00 1.6 C 4.87 g/m*3 -0.89 C 8.1 km/h
1558 31-01-2015 09:45:00 1.7 C 4.9 g/m*3 -0.77 C 8.1 km/h
1559 31-01-2015 09:50:00 1.7 C 4.85 g/m*3 1.7 C 4.8 km/h
1560 31-01-2015 09:55:00 1.8 C 4.82 g/m*3 -1.8 C 12.9 km/h
1561 31-01-2015 10:00:00 1.9 C 4.86 g/m*3 -1.35 C 11.3 km/h
1562 31-01-2015 10:05:00 2.1 C 4.87 g/m*3 -1.44 C 12.9 km/h
1563 31-01-2015 10:10:00 2.1 C 4.87 g/m*3 -0.3 C 8.1 km/h
1564 31-01-2015 10:15:00 2.2 C 4.84 g/m*3 -1.32 C 12.9 km/h
1565 31-01-2015 10:20:00 2.2 C 4.84 g/m*3 -0.61 C 9.7 km/h
1566 31-01-2015 10:25:00 2.3 C 4.88 g/m*3 -0.49 C 9.7 km/h
1567 31-01-2015 10:30:00 2.3 C 4.88 g/m*3 -1.2 C 12.9 km/h
1568 31-01-2015 10:35:00 2.4 C 4.91 g/m*3 -0.37 C 9.7 km/h
1569 31-01-2015 10:40:00 2.4 C 4.91 g/m*3 -0.74 C 11.3 km/h
1570 31-01-2015 10:45:00 2.4 C 4.85 g/m*3 -1.37 C 14.5 km/h
1571 31-01-2015 10:50:00 2.5 C 4.89 g/m*3 0.17 C 8.1 km/h
1572 31-01-2015 10:55:00 2.6 C 4.92 g/m*3 -1.87 C 19.3 km/h
1573 31-01-2015 11:00:00 2.6 C 4.86 g/m*3 -0.5 C 11.3 km/h
1574 31-01-2015 11:05:00 2.6 C 4.86 g/m*3 -0.83 C 12.9 km/h
1575 31-01-2015 11:10:00 2.7 C 4.89 g/m*3 -1 C 14.5 km/h
Sensor: Nr:Datum:Temp:Abs-Feuchte:Windchill:Wind:
Aussen-T/F 1576 31-01-2015 11:15:00 2.7 C 4.89 g/m*3 -1.27 C 16.1 km/h
1577 31-01-2015 11:20:00 2.8 C 4.93 g/m*3 -1.14 C 16.1 km/h
1578 31-01-2015 11:25:00 2.8 C 4.87 g/m*3 -0.26 C 11.3 km/h
1579 31-01-2015 11:30:00 2.9 C 4.9 g/m*3 -0.46 C 12.9 km/h
1580 31-01-2015 11:35:00 2.9 C 4.9 g/m*3 -1.26 C 17.7 km/h
1581 31-01-2015 11:40:00 3.1 C 4.91 g/m*3 -0.22 C 12.9 km/h
1582 31-01-2015 11:45:00 3.1 C 4.91 g/m*3 0.1 C 11.3 km/h
1583 31-01-2015 11:50:00 3.2 C 4.88 g/m*3 -0.89 C 17.7 km/h
1584 31-01-2015 11:55:00 3.2 C 4.88 g/m*3 0.58 C 9.7 km/h
1585 31-01-2015 12:00:00 3.3 C 4.85 g/m*3 -0.26 C 14.5 km/h
1586 31-01-2015 12:05:00 3.3 C 4.85 g/m*3 -0.76 C 17.7 km/h
1587 31-01-2015 12:10:00 3.3 C 4.79 g/m*3 -0.52 C 16.1 km/h
1588 31-01-2015 12:15:00 3.4 C 4.83 g/m*3 0.14 C 12.9 km/h
1589 31-01-2015 12:20:00 3.6 C 4.89 g/m*3 0.7 C 11.3 km/h
1590 31-01-2015 12:25:00 3.6 C 4.89 g/m*3 1.06 C 9.7 km/h
1591 31-01-2015 12:30:00 3.7 C 4.92 g/m*3 0.82 C 11.3 km/h
1592 31-01-2015 12:35:00 3.7 C 4.92 g/m*3 1.18 C 9.7 km/h
1593 31-01-2015 12:40:00 3.7 C 4.86 g/m*3 0.82 C 11.3 km/h
1594 31-01-2015 12:45:00 3.8 C 4.96 g/m*3 1.29 C 9.7 km/h
1595 31-01-2015 12:50:00 3.8 C 4.96 g/m*3 1.29 C 9.7 km/h
1596 31-01-2015 12:55:00 3.9 C 4.93 g/m*3 0.22 C 16.1 km/h
1597 31-01-2015 13:00:00 3.8 C 4.89 g/m*3 0.94 C 11.3 km/h
1598 31-01-2015 13:05:00 3.7 C 4.86 g/m*3 1.18 C 9.7 km/h
1599 31-01-2015 13:10:00 3.7 C 4.92 g/m*3 1.18 C 9.7 km/h
1600 31-01-2015 13:15:00 3.7 C 4.92 g/m*3 2.09 C 6.4 km/h
Sensor: Nr:Datum:Temp:Abs-Feuchte:Windchill:Wind:
Aussen-T/F 1601 31-01-2015 13:20:00 3.7 C 4.92 g/m*3 1.58 C 8.1 km/h
1602 31-01-2015 13:25:00 3.7 C 4.92 g/m*3 1.18 C 9.7 km/h
1603 31-01-2015 13:30:00 3.7 C 4.92 g/m*3 1.18 C 9.7 km/h
1604 31-01-2015 13:55:00 4 C 6.36 g/m*3 1.18 C 11.3 km/h
1605 31-01-2015 14:00:00 4 C 6.36 g/m*3 0.88 C 12.9 km/h
1606 31-01-2015 14:05:00 4 C 6.36 g/m*3 1.18 C 11.3 km/h
1607 31-01-2015 14:10:00 4 C 6.36 g/m*3 1.93 C 8.1 km/h
1608 31-01-2015 14:15:00 4 C 6.36 g/m*3 1.93 C 8.1 km/h
1609 31-01-2015 15:10:00 3.9 C 5.05 g/m*3 1.82 C 8.1 km/h
1610 31-01-2015 15:15:00 4 C 5.09 g/m*3 1.93 C 8.1 km/h
1611 31-01-2015 15:20:00 4.1 C 5.12 g/m*3 1.31 C 11.3 km/h
1612 31-01-2015 15:25:00 4.2 C 5.22 g/m*3 1.43 C 11.3 km/h
1613 31-01-2015 15:30:00 4.2 C 5.03 g/m*3 0.84 C 14.5 km/h
1614 31-01-2015 15:35:00 4.1 C 4.99 g/m*3 0.72 C 14.5 km/h
1615 31-01-2015 15:40:00 4 C 5.09 g/m*3 0.88 C 12.9 km/h
1616 31-01-2015 15:45:00 3.9 C 4.99 g/m*3 1.82 C 8.1 km/h
1617 31-01-2015 15:50:00 3.8 C 5.02 g/m*3 1.7 C 8.1 km/h
1618 31-01-2015 15:55:00 3.8 C 5.08 g/m*3 3.8 C 4.8 km/h
1619 31-01-2015 16:00:00 3.8 C 5.08 g/m*3 3.8 C 3.2 km/h
1620 31-01-2015 16:05:00 3.7 C 4.99 g/m*3 0.82 C 11.3 km/h
1621 31-01-2015 16:10:00 3.7 C 4.99 g/m*3 1.18 C 9.7 km/h
1622 31-01-2015 16:15:00 3.7 C 4.99 g/m*3 2.09 C 6.4 km/h
1623 31-01-2015 16:20:00 3.6 C 4.95 g/m*3 1.46 C 8.1 km/h
1624 31-01-2015 16:25:00 3.5 C 4.92 g/m*3 1.34 C 8.1 km/h
1625 31-01-2015 16:30:00 3.4 C 4.95 g/m*3 0.82 C 9.7 km/h
Sensor: Nr:Datum:Temp:Abs-Feuchte:Windchill:Wind:
Aussen-T/F 1626 31-01-2015 16:35:00 3.3 C 4.91 g/m*3 1.63 C 6.4 km/h
1627 31-01-2015 16:40:00 3.2 C 5 g/m*3 3.2 C 3.2 km/h
1628 31-01-2015 16:45:00 3 C 4.93 g/m*3 3 C 3.2 km/h
1629 31-01-2015 16:50:00 2.8 C 4.99 g/m*3 2.8 C 4.8 km/h
1630 31-01-2015 16:55:00 2.7 C 4.89 g/m*3 2.7 C 3.2 km/h
1631 31-01-2015 17:00:00 2.5 C 4.83 g/m*3 2.5 C 3.2 km/h
1632 31-01-2015 17:05:00 2.3 C 4.82 g/m*3 2.3 C 3.2 km/h
1633 31-01-2015 17:10:00 2.1 C 4.87 g/m*3 2.1 C 4.8 km/h
1634 31-01-2015 17:15:00 1.9 C 4.8 g/m*3 1.9 C 4.8 km/h
1635 31-01-2015 17:20:00 1.7 C 4.79 g/m*3 1.7 C 4.8 km/h
1636 31-01-2015 17:25:00 1.5 C 4.78 g/m*3 1.5 C 3.2 km/h
1637 31-01-2015 17:30:00 1.3 C 4.72 g/m*3 1.3 C 3.2 km/h
1638 31-01-2015 17:35:00 1.3 C 4.77 g/m*3 1.3 C 3.2 km/h
1639 31-01-2015 17:40:00 1.2 C 4.74 g/m*3 1.2 C 3.2 km/h
1640 31-01-2015 17:45:00 1.1 C 4.7 g/m*3 1.1 C 3.2 km/h
1641 31-01-2015 17:50:00 1 C 4.72 g/m*3 1 C 4.8 km/h
1642 31-01-2015 17:55:00 1 C 4.72 g/m*3 1 C 3.2 km/h
1643 31-01-2015 18:35:00 0.8 C 4.76 g/m*3 0.8 C 1.6 km/h
1644 31-01-2015 18:40:00 0.9 C 4.79 g/m*3 0.9 C 3.2 km/h
1645 31-01-2015 18:45:00 1 C 4.83 g/m*3 1 C 1.6 km/h
1646 31-01-2015 18:50:00 1.1 C 4.81 g/m*3 1.1 C 1.6 km/h
1647 31-01-2015 18:55:00 1.2 C 4.84 g/m*3 1.2 C 1.6 km/h
1648 31-01-2015 19:00:00 1.2 C 4.84 g/m*3 1.2 C 1.6 km/h
1649 31-01-2015 19:05:00 1.3 C 4.87 g/m*3 1.3 C 1.6 km/h
1650 31-01-2015 19:10:00 1.3 C 4.87 g/m*3 1.3 C 1.6 km/h
Sensor: Nr:Datum:Temp:Abs-Feuchte:Windchill:Wind:
Aussen-T/F 1651 31-01-2015 19:15:00 1.3 C 4.87 g/m*3 1.3 C 1.6 km/h
1652 31-01-2015 19:20:00 1.3 C 4.87 g/m*3 1.3 C 1.6 km/h
1653 31-01-2015 19:25:00 1.3 C 4.87 g/m*3 1.3 C 1.6 km/h
1654 31-01-2015 19:30:00 1.3 C 4.87 g/m*3 1.3 C 3.2 km/h
1655 31-01-2015 19:35:00 1.3 C 4.87 g/m*3 1.3 C 1.6 km/h
1656 31-01-2015 19:40:00 1.4 C 4.91 g/m*3 1.4 C 3.2 km/h
1657 31-01-2015 19:45:00 1.6 C 4.92 g/m*3 1.6 C 4.8 km/h
1658 31-01-2015 19:50:00 1.8 C 4.99 g/m*3 1.8 C 3.2 km/h
1659 31-01-2015 19:55:00 1.8 C 4.99 g/m*3 1.8 C 1.6 km/h
1660 31-01-2015 20:00:00 1.8 C 4.99 g/m*3 1.8 C 1.6 km/h
1661 31-01-2015 20:05:00 1.8 C 4.99 g/m*3 1.8 C 1.6 km/h
1662 31-01-2015 20:10:00 1.9 C 5.02 g/m*3 1.9 C 1.6 km/h
1663 31-01-2015 20:15:00 1.9 C 5.02 g/m*3 1.9 C 0 km/h
1664 31-01-2015 20:20:00 1.9 C 5.02 g/m*3 1.9 C 0 km/h
1665 31-01-2015 20:25:00 1.8 C 4.99 g/m*3 1.8 C 0 km/h
1666 31-01-2015 20:30:00 1.8 C 4.99 g/m*3 1.8 C 1.6 km/h
1667 31-01-2015 20:35:00 1.8 C 4.99 g/m*3 1.8 C 3.2 km/h
1668 31-01-2015 20:40:00 1.8 C 4.99 g/m*3 1.8 C 1.6 km/h
1669 31-01-2015 20:45:00 1.7 C 5.01 g/m*3 1.7 C 1.6 km/h
1670 31-01-2015 20:50:00 1.6 C 4.97 g/m*3 1.6 C 1.6 km/h
1671 31-01-2015 20:55:00 1.5 C 4.94 g/m*3 1.5 C 0 km/h
1672 31-01-2015 21:00:00 1.4 C 4.91 g/m*3 1.4 C 1.6 km/h
1673 31-01-2015 21:05:00 1.3 C 4.87 g/m*3 1.3 C 1.6 km/h
1674 31-01-2015 21:10:00 1.2 C 4.84 g/m*3 1.2 C 1.6 km/h
1675 31-01-2015 21:15:00 1.1 C 4.86 g/m*3 1.1 C 1.6 km/h
Sensor: Nr:Datum:Temp:Abs-Feuchte:Windchill:Wind:
Aussen-T/F 1676 31-01-2015 21:20:00 1 C 4.83 g/m*3 1 C 1.6 km/h
1677 31-01-2015 21:25:00 1 C 4.83 g/m*3 1 C 0 km/h
1678 31-01-2015 21:30:00 0.9 C 4.79 g/m*3 0.9 C 3.2 km/h
1679 31-01-2015 21:35:00 0.9 C 4.79 g/m*3 0.9 C 1.6 km/h
1680 31-01-2015 21:40:00 0.8 C 4.76 g/m*3 0.8 C 1.6 km/h
1681 31-01-2015 21:45:00 0.7 C 4.73 g/m*3 0.7 C 3.2 km/h
1682 31-01-2015 21:50:00 0.7 C 4.78 g/m*3 0.7 C 3.2 km/h
1683 31-01-2015 21:55:00 0.7 C 4.78 g/m*3 0.7 C 4.8 km/h
1684 31-01-2015 22:00:00 0.7 C 4.78 g/m*3 0.7 C 3.2 km/h
1685 31-01-2015 22:05:00 0.7 C 4.78 g/m*3 0.7 C 4.8 km/h
1686 31-01-2015 22:10:00 0.8 C 4.81 g/m*3 0.8 C 4.8 km/h
1687 31-01-2015 22:15:00 0.8 C 4.81 g/m*3 0.8 C 1.6 km/h
1688 31-01-2015 22:20:00 0.8 C 4.81 g/m*3 0.8 C 0 km/h
1689 31-01-2015 22:25:00 0.8 C 4.81 g/m*3 0.8 C 0 km/h
1690 31-01-2015 22:30:00 0.8 C 4.81 g/m*3 0.8 C 1.6 km/h
1691 31-01-2015 22:35:00 0.8 C 4.81 g/m*3 0.8 C 0 km/h
1692 31-01-2015 22:40:00 0.8 C 4.81 g/m*3 0.8 C 0 km/h
1693 01-02-2015 08:50:00 0.7 C 4.53 g/m*3 0.7 C 1.6 km/h
1694 01-02-2015 08:55:00 0.6 C 4.54 g/m*3 0.6 C 3.2 km/h
1695 01-02-2015 09:00:00 0.6 C 4.54 g/m*3 0.6 C 1.6 km/h
1696 01-02-2015 09:05:00 0.6 C 4.54 g/m*3 0.6 C 1.6 km/h
1697 01-02-2015 09:10:00 0.6 C 4.54 g/m*3 0.6 C 1.6 km/h
1698 01-02-2015 09:40:00 0.3 C 4.55 g/m*3 0.3 C 1.6 km/h
1699 01-02-2015 09:45:00 0.3 C 4.55 g/m*3 0.3 C 4.8 km/h
1700 01-02-2015 09:50:00 0.3 C 4.55 g/m*3 0.3 C 3.2 km/h
Sensor: Nr:Datum:Temp:Abs-Feuchte:Windchill:Wind:
Aussen-T/F 1701 01-02-2015 09:55:00 0.6 C 4.6 g/m*3 0.6 C 1.6 km/h
1702 01-02-2015 10:00:00 0.7 C 4.63 g/m*3 0.7 C 3.2 km/h
1703 01-02-2015 10:05:00 0.7 C 4.63 g/m*3 0.7 C 4.8 km/h
1704 01-02-2015 10:10:00 1.1 C 4.65 g/m*3 -1.48 C 8.1 km/h
1705 01-02-2015 10:15:00 1.4 C 4.75 g/m*3 -1.95 C 11.3 km/h
1706 01-02-2015 10:20:00 1.6 C 4.76 g/m*3 -0.89 C 8.1 km/h
1707 01-02-2015 10:25:00 1.7 C 4.79 g/m*3 -1.59 C 11.3 km/h
1708 01-02-2015 10:30:00 1.8 C 4.77 g/m*3 -1.47 C 11.3 km/h
1709 01-02-2015 10:35:00 1.9 C 4.8 g/m*3 -1.35 C 11.3 km/h
1710 01-02-2015 10:40:00 1.9 C 4.8 g/m*3 -0.97 C 9.7 km/h
1711 01-02-2015 10:45:00 1.9 C 4.8 g/m*3 -0.97 C 9.7 km/h
1712 01-02-2015 10:50:00 1.9 C 4.8 g/m*3 0.01 C 6.4 km/h
1713 01-02-2015 10:55:00 2 C 4.83 g/m*3 -0.42 C 8.1 km/h
1714 01-02-2015 11:00:00 2 C 4.89 g/m*3 -0.42 C 8.1 km/h
1715 01-02-2015 11:05:00 2 C 4.89 g/m*3 -0.85 C 9.7 km/h
1716 01-02-2015 11:10:00 2 C 4.95 g/m*3 -0.42 C 8.1 km/h
1717 01-02-2015 11:15:00 2 C 4.95 g/m*3 -0.42 C 8.1 km/h
1718 01-02-2015 11:20:00 2 C 4.95 g/m*3 2 C 4.8 km/h
1719 01-02-2015 11:25:00 1.9 C 4.91 g/m*3 1.9 C 4.8 km/h
1720 01-02-2015 11:30:00 1.9 C 4.91 g/m*3 -0.97 C 9.7 km/h
1721 01-02-2015 11:35:00 1.8 C 4.88 g/m*3 -0.1 C 6.4 km/h
1722 01-02-2015 11:40:00 1.8 C 4.88 g/m*3 -1.47 C 11.3 km/h
1723 01-02-2015 11:45:00 1.8 C 4.88 g/m*3 -0.1 C 6.4 km/h
1724 01-02-2015 11:50:00 1.5 C 4.99 g/m*3 1.5 C 4.8 km/h
1725 01-02-2015 11:55:00 1.4 C 5.01 g/m*3 -0.56 C 6.4 km/h
Sensor: Nr:Datum:Temp:Abs-Feuchte:Windchill:Wind:
Aussen-T/F 1726 01-02-2015 12:00:00 1.4 C 5.01 g/m*3 1.4 C 3.2 km/h
1727 01-02-2015 12:05:00 1.3 C 4.98 g/m*3 1.3 C 4.8 km/h
1728 01-02-2015 12:10:00 1.3 C 5.03 g/m*3 1.3 C 1.6 km/h
1729 01-02-2015 12:15:00 1.3 C 5.03 g/m*3 1.3 C 3.2 km/h
1730 01-02-2015 12:20:00 1.3 C 5.03 g/m*3 1.3 C 1.6 km/h
1731 01-02-2015 12:25:00 1.3 C 5.03 g/m*3 1.3 C 1.6 km/h
1732 01-02-2015 12:30:00 1.3 C 5.03 g/m*3 1.3 C 0 km/h
1733 01-02-2015 12:35:00 1.3 C 5.03 g/m*3 1.3 C 4.8 km/h
1734 01-02-2015 12:40:00 1.3 C 5.03 g/m*3 1.3 C 3.2 km/h
1735 01-02-2015 12:45:00 1.4 C 5.07 g/m*3 1.4 C 3.2 km/h
1736 01-02-2015 12:50:00 1.5 C 5.16 g/m*3 1.5 C 4.8 km/h
1737 01-02-2015 12:55:00 1.6 C 5.19 g/m*3 1.6 C 4.8 km/h
1738 01-02-2015 13:00:00 1.7 C 5.23 g/m*3 -0.22 C 6.4 km/h
1739 01-02-2015 13:05:00 1.8 C 5.26 g/m*3 1.8 C 4.8 km/h
1740 01-02-2015 13:10:00 1.9 C 5.3 g/m*3 -0.54 C 8.1 km/h
1741 01-02-2015 13:15:00 2.1 C 5.37 g/m*3 0.24 C 6.4 km/h
1742 01-02-2015 13:20:00 2.2 C 5.35 g/m*3 2.2 C 4.8 km/h
1743 01-02-2015 13:25:00 2.2 C 5.35 g/m*3 2.2 C 3.2 km/h
1744 01-02-2015 13:30:00 2.3 C 5.39 g/m*3 2.3 C 4.8 km/h
1745 01-02-2015 13:35:00 2.4 C 5.42 g/m*3 2.4 C 4.8 km/h
1746 01-02-2015 13:40:00 2.5 C 5.46 g/m*3 0.71 C 6.4 km/h
1747 01-02-2015 13:45:00 2.7 C 5.54 g/m*3 2.7 C 4.8 km/h
1748 01-02-2015 13:50:00 2.8 C 5.51 g/m*3 1.05 C 6.4 km/h
1749 01-02-2015 13:55:00 3 C 5.59 g/m*3 3 C 3.2 km/h
1750 01-02-2015 14:00:00 3.2 C 5.66 g/m*3 3.2 C 4.8 km/h
Sensor: Nr:Datum:Temp:Abs-Feuchte:Windchill:Wind:
Aussen-T/F 1751 01-02-2015 14:05:00 3.3 C 5.64 g/m*3 1.63 C 6.4 km/h
1752 01-02-2015 14:10:00 3.3 C 5.64 g/m*3 3.3 C 4.8 km/h
1753 01-02-2015 15:05:00 3.8 C 6.27 g/m*3 3.8 C 3.2 km/h
1754 01-02-2015 15:10:00 3.8 C 6.27 g/m*3 3.8 C 3.2 km/h
1755 01-02-2015 15:35:00 3.9 C 5.68 g/m*3 3.9 C 0 km/h
1756 01-02-2015 15:40:00 3.9 C 5.62 g/m*3 3.9 C 0 km/h
1757 01-02-2015 15:45:00 3.9 C 5.62 g/m*3 3.9 C 4.8 km/h
1758 01-02-2015 15:50:00 3.9 C 5.56 g/m*3 2.32 C 6.4 km/h
1759 01-02-2015 15:55:00 3.9 C 5.56 g/m*3 3.9 C 4.8 km/h
1760 01-02-2015 16:00:00 3.9 C 5.56 g/m*3 3.9 C 3.2 km/h
1761 01-02-2015 16:05:00 3.9 C 5.56 g/m*3 3.9 C 4.8 km/h
1762 01-02-2015 16:10:00 3.8 C 5.46 g/m*3 3.8 C 1.6 km/h
1763 01-02-2015 16:15:00 3.8 C 5.52 g/m*3 3.8 C 4.8 km/h
1764 01-02-2015 16:20:00 3.8 C 5.52 g/m*3 1.29 C 9.7 km/h
1765 01-02-2015 16:25:00 3.8 C 5.52 g/m*3 3.8 C 3.2 km/h
1766 01-02-2015 16:30:00 3.8 C 5.52 g/m*3 3.8 C 0 km/h
1767 01-02-2015 16:35:00 3.7 C 5.48 g/m*3 3.7 C 3.2 km/h
1768 01-02-2015 16:40:00 3.6 C 5.45 g/m*3 3.6 C 3.2 km/h
1769 01-02-2015 16:45:00 3.5 C 5.47 g/m*3 3.5 C 3.2 km/h
1770 01-02-2015 16:50:00 3.5 C 5.47 g/m*3 3.5 C 3.2 km/h
1771 01-02-2015 16:55:00 3.5 C 5.47 g/m*3 3.5 C 3.2 km/h
1772 01-02-2015 17:00:00 3.4 C 5.5 g/m*3 3.4 C 3.2 km/h
1773 01-02-2015 17:05:00 3.2 C 5.42 g/m*3 3.2 C 3.2 km/h
1774 01-02-2015 17:10:00 3.2 C 5.42 g/m*3 0.99 C 8.1 km/h
1775 01-02-2015 17:15:00 3.2 C 5.42 g/m*3 1.51 C 6.4 km/h
Sensor: Nr:Datum:Temp:Abs-Feuchte:Windchill:Wind:
Aussen-T/F 1776 01-02-2015 17:20:00 3.2 C 5.42 g/m*3 3.2 C 0 km/h
1777 01-02-2015 20:05:00 1.8 C 5.32 g/m*3 1.8 C 0 km/h
1778 01-02-2015 20:10:00 1.8 C 5.32 g/m*3 1.8 C 0 km/h
1779 01-02-2015 20:15:00 1.8 C 5.32 g/m*3 1.8 C 0 km/h
1780 01-02-2015 20:20:00 1.8 C 5.32 g/m*3 1.8 C 0 km/h
1781 01-02-2015 20:25:00 1.8 C 5.32 g/m*3 1.8 C 0 km/h
1782 01-02-2015 20:30:00 1.7 C 5.28 g/m*3 1.7 C 0 km/h
1783 01-02-2015 20:35:00 1.7 C 5.28 g/m*3 1.7 C 0 km/h
1784 01-02-2015 20:40:00 1.6 C 5.25 g/m*3 1.6 C 0 km/h
1785 01-02-2015 20:45:00 1.4 C 5.12 g/m*3 1.4 C 0 km/h
1786 01-02-2015 20:50:00 1.3 C 5.09 g/m*3 1.3 C 0 km/h
1787 01-02-2015 20:55:00 1.3 C 5.09 g/m*3 1.3 C 0 km/h
1788 01-02-2015 21:00:00 1.3 C 5.09 g/m*3 1.3 C 0 km/h
1789 01-02-2015 21:40:00 1.3 C 5.14 g/m*3 1.3 C 1.6 km/h
1790 01-02-2015 21:45:00 1.4 C 5.17 g/m*3 1.4 C 1.6 km/h
1791 01-02-2015 21:50:00 1.4 C 5.17 g/m*3 1.4 C 4.8 km/h
1792 01-02-2015 21:55:00 1.5 C 5.21 g/m*3 1.5 C 4.8 km/h
1793 01-02-2015 22:00:00 1.6 C 5.25 g/m*3 -0.89 C 8.1 km/h
1794 01-02-2015 22:05:00 1.6 C 5.25 g/m*3 -0.33 C 6.4 km/h
1795 01-02-2015 22:10:00 1.6 C 5.25 g/m*3 -0.33 C 6.4 km/h
1796 01-02-2015 22:15:00 1.6 C 5.25 g/m*3 -0.33 C 6.4 km/h
1797 01-02-2015 22:20:00 1.7 C 5.28 g/m*3 1.7 C 4.8 km/h
1798 01-02-2015 22:25:00 1.7 C 5.28 g/m*3 -0.22 C 6.4 km/h
1799 01-02-2015 22:30:00 1.7 C 5.28 g/m*3 -0.22 C 6.4 km/h
1800 01-02-2015 22:35:00 1.7 C 5.28 g/m*3 1.7 C 4.8 km/h
Sensor: Nr:Datum:Temp:Abs-Feuchte:Windchill:Wind:
Aussen-T/F 1801 01-02-2015 22:40:00 1.7 C 5.28 g/m*3 -0.22 C 6.4 km/h
1802 01-02-2015 22:45:00 1.7 C 5.28 g/m*3 1.7 C 1.6 km/h
1803 01-02-2015 22:50:00 1.7 C 5.28 g/m*3 1.7 C 3.2 km/h
1804 01-02-2015 22:55:00 1.7 C 5.28 g/m*3 1.7 C 0 km/h
1805 01-02-2015 23:00:00 1.8 C 5.32 g/m*3 1.8 C 3.2 km/h
1806 01-02-2015 23:05:00 1.8 C 5.32 g/m*3 1.8 C 3.2 km/h
1807 01-02-2015 23:10:00 1.8 C 5.32 g/m*3 1.8 C 1.6 km/h
1808 01-02-2015 23:15:00 1.7 C 5.28 g/m*3 1.7 C 0 km/h
1809 01-02-2015 23:20:00 1.7 C 5.28 g/m*3 1.7 C 0 km/h
1810 01-02-2015 23:25:00 1.7 C 5.28 g/m*3 1.7 C 3.2 km/h
1811 01-02-2015 23:30:00 1.8 C 5.32 g/m*3 1.8 C 0 km/h
1812 01-02-2015 23:35:00 1.8 C 5.32 g/m*3 1.8 C 3.2 km/h
1813 01-02-2015 23:40:00 1.8 C 5.32 g/m*3 1.8 C 1.6 km/h
1814 01-02-2015 23:45:00 1.8 C 5.32 g/m*3 -0.1 C 6.4 km/h
1815 01-02-2015 23:50:00 1.9 C 5.35 g/m*3 1.9 C 3.2 km/h
1816 01-02-2015 23:55:00 1.9 C 5.35 g/m*3 1.9 C 0 km/h
1817 02-02-2015 00:00:00 1.9 C 5.35 g/m*3 1.9 C 1.6 km/h
1818 02-02-2015 00:05:00 1.9 C 5.35 g/m*3 1.9 C 0 km/h
1819 02-02-2015 00:10:00 1.9 C 5.35 g/m*3 1.9 C 0 km/h
1820 02-02-2015 00:15:00 1.9 C 5.35 g/m*3 0.01 C 6.4 km/h
1821 02-02-2015 00:20:00 1.9 C 5.35 g/m*3 -0.54 C 8.1 km/h
1822 02-02-2015 00:25:00 1.9 C 5.35 g/m*3 1.9 C 1.6 km/h
1823 02-02-2015 00:30:00 1.9 C 5.35 g/m*3 1.9 C 0 km/h
1824 02-02-2015 00:35:00 1.9 C 5.35 g/m*3 1.9 C 3.2 km/h
1825 02-02-2015 00:40:00 1.9 C 5.35 g/m*3 1.9 C 3.2 km/h
Sensor: Nr:Datum:Temp:Abs-Feuchte:Windchill:Wind:
Aussen-T/F 1826 02-02-2015 00:45:00 1.9 C 5.35 g/m*3 1.9 C 1.6 km/h
1827 02-02-2015 00:50:00 1.9 C 5.35 g/m*3 1.9 C 3.2 km/h
1828 02-02-2015 00:55:00 1.9 C 5.35 g/m*3 1.9 C 3.2 km/h
1829 02-02-2015 01:00:00 2 C 5.39 g/m*3 2 C 3.2 km/h
1830 02-02-2015 01:05:00 1.9 C 5.35 g/m*3 1.9 C 1.6 km/h
1831 02-02-2015 01:10:00 2 C 5.39 g/m*3 2 C 1.6 km/h
1832 02-02-2015 01:15:00 2 C 5.39 g/m*3 2 C 3.2 km/h
1833 02-02-2015 01:20:00 2 C 5.39 g/m*3 2 C 1.6 km/h
1834 02-02-2015 01:25:00 2 C 5.39 g/m*3 2 C 1.6 km/h
1835 02-02-2015 01:30:00 2 C 5.39 g/m*3 2 C 1.6 km/h
1836 02-02-2015 01:35:00 2.1 C 5.43 g/m*3 2.1 C 1.6 km/h
1837 02-02-2015 01:40:00 2.1 C 5.43 g/m*3 2.1 C 1.6 km/h
1838 02-02-2015 01:45:00 2.1 C 5.43 g/m*3 2.1 C 1.6 km/h
1839 02-02-2015 01:50:00 2.1 C 5.43 g/m*3 2.1 C 3.2 km/h
1840 02-02-2015 01:55:00 2.1 C 5.43 g/m*3 2.1 C 3.2 km/h
1841 02-02-2015 02:00:00 2.1 C 5.43 g/m*3 2.1 C 0 km/h
1842 02-02-2015 02:05:00 2.1 C 5.43 g/m*3 2.1 C 4.8 km/h
1843 02-02-2015 02:10:00 2.1 C 5.43 g/m*3 2.1 C 4.8 km/h
1844 02-02-2015 02:15:00 2.1 C 5.43 g/m*3 2.1 C 4.8 km/h
1845 02-02-2015 02:20:00 2 C 5.39 g/m*3 2 C 0 km/h
1846 02-02-2015 02:25:00 2 C 5.39 g/m*3 2 C 3.2 km/h
1847 02-02-2015 02:30:00 2 C 5.39 g/m*3 2 C 3.2 km/h
1848 02-02-2015 02:35:00 1.9 C 5.35 g/m*3 1.9 C 4.8 km/h
1849 02-02-2015 02:40:00 2 C 5.39 g/m*3 2 C 3.2 km/h
1850 02-02-2015 02:45:00 1.9 C 5.35 g/m*3 1.9 C 1.6 km/h
Sensor: Nr:Datum:Temp:Abs-Feuchte:Windchill:Wind:
Aussen-T/F 1851 02-02-2015 02:50:00 1.9 C 5.35 g/m*3 1.9 C 4.8 km/h
1852 02-02-2015 02:55:00 1.9 C 5.35 g/m*3 1.9 C 3.2 km/h
1853 02-02-2015 03:00:00 1.9 C 5.35 g/m*3 1.9 C 3.2 km/h
1854 02-02-2015 03:05:00 2 C 5.39 g/m*3 2 C 1.6 km/h
1855 02-02-2015 03:10:00 2 C 5.39 g/m*3 2 C 0 km/h
1856 02-02-2015 03:15:00 2.1 C 5.43 g/m*3 2.1 C 1.6 km/h
1857 02-02-2015 03:20:00 2.1 C 5.43 g/m*3 2.1 C 4.8 km/h
1858 02-02-2015 03:25:00 2.2 C 5.46 g/m*3 2.2 C 4.8 km/h
1859 02-02-2015 03:30:00 2.2 C 5.46 g/m*3 2.2 C 1.6 km/h
1860 02-02-2015 03:35:00 2.2 C 5.46 g/m*3 2.2 C 1.6 km/h
1861 02-02-2015 03:40:00 2.2 C 5.46 g/m*3 2.2 C 1.6 km/h
1862 02-02-2015 03:45:00 2.2 C 5.46 g/m*3 2.2 C 1.6 km/h
1863 02-02-2015 03:50:00 2.2 C 5.46 g/m*3 2.2 C 4.8 km/h
1864 02-02-2015 03:55:00 2.2 C 5.46 g/m*3 2.2 C 1.6 km/h
1865 02-02-2015 04:00:00 2.2 C 5.46 g/m*3 2.2 C 3.2 km/h
1866 02-02-2015 04:05:00 2.2 C 5.46 g/m*3 2.2 C 4.8 km/h
1867 02-02-2015 04:10:00 2.3 C 5.5 g/m*3 2.3 C 4.8 km/h
1868 02-02-2015 04:15:00 2.3 C 5.44 g/m*3 2.3 C 1.6 km/h
1869 02-02-2015 04:20:00 2.3 C 5.44 g/m*3 2.3 C 3.2 km/h
1870 02-02-2015 04:25:00 2.3 C 5.44 g/m*3 2.3 C 1.6 km/h
1871 02-02-2015 04:30:00 2.3 C 5.44 g/m*3 2.3 C 1.6 km/h
1872 02-02-2015 04:35:00 2.3 C 5.44 g/m*3 2.3 C 1.6 km/h
1873 02-02-2015 04:40:00 2.2 C 5.41 g/m*3 2.2 C 1.6 km/h
1874 02-02-2015 04:45:00 2.2 C 5.41 g/m*3 2.2 C 1.6 km/h
1875 02-02-2015 04:50:00 2.2 C 5.41 g/m*3 2.2 C 3.2 km/h
Sensor: Nr:Datum:Temp:Abs-Feuchte:Windchill:Wind:
Aussen-T/F 1876 02-02-2015 04:55:00 2.2 C 5.41 g/m*3 2.2 C 3.2 km/h
1877 02-02-2015 05:00:00 2.2 C 5.41 g/m*3 2.2 C 1.6 km/h
1878 02-02-2015 05:05:00 2.2 C 5.41 g/m*3 2.2 C 1.6 km/h
1879 02-02-2015 05:10:00 2.2 C 5.41 g/m*3 2.2 C 0 km/h
1880 02-02-2015 05:15:00 2.3 C 5.39 g/m*3 2.3 C 0 km/h
1881 02-02-2015 05:20:00 2.2 C 5.41 g/m*3 2.2 C 0 km/h
1882 02-02-2015 05:25:00 2.2 C 5.41 g/m*3 2.2 C 1.6 km/h
1883 02-02-2015 05:30:00 2.2 C 5.41 g/m*3 2.2 C 1.6 km/h
1884 02-02-2015 05:35:00 2.2 C 5.41 g/m*3 2.2 C 1.6 km/h
1885 02-02-2015 05:40:00 2.2 C 5.41 g/m*3 2.2 C 1.6 km/h
1886 02-02-2015 05:45:00 2.2 C 5.41 g/m*3 2.2 C 0 km/h
1887 02-02-2015 05:50:00 2.1 C 5.37 g/m*3 2.1 C 0 km/h
1888 02-02-2015 05:55:00 2.1 C 5.37 g/m*3 2.1 C 1.6 km/h
1889 02-02-2015 06:00:00 2.1 C 5.31 g/m*3 2.1 C 3.2 km/h
1890 02-02-2015 06:05:00 2.1 C 5.31 g/m*3 2.1 C 0 km/h
1891 02-02-2015 06:10:00 2.1 C 5.31 g/m*3 2.1 C 1.6 km/h
1892 02-02-2015 06:15:00 2.1 C 5.31 g/m*3 -0.3 C 8.1 km/h
1893 02-02-2015 06:20:00 2.1 C 5.31 g/m*3 2.1 C 1.6 km/h
1894 02-02-2015 06:25:00 2.1 C 5.31 g/m*3 2.1 C 1.6 km/h
1895 02-02-2015 06:30:00 2.1 C 5.31 g/m*3 2.1 C 4.8 km/h
1896 02-02-2015 06:35:00 2.1 C 5.31 g/m*3 2.1 C 4.8 km/h
1897 02-02-2015 06:40:00 2.1 C 5.31 g/m*3 2.1 C 3.2 km/h
1898 02-02-2015 06:45:00 2 C 5.22 g/m*3 2 C 3.2 km/h
1899 02-02-2015 06:50:00 2 C 5.22 g/m*3 2 C 3.2 km/h
1900 02-02-2015 06:55:00 2.1 C 5.26 g/m*3 0.24 C 6.4 km/h
Sensor: Nr:Datum:Temp:Abs-Feuchte:Windchill:Wind:
Aussen-T/F 1901 02-02-2015 07:00:00 2.1 C 5.26 g/m*3 0.24 C 6.4 km/h
1902 02-02-2015 07:05:00 2.1 C 5.2 g/m*3 2.1 C 1.6 km/h
1903 02-02-2015 07:10:00 2.1 C 5.26 g/m*3 2.1 C 0 km/h
1904 02-02-2015 07:15:00 2 C 5.22 g/m*3 2 C 3.2 km/h
1905 02-02-2015 07:20:00 1.9 C 5.19 g/m*3 1.9 C 4.8 km/h
1906 02-02-2015 07:25:00 1.8 C 5.15 g/m*3 1.8 C 4.8 km/h
1907 02-02-2015 07:30:00 1.8 C 5.15 g/m*3 1.8 C 4.8 km/h
1908 02-02-2015 07:35:00 1.8 C 5.15 g/m*3 -0.1 C 6.4 km/h
1909 02-02-2015 07:40:00 1.8 C 5.21 g/m*3 1.8 C 4.8 km/h
1910 02-02-2015 07:45:00 1.8 C 5.21 g/m*3 1.8 C 3.2 km/h
1911 02-02-2015 07:50:00 1.8 C 5.15 g/m*3 1.8 C 1.6 km/h
1912 02-02-2015 07:55:00 1.8 C 5.15 g/m*3 1.8 C 4.8 km/h
1913 02-02-2015 08:00:00 1.9 C 5.19 g/m*3 1.9 C 4.8 km/h
1914 02-02-2015 08:05:00 1.9 C 5.24 g/m*3 1.9 C 3.2 km/h
1915 02-02-2015 08:10:00 1.9 C 5.24 g/m*3 1.9 C 3.2 km/h
1916 02-02-2015 08:15:00 1.8 C 5.21 g/m*3 -0.1 C 6.4 km/h
1917 02-02-2015 08:20:00 1.8 C 5.21 g/m*3 1.8 C 0 km/h
1918 02-02-2015 08:25:00 1.8 C 5.21 g/m*3 1.8 C 3.2 km/h
1919 02-02-2015 08:30:00 1.8 C 5.21 g/m*3 1.8 C 1.6 km/h
1920 02-02-2015 08:35:00 1.8 C 5.21 g/m*3 1.8 C 4.8 km/h
1921 02-02-2015 08:40:00 1.8 C 5.21 g/m*3 -0.65 C 8.1 km/h
1922 02-02-2015 08:45:00 1.8 C 5.21 g/m*3 1.8 C 4.8 km/h
1923 02-02-2015 08:50:00 1.8 C 5.21 g/m*3 1.8 C 1.6 km/h
1924 02-02-2015 08:55:00 1.9 C 5.19 g/m*3 1.9 C 0 km/h
1925 02-02-2015 09:00:00 1.9 C 5.19 g/m*3 1.9 C 1.6 km/h
Sensor: Nr:Datum:Temp:Abs-Feuchte:Windchill:Wind:
Aussen-T/F 1926 02-02-2015 09:05:00 2 C 5.22 g/m*3 2 C 4.8 km/h
1927 02-02-2015 09:10:00 1.9 C 5.19 g/m*3 1.9 C 3.2 km/h
1928 02-02-2015 09:15:00 1.9 C 5.13 g/m*3 -0.54 C 8.1 km/h
1929 02-02-2015 09:20:00 1.9 C 5.13 g/m*3 -0.54 C 8.1 km/h
1930 02-02-2015 09:25:00 2.1 C 5.15 g/m*3 -0.3 C 8.1 km/h
1931 02-02-2015 09:30:00 2.1 C 5.15 g/m*3 -0.73 C 9.7 km/h
1932 02-02-2015 09:35:00 2.1 C 5.15 g/m*3 0.24 C 6.4 km/h
1933 02-02-2015 11:35:00 3.1 C 5.15 g/m*3 0.46 C 9.7 km/h
1934 02-02-2015 11:40:00 2.9 C 5.08 g/m*3 -0.14 C 11.3 km/h
1935 02-02-2015 11:45:00 2.7 C 5.07 g/m*3 2.7 C 4.8 km/h
1936 02-02-2015 11:50:00 2.7 C 5.19 g/m*3 -0.02 C 9.7 km/h
1937 02-02-2015 11:55:00 2.1 C 5.04 g/m*3 0.24 C 6.4 km/h
1938 02-02-2015 12:00:00 2.1 C 5.04 g/m*3 2.1 C 4.8 km/h
1939 02-02-2015 12:05:00 2.1 C 5.04 g/m*3 0.24 C 6.4 km/h
1940 02-02-2015 12:10:00 1.9 C 5.02 g/m*3 0.01 C 6.4 km/h
1941 02-02-2015 12:15:00 1.9 C 5.08 g/m*3 -0.54 C 8.1 km/h
1942 02-02-2015 12:20:00 2.1 C 5.15 g/m*3 -0.73 C 9.7 km/h
1943 02-02-2015 12:25:00 2.3 C 5.16 g/m*3 -0.49 C 9.7 km/h
1944 02-02-2015 12:30:00 2.6 C 5.27 g/m*3 -0.14 C 9.7 km/h
1945 02-02-2015 12:35:00 2.7 C 5.24 g/m*3 0.94 C 6.4 km/h
1946 02-02-2015 12:40:00 2.9 C 5.2 g/m*3 0.22 C 9.7 km/h
1947 02-02-2015 12:45:00 3.1 C 5.27 g/m*3 1.4 C 6.4 km/h
1948 02-02-2015 12:50:00 3.3 C 5.34 g/m*3 1.11 C 8.1 km/h
1949 02-02-2015 12:55:00 3.4 C 5.31 g/m*3 1.75 C 6.4 km/h
1950 02-02-2015 13:00:00 3.4 C 5.19 g/m*3 0.46 C 11.3 km/h
Sensor: Nr:Datum:Temp:Abs-Feuchte:Windchill:Wind:
Aussen-T/F 1951 02-02-2015 13:05:00 3.4 C 5.07 g/m*3 0.14 C 12.9 km/h
1952 02-02-2015 13:10:00 3.4 C 5.07 g/m*3 -0.4 C 16.1 km/h
1953 02-02-2015 13:15:00 3.5 C 5.16 g/m*3 -0.02 C 14.5 km/h
1954 02-02-2015 13:20:00 3.6 C 5.14 g/m*3 0.11 C 14.5 km/h
1955 02-02-2015 13:25:00 3.6 C 5.08 g/m*3 1.46 C 8.1 km/h
1956 02-02-2015 13:30:00 3.5 C 5.1 g/m*3 0.58 C 11.3 km/h
1957 02-02-2015 13:35:00 3.4 C 5.01 g/m*3 0.82 C 9.7 km/h
1958 02-02-2015 13:40:00 3.5 C 5.1 g/m*3 0.94 C 9.7 km/h
1959 02-02-2015 13:45:00 3.5 C 5.1 g/m*3 1.34 C 8.1 km/h
1960 02-02-2015 13:50:00 3.6 C 5.2 g/m*3 1.98 C 6.4 km/h
1961 02-02-2015 13:55:00 3.7 C 5.11 g/m*3 1.58 C 8.1 km/h
1962 02-02-2015 14:00:00 3.8 C 5.08 g/m*3 0.35 C 14.5 km/h
1963 02-02-2015 14:05:00 3.9 C 5.05 g/m*3 1.41 C 9.7 km/h
1964 02-02-2015 14:10:00 3.9 C 5.05 g/m*3 1.06 C 11.3 km/h
1965 02-02-2015 14:15:00 3.9 C 5.05 g/m*3 -0.23 C 19.3 km/h
1966 02-02-2015 14:20:00 4 C 4.96 g/m*3 -0.11 C 19.3 km/h
1967 02-02-2015 14:25:00 3.9 C 4.99 g/m*3 0.22 C 16.1 km/h
1968 02-02-2015 14:30:00 3.9 C 4.99 g/m*3 0.47 C 14.5 km/h
1969 02-02-2015 14:35:00 3.9 C 4.99 g/m*3 0.47 C 14.5 km/h
1970 02-02-2015 14:40:00 3.7 C 4.99 g/m*3 -0.26 C 17.7 km/h
1971 02-02-2015 14:45:00 3.7 C 4.99 g/m*3 1.18 C 9.7 km/h
1972 02-02-2015 14:50:00 3.7 C 4.99 g/m*3 1.18 C 9.7 km/h
1973 02-02-2015 14:55:00 3.7 C 4.92 g/m*3 0.51 C 12.9 km/h
1974 02-02-2015 15:00:00 3.4 C 5.01 g/m*3 -0.86 C 19.3 km/h
1975 02-02-2015 15:05:00 3.3 C 5.04 g/m*3 1.63 C 6.4 km/h
Sensor: Nr:Datum:Temp:Abs-Feuchte:Windchill:Wind:
Aussen-T/F 1976 02-02-2015 15:10:00 3.3 C 4.97 g/m*3 0.34 C 11.3 km/h
1977 02-02-2015 15:15:00 3.3 C 4.91 g/m*3 0.34 C 11.3 km/h
1978 02-02-2015 15:20:00 3.4 C 4.95 g/m*3 0.46 C 11.3 km/h
1979 02-02-2015 15:25:00 3.4 C 4.89 g/m*3 0.14 C 12.9 km/h
1980 02-02-2015 15:30:00 3.4 C 4.83 g/m*3 -0.14 C 14.5 km/h
1981 02-02-2015 15:35:00 3.5 C 4.8 g/m*3 0.27 C 12.9 km/h
1982 02-02-2015 15:40:00 3.4 C 4.83 g/m*3 0.14 C 12.9 km/h
1983 02-02-2015 15:45:00 3.4 C 4.83 g/m*3 0.14 C 12.9 km/h
1984 02-02-2015 15:50:00 3.4 C 4.83 g/m*3 0.46 C 11.3 km/h
1985 02-02-2015 15:55:00 3.3 C 4.79 g/m*3 0.34 C 11.3 km/h
1986 02-02-2015 16:00:00 3.3 C 4.79 g/m*3 0.02 C 12.9 km/h
1987 02-02-2015 16:05:00 3.2 C 4.82 g/m*3 0.22 C 11.3 km/h
1988 02-02-2015 16:10:00 3.1 C 4.79 g/m*3 -0.77 C 16.1 km/h
1989 02-02-2015 16:15:00 3.1 C 4.79 g/m*3 -0.77 C 16.1 km/h
1990 02-02-2015 16:20:00 3.1 C 4.73 g/m*3 0.1 C 11.3 km/h
1991 02-02-2015 16:25:00 3.1 C 4.73 g/m*3 -0.51 C 14.5 km/h
1992 02-02-2015 16:30:00 3 C 4.76 g/m*3 -1.77 C 22.5 km/h
1993 02-02-2015 16:35:00 2.9 C 4.72 g/m*3 -1.26 C 17.7 km/h
1994 02-02-2015 16:40:00 3 C 4.76 g/m*3 -0.9 C 16.1 km/h
1995 02-02-2015 16:45:00 3 C 4.76 g/m*3 -0.9 C 16.1 km/h
1996 02-02-2015 16:50:00 2.9 C 4.72 g/m*3 -1.26 C 17.7 km/h
1997 02-02-2015 16:55:00 2.9 C 4.72 g/m*3 -1.02 C 16.1 km/h
1998 02-02-2015 17:00:00 2.8 C 4.75 g/m*3 -0.88 C 14.5 km/h
1999 02-02-2015 17:05:00 2.8 C 4.81 g/m*3 0.1 C 9.7 km/h
2000 02-02-2015 17:10:00 2.7 C 4.78 g/m*3 0.4 C 8.1 km/h
Sensor: Nr:Datum:Temp:Abs-Feuchte:Windchill:Wind:
Aussen-T/F 2001 02-02-2015 17:15:00 2.6 C 4.75 g/m*3 -0.83 C 12.9 km/h
2002 02-02-2015 17:20:00 2.6 C 4.8 g/m*3 -1.12 C 14.5 km/h
2003 02-02-2015 17:25:00 2.6 C 4.8 g/m*3 -0.14 C 9.7 km/h
2004 02-02-2015 17:30:00 2.5 C 4.77 g/m*3 0.17 C 8.1 km/h
2005 02-02-2015 17:35:00 2.5 C 4.77 g/m*3 -0.26 C 9.7 km/h
2006 02-02-2015 17:40:00 2.5 C 4.71 g/m*3 -0.95 C 12.9 km/h
2007 02-02-2015 17:45:00 2.5 C 4.71 g/m*3 -0.62 C 11.3 km/h
2008 02-02-2015 18:05:00 2.5 C 4.71 g/m*3 -0.26 C 9.7 km/h
2009 02-02-2015 18:10:00 2.5 C 4.71 g/m*3 0.71 C 6.4 km/h
2010 02-02-2015 18:15:00 2.4 C 4.74 g/m*3 0.59 C 6.4 km/h
2011 02-02-2015 18:20:00 2.4 C 4.74 g/m*3 2.4 C 4.8 km/h
2012 02-02-2015 18:25:00 2.4 C 4.74 g/m*3 0.05 C 8.1 km/h
2013 02-02-2015 18:30:00 2.4 C 4.74 g/m*3 -0.74 C 11.3 km/h
2014 02-02-2015 18:35:00 2.4 C 4.74 g/m*3 -0.37 C 9.7 km/h
2015 02-02-2015 18:40:00 2.4 C 4.74 g/m*3 0.05 C 8.1 km/h
2016 02-02-2015 18:45:00 2.4 C 4.74 g/m*3 -0.37 C 9.7 km/h
2017 02-02-2015 18:50:00 2.4 C 4.74 g/m*3 0.59 C 6.4 km/h
2018 02-02-2015 18:55:00 2.3 C 4.71 g/m*3 2.3 C 4.8 km/h
2019 02-02-2015 19:00:00 2.3 C 4.71 g/m*3 0.47 C 6.4 km/h
2020 02-02-2015 19:05:00 2.3 C 4.71 g/m*3 -0.49 C 9.7 km/h
2021 02-02-2015 19:10:00 2.3 C 4.71 g/m*3 0.47 C 6.4 km/h
2022 02-02-2015 19:15:00 2.3 C 4.76 g/m*3 2.3 C 4.8 km/h
2023 02-02-2015 19:20:00 2.3 C 4.76 g/m*3 2.3 C 3.2 km/h
2024 02-02-2015 19:25:00 2.2 C 4.73 g/m*3 -0.18 C 8.1 km/h
2025 02-02-2015 19:30:00 2.2 C 4.73 g/m*3 0.36 C 6.4 km/h
Sensor: Nr:Datum:Temp:Abs-Feuchte:Windchill:Wind:
Aussen-T/F 2026 02-02-2015 19:35:00 2.2 C 4.73 g/m*3 -1.62 C 14.5 km/h
2027 02-02-2015 19:40:00 2.2 C 4.79 g/m*3 2.2 C 3.2 km/h
2028 02-02-2015 19:45:00 2.1 C 4.76 g/m*3 0.24 C 6.4 km/h
2029 02-02-2015 19:50:00 2.1 C 4.76 g/m*3 0.24 C 6.4 km/h
2030 02-02-2015 19:55:00 2.2 C 4.73 g/m*3 -0.99 C 11.3 km/h
2031 02-02-2015 20:00:00 2.1 C 4.7 g/m*3 0.24 C 6.4 km/h
2032 02-02-2015 20:05:00 2.2 C 4.73 g/m*3 0.36 C 6.4 km/h
2033 02-02-2015 20:10:00 2.2 C 4.73 g/m*3 0.36 C 6.4 km/h
2034 02-02-2015 20:15:00 2.2 C 4.73 g/m*3 -0.61 C 9.7 km/h
2035 02-02-2015 20:20:00 2.2 C 4.68 g/m*3 -0.61 C 9.7 km/h
2036 02-02-2015 20:25:00 2.2 C 4.73 g/m*3 -0.61 C 9.7 km/h
2037 02-02-2015 20:30:00 2.2 C 4.73 g/m*3 -0.18 C 8.1 km/h
2038 02-02-2015 20:35:00 2.2 C 4.73 g/m*3 -0.18 C 8.1 km/h
2039 02-02-2015 20:40:00 2.1 C 4.7 g/m*3 -0.3 C 8.1 km/h
2040 02-02-2015 20:45:00 2.1 C 4.76 g/m*3 -0.73 C 9.7 km/h
2041 02-02-2015 20:50:00 2.1 C 4.76 g/m*3 2.1 C 4.8 km/h
2042 02-02-2015 20:55:00 2.1 C 4.76 g/m*3 0.24 C 6.4 km/h
2043 02-02-2015 21:00:00 2.1 C 4.7 g/m*3 0.24 C 6.4 km/h
2044 02-02-2015 21:05:00 2.1 C 4.7 g/m*3 2.1 C 4.8 km/h
2045 02-02-2015 21:10:00 2.1 C 4.7 g/m*3 -0.73 C 9.7 km/h
2046 02-02-2015 21:15:00 2.1 C 4.7 g/m*3 0.24 C 6.4 km/h
2047 02-02-2015 21:20:00 2 C 4.72 g/m*3 2 C 3.2 km/h
2048 02-02-2015 21:25:00 1.9 C 4.69 g/m*3 -0.54 C 8.1 km/h
2049 02-02-2015 21:30:00 1.8 C 4.66 g/m*3 -0.65 C 8.1 km/h
2050 02-02-2015 21:35:00 1.8 C 4.66 g/m*3 -0.1 C 6.4 km/h
Sensor: Nr:Datum:Temp:Abs-Feuchte:Windchill:Wind:
Aussen-T/F 2051 02-02-2015 21:40:00 1.8 C 4.66 g/m*3 -0.65 C 8.1 km/h
2052 02-02-2015 21:45:00 1.8 C 4.66 g/m*3 -1.47 C 11.3 km/h
2053 02-02-2015 21:50:00 1.8 C 4.66 g/m*3 -1.09 C 9.7 km/h
2054 02-02-2015 21:55:00 1.8 C 4.66 g/m*3 -1.09 C 9.7 km/h
2055 02-02-2015 22:50:00 1.4 C 4.53 g/m*3 -0.56 C 6.4 km/h
2056 02-02-2015 22:55:00 1.4 C 4.53 g/m*3 -0.56 C 6.4 km/h
2057 02-02-2015 23:00:00 1.4 C 4.53 g/m*3 1.4 C 4.8 km/h
2058 02-02-2015 23:05:00 1.5 C 4.57 g/m*3 -0.45 C 6.4 km/h
2059 02-02-2015 23:10:00 1.5 C 4.51 g/m*3 -1.01 C 8.1 km/h
2060 02-02-2015 23:15:00 1.5 C 4.57 g/m*3 1.5 C 4.8 km/h
2061 02-02-2015 23:20:00 1.5 C 4.51 g/m*3 -0.45 C 6.4 km/h
2062 02-02-2015 23:25:00 1.5 C 4.51 g/m*3 1.5 C 4.8 km/h
2063 02-02-2015 23:30:00 1.5 C 4.51 g/m*3 -0.45 C 6.4 km/h
2064 02-02-2015 23:35:00 1.5 C 4.51 g/m*3 -0.45 C 6.4 km/h
2065 02-02-2015 23:40:00 1.6 C 4.54 g/m*3 -1.33 C 9.7 km/h
2066 02-02-2015 23:45:00 1.6 C 4.54 g/m*3 -1.33 C 9.7 km/h
2067 02-02-2015 23:50:00 1.6 C 4.49 g/m*3 1.6 C 3.2 km/h
2068 02-02-2015 23:55:00 1.6 C 4.49 g/m*3 1.6 C 4.8 km/h
2069 03-02-2015 00:00:00 1.7 C 4.57 g/m*3 1.7 C 4.8 km/h
2070 03-02-2015 00:05:00 1.7 C 4.57 g/m*3 -0.77 C 8.1 km/h
2071 03-02-2015 00:10:00 1.7 C 4.52 g/m*3 1.7 C 4.8 km/h
2072 03-02-2015 00:15:00 1.6 C 4.54 g/m*3 1.6 C 3.2 km/h
2073 03-02-2015 00:20:00 1.6 C 4.54 g/m*3 1.6 C 3.2 km/h
2074 03-02-2015 00:25:00 1.6 C 4.49 g/m*3 1.6 C 4.8 km/h
2075 03-02-2015 00:30:00 1.6 C 4.54 g/m*3 1.6 C 3.2 km/h
Sensor: Nr:Datum:Temp:Abs-Feuchte:Windchill:Wind:
Aussen-T/F 2076 03-02-2015 00:35:00 1.6 C 4.6 g/m*3 1.6 C 3.2 km/h
2077 03-02-2015 00:40:00 1.6 C 4.54 g/m*3 1.6 C 1.6 km/h
2078 03-02-2015 00:45:00 1.6 C 4.54 g/m*3 1.6 C 3.2 km/h
2079 03-02-2015 00:50:00 1.6 C 4.54 g/m*3 1.6 C 4.8 km/h
2080 03-02-2015 00:55:00 1.6 C 4.65 g/m*3 1.6 C 4.8 km/h
2081 03-02-2015 01:00:00 1.6 C 4.65 g/m*3 1.6 C 3.2 km/h
2082 03-02-2015 01:05:00 1.5 C 4.57 g/m*3 1.5 C 3.2 km/h
2083 03-02-2015 01:10:00 1.4 C 4.59 g/m*3 1.4 C 0 km/h
2084 03-02-2015 01:15:00 1.4 C 4.59 g/m*3 1.4 C 1.6 km/h
2085 03-02-2015 01:20:00 1.4 C 4.59 g/m*3 1.4 C 3.2 km/h
2086 03-02-2015 01:25:00 1.4 C 4.53 g/m*3 1.4 C 3.2 km/h
2087 03-02-2015 01:30:00 1.4 C 4.59 g/m*3 1.4 C 1.6 km/h
2088 03-02-2015 01:35:00 1.3 C 4.56 g/m*3 1.3 C 3.2 km/h
2089 03-02-2015 01:40:00 1.3 C 4.56 g/m*3 1.3 C 3.2 km/h
2090 03-02-2015 01:45:00 1.3 C 4.56 g/m*3 1.3 C 3.2 km/h
2091 03-02-2015 01:50:00 1.3 C 4.56 g/m*3 1.3 C 4.8 km/h
2092 03-02-2015 01:55:00 1.3 C 4.56 g/m*3 1.3 C 0 km/h
2093 03-02-2015 02:00:00 1.2 C 4.53 g/m*3 1.2 C 0 km/h
2094 03-02-2015 02:05:00 1.2 C 4.53 g/m*3 1.2 C 0 km/h
2095 03-02-2015 02:10:00 1.2 C 4.58 g/m*3 1.2 C 0 km/h
2096 03-02-2015 02:15:00 1.1 C 4.55 g/m*3 1.1 C 3.2 km/h
2097 03-02-2015 02:20:00 1.1 C 4.55 g/m*3 1.1 C 1.6 km/h
2098 03-02-2015 02:25:00 1 C 4.57 g/m*3 1 C 3.2 km/h
2099 03-02-2015 02:30:00 1 C 4.52 g/m*3 1 C 3.2 km/h
2100 03-02-2015 02:35:00 1 C 4.57 g/m*3 1 C 1.6 km/h
Sensor: Nr:Datum:Temp:Abs-Feuchte:Windchill:Wind:
Aussen-T/F 2101 03-02-2015 02:40:00 1 C 4.57 g/m*3 1 C 3.2 km/h
2102 03-02-2015 02:45:00 0.9 C 4.54 g/m*3 0.9 C 3.2 km/h
2103 03-02-2015 02:50:00 0.9 C 4.48 g/m*3 0.9 C 3.2 km/h
2104 03-02-2015 02:55:00 0.9 C 4.48 g/m*3 0.9 C 1.6 km/h
2105 03-02-2015 03:00:00 0.9 C 4.48 g/m*3 0.9 C 3.2 km/h
2106 03-02-2015 03:05:00 0.9 C 4.48 g/m*3 0.9 C 3.2 km/h
2107 03-02-2015 03:10:00 0.8 C 4.45 g/m*3 0.8 C 3.2 km/h
2108 03-02-2015 03:15:00 0.8 C 4.45 g/m*3 0.8 C 3.2 km/h
2109 03-02-2015 03:20:00 0.8 C 4.51 g/m*3 0.8 C 0 km/h
2110 03-02-2015 03:25:00 0.7 C 4.53 g/m*3 0.7 C 0 km/h
2111 03-02-2015 03:30:00 0.7 C 4.53 g/m*3 0.7 C 1.6 km/h
2112 03-02-2015 03:35:00 0.6 C 4.49 g/m*3 0.6 C 1.6 km/h
2113 03-02-2015 03:40:00 0.6 C 4.44 g/m*3 0.6 C 3.2 km/h
2114 03-02-2015 03:45:00 0.6 C 4.49 g/m*3 0.6 C 1.6 km/h
2115 03-02-2015 03:50:00 0.6 C 4.49 g/m*3 0.6 C 1.6 km/h
2116 03-02-2015 03:55:00 0.6 C 4.49 g/m*3 0.6 C 4.8 km/h
2117 03-02-2015 04:00:00 0.6 C 4.49 g/m*3 0.6 C 3.2 km/h
2118 03-02-2015 04:05:00 0.5 C 4.46 g/m*3 0.5 C 1.6 km/h
2119 03-02-2015 04:10:00 0.5 C 4.46 g/m*3 0.5 C 0 km/h
2120 03-02-2015 04:15:00 0.6 C 4.49 g/m*3 0.6 C 1.6 km/h
2121 03-02-2015 04:20:00 0.6 C 4.49 g/m*3 0.6 C 0 km/h
2122 03-02-2015 04:25:00 0.5 C 4.51 g/m*3 0.5 C 0 km/h
2123 03-02-2015 04:30:00 0.5 C 4.51 g/m*3 0.5 C 0 km/h
2124 03-02-2015 04:35:00 0.6 C 4.54 g/m*3 0.6 C 1.6 km/h
2125 03-02-2015 04:40:00 0.6 C 4.54 g/m*3 0.6 C 1.6 km/h
Sensor: Nr:Datum:Temp:Abs-Feuchte:Windchill:Wind:
Aussen-T/F 2126 03-02-2015 04:45:00 0.6 C 4.54 g/m*3 0.6 C 1.6 km/h
2127 03-02-2015 04:50:00 0.6 C 4.49 g/m*3 0.6 C 0 km/h
2128 03-02-2015 04:55:00 0.6 C 4.49 g/m*3 0.6 C 1.6 km/h
2129 03-02-2015 05:00:00 0.6 C 4.49 g/m*3 0.6 C 1.6 km/h
2130 03-02-2015 05:05:00 0.6 C 4.49 g/m*3 0.6 C 0 km/h
2131 03-02-2015 05:10:00 0.7 C 4.53 g/m*3 0.7 C 1.6 km/h
2132 03-02-2015 05:15:00 0.7 C 4.53 g/m*3 0.7 C 1.6 km/h
2133 03-02-2015 05:20:00 0.6 C 4.49 g/m*3 0.6 C 0 km/h
2134 03-02-2015 05:25:00 0.6 C 4.49 g/m*3 0.6 C 0 km/h
2135 03-02-2015 05:30:00 0.6 C 4.49 g/m*3 0.6 C 0 km/h
2136 03-02-2015 05:35:00 0.6 C 4.49 g/m*3 0.6 C 0 km/h
2137 03-02-2015 05:40:00 0.6 C 4.49 g/m*3 0.6 C 0 km/h
2138 03-02-2015 05:45:00 0.6 C 4.49 g/m*3 0.6 C 0 km/h
2139 03-02-2015 05:50:00 0.6 C 4.49 g/m*3 0.6 C 0 km/h
2140 03-02-2015 05:55:00 0.6 C 4.49 g/m*3 0.6 C 1.6 km/h
2141 03-02-2015 06:00:00 0.6 C 4.49 g/m*3 0.6 C 0 km/h
2142 03-02-2015 06:05:00 0.6 C 4.49 g/m*3 0.6 C 0 km/h
2143 03-02-2015 06:10:00 0.6 C 4.49 g/m*3 0.6 C 0 km/h
2144 03-02-2015 06:15:00 0.6 C 4.49 g/m*3 0.6 C 0 km/h
2145 03-02-2015 06:20:00 0.5 C 4.46 g/m*3 0.5 C 1.6 km/h
2146 03-02-2015 06:25:00 0.6 C 4.49 g/m*3 0.6 C 3.2 km/h
2147 03-02-2015 06:30:00 0.6 C 4.49 g/m*3 0.6 C 1.6 km/h
2148 03-02-2015 06:35:00 0.6 C 4.49 g/m*3 0.6 C 3.2 km/h
2149 03-02-2015 06:40:00 0.6 C 4.49 g/m*3 0.6 C 0 km/h
2150 03-02-2015 06:45:00 0.6 C 4.49 g/m*3 0.6 C 0 km/h
Sensor: Nr:Datum:Temp:Abs-Feuchte:Windchill:Wind:
Aussen-T/F 2151 03-02-2015 06:50:00 0.6 C 4.44 g/m*3 0.6 C 0 km/h
2152 03-02-2015 06:55:00 0.6 C 4.44 g/m*3 0.6 C 0 km/h
2153 03-02-2015 07:00:00 0.6 C 4.44 g/m*3 0.6 C 4.8 km/h
2154 03-02-2015 07:05:00 0.6 C 4.39 g/m*3 -1.49 C 6.4 km/h
2155 03-02-2015 07:10:00 0.7 C 4.42 g/m*3 0.7 C 3.2 km/h
2156 03-02-2015 07:15:00 0.7 C 4.42 g/m*3 0.7 C 1.6 km/h
2157 03-02-2015 07:20:00 0.7 C 4.47 g/m*3 0.7 C 1.6 km/h
2158 03-02-2015 07:25:00 0.7 C 4.47 g/m*3 0.7 C 1.6 km/h
2159 03-02-2015 07:30:00 0.6 C 4.49 g/m*3 0.6 C 0 km/h
2160 03-02-2015 07:35:00 0.6 C 4.44 g/m*3 0.6 C 0 km/h
2161 03-02-2015 07:40:00 0.6 C 4.49 g/m*3 0.6 C 0 km/h
2162 03-02-2015 07:45:00 0.5 C 4.46 g/m*3 0.5 C 0 km/h
2163 03-02-2015 07:50:00 0.5 C 4.46 g/m*3 0.5 C 0 km/h
2164 03-02-2015 07:55:00 0.5 C 4.46 g/m*3 0.5 C 1.6 km/h
2165 03-02-2015 08:00:00 0.4 C 4.43 g/m*3 0.4 C 0 km/h
2166 03-02-2015 08:05:00 0.4 C 4.43 g/m*3 0.4 C 0 km/h
2167 03-02-2015 08:10:00 0.4 C 4.43 g/m*3 0.4 C 0 km/h
2168 03-02-2015 12:15:00 2.4 C 5.71 g/m*3 0.59 C 6.4 km/h
2169 03-02-2015 12:20:00 2.4 C 5.71 g/m*3 -0.37 C 9.7 km/h
2170 03-02-2015 12:25:00 2.6 C 5.79 g/m*3 0.29 C 8.1 km/h
2171 03-02-2015 12:30:00 2.6 C 5.79 g/m*3 -0.14 C 9.7 km/h
2172 03-02-2015 16:00:00 3.1 C 5.21 g/m*3 3.1 C 4.8 km/h
2173 03-02-2015 16:05:00 3.1 C 5.21 g/m*3 1.4 C 6.4 km/h
2174 03-02-2015 16:10:00 3.1 C 5.21 g/m*3 3.1 C 1.6 km/h
2175 03-02-2015 16:15:00 3.1 C 5.21 g/m*3 3.1 C 1.6 km/h
Sensor: Nr:Datum:Temp:Abs-Feuchte:Windchill:Wind:
Aussen-T/F 2176 03-02-2015 16:20:00 3.1 C 5.21 g/m*3 3.1 C 1.6 km/h
2177 03-02-2015 16:25:00 2.8 C 5.1 g/m*3 2.8 C 1.6 km/h
2178 03-02-2015 16:30:00 2.7 C 5.13 g/m*3 2.7 C 0 km/h
2179 03-02-2015 16:35:00 2.7 C 5.13 g/m*3 2.7 C 0 km/h
2180 03-02-2015 16:40:00 2.7 C 5.13 g/m*3 2.7 C 0 km/h
2181 03-02-2015 16:45:00 2.7 C 5.13 g/m*3 2.7 C 0 km/h
2182 03-02-2015 16:50:00 2.7 C 5.13 g/m*3 2.7 C 0 km/h
2183 03-02-2015 17:15:00 1.5 C 4.83 g/m*3 1.5 C 3.2 km/h
2184 03-02-2015 17:20:00 1.3 C 4.82 g/m*3 1.3 C 3.2 km/h
2185 03-02-2015 17:25:00 1.2 C 4.79 g/m*3 1.2 C 4.8 km/h
2186 03-02-2015 17:30:00 1.1 C 4.76 g/m*3 1.1 C 3.2 km/h
2187 03-02-2015 17:35:00 1 C 4.78 g/m*3 1 C 3.2 km/h
2188 03-02-2015 17:40:00 0.9 C 4.74 g/m*3 0.9 C 3.2 km/h
2189 03-02-2015 17:45:00 0.9 C 4.79 g/m*3 0.9 C 1.6 km/h
2190 03-02-2015 17:50:00 1 C 4.83 g/m*3 1 C 3.2 km/h
2191 03-02-2015 17:55:00 1.1 C 4.86 g/m*3 1.1 C 3.2 km/h
2192 03-02-2015 18:00:00 1.1 C 4.86 g/m*3 1.1 C 3.2 km/h
2193 03-02-2015 18:05:00 0.9 C 4.79 g/m*3 0.9 C 3.2 km/h
2194 03-02-2015 18:10:00 0.8 C 4.76 g/m*3 0.8 C 4.8 km/h
2195 03-02-2015 18:15:00 0.7 C 4.73 g/m*3 0.7 C 0 km/h
2196 03-02-2015 18:20:00 0.6 C 4.7 g/m*3 0.6 C 3.2 km/h
2197 03-02-2015 18:25:00 0.5 C 4.66 g/m*3 0.5 C 1.6 km/h
2198 03-02-2015 18:30:00 0.5 C 4.71 g/m*3 0.5 C 4.8 km/h
2199 03-02-2015 18:35:00 0.7 C 4.78 g/m*3 0.7 C 4.8 km/h
2200 03-02-2015 18:40:00 0.7 C 4.78 g/m*3 0.7 C 3.2 km/h
Sensor: Nr:Datum:Temp:Abs-Feuchte:Windchill:Wind:
Aussen-T/F 2201 03-02-2015 18:45:00 0.7 C 4.78 g/m*3 0.7 C 3.2 km/h
2202 03-02-2015 18:50:00 0.6 C 4.75 g/m*3 0.6 C 4.8 km/h
2203 03-02-2015 18:55:00 0.6 C 4.75 g/m*3 0.6 C 4.8 km/h
2204 03-02-2015 19:00:00 0.5 C 4.71 g/m*3 0.5 C 3.2 km/h
2205 03-02-2015 19:05:00 0.4 C 4.68 g/m*3 0.4 C 4.8 km/h
2206 03-02-2015 19:10:00 0.6 C 4.8 g/m*3 0.6 C 4.8 km/h
2207 03-02-2015 19:15:00 0.7 C 4.83 g/m*3 0.7 C 1.6 km/h
2208 03-02-2015 19:20:00 0.7 C 4.83 g/m*3 0.7 C 0 km/h
2209 03-02-2015 19:25:00 0.8 C 4.86 g/m*3 0.8 C 0 km/h
2210 03-02-2015 19:30:00 0.7 C 4.83 g/m*3 0.7 C 0 km/h
2211 03-02-2015 19:35:00 0.7 C 4.83 g/m*3 0.7 C 0 km/h
2212 03-02-2015 19:40:00 0.7 C 4.83 g/m*3 0.7 C 1.6 km/h
2213 03-02-2015 19:45:00 0.7 C 4.83 g/m*3 0.7 C 0 km/h
2214 03-02-2015 19:50:00 0.7 C 4.83 g/m*3 0.7 C 0 km/h
2215 03-02-2015 19:55:00 0.7 C 4.83 g/m*3 0.7 C 3.2 km/h
2216 03-02-2015 20:00:00 0.8 C 4.86 g/m*3 0.8 C 1.6 km/h
2217 03-02-2015 20:05:00 0.8 C 4.86 g/m*3 0.8 C 1.6 km/h
2218 03-02-2015 20:10:00 0.8 C 4.86 g/m*3 0.8 C 1.6 km/h
2219 03-02-2015 20:15:00 0.8 C 4.86 g/m*3 0.8 C 0 km/h
2220 03-02-2015 20:20:00 0.8 C 4.86 g/m*3 0.8 C 0 km/h
2221 03-02-2015 20:25:00 0.8 C 4.86 g/m*3 0.8 C 0 km/h
2222 03-02-2015 20:30:00 0.9 C 4.9 g/m*3 0.9 C 1.6 km/h
2223 03-02-2015 20:35:00 0.9 C 4.9 g/m*3 0.9 C 0 km/h
2224 03-02-2015 20:40:00 0.9 C 4.9 g/m*3 0.9 C 0 km/h
2225 03-02-2015 20:45:00 1 C 4.93 g/m*3 1 C 0 km/h
Sensor: Nr:Datum:Temp:Abs-Feuchte:Windchill:Wind:
Aussen-T/F 2226 03-02-2015 20:50:00 1.1 C 4.96 g/m*3 1.1 C 0 km/h
2227 03-02-2015 20:55:00 1.1 C 4.96 g/m*3 1.1 C 0 km/h
2228 03-02-2015 21:00:00 1.2 C 5 g/m*3 1.2 C 1.6 km/h
2229 03-02-2015 21:05:00 1.2 C 5 g/m*3 1.2 C 3.2 km/h
2230 03-02-2015 21:10:00 1.2 C 5 g/m*3 1.2 C 3.2 km/h
2231 03-02-2015 21:15:00 1.1 C 4.91 g/m*3 1.1 C 3.2 km/h
2232 03-02-2015 21:20:00 1.1 C 4.91 g/m*3 1.1 C 3.2 km/h
2233 03-02-2015 21:25:00 1.1 C 4.96 g/m*3 1.1 C 0 km/h
2234 03-02-2015 21:30:00 1.1 C 4.96 g/m*3 1.1 C 0 km/h
2235 03-02-2015 21:35:00 1.1 C 4.96 g/m*3 1.1 C 0 km/h
2236 03-02-2015 21:40:00 1.1 C 4.96 g/m*3 1.1 C 0 km/h
2237 03-02-2015 21:45:00 0.9 C 4.85 g/m*3 0.9 C 0 km/h
2238 03-02-2015 21:50:00 0.7 C 4.78 g/m*3 0.7 C 0 km/h
2239 03-02-2015 21:55:00 0.5 C 4.71 g/m*3 0.5 C 3.2 km/h
2240 03-02-2015 22:00:00 0.4 C 4.68 g/m*3 0.4 C 3.2 km/h
2241 03-02-2015 22:05:00 0.4 C 4.68 g/m*3 0.4 C 0 km/h
2242 03-02-2015 22:10:00 0.3 C 4.65 g/m*3 0.3 C 0 km/h
2243 03-02-2015 22:15:00 0.2 C 4.62 g/m*3 0.2 C 1.6 km/h
2244 03-02-2015 22:20:00 0.2 C 4.67 g/m*3 0.2 C 3.2 km/h
2245 03-02-2015 22:25:00 0.2 C 4.67 g/m*3 0.2 C 0 km/h
2246 03-02-2015 22:30:00 0.1 C 4.63 g/m*3 0.1 C 0 km/h
2247 03-02-2015 22:35:00 -0.1 C 4.57 g/m*3 -0.1 C 0 km/h
2248 03-02-2015 22:40:00 -0.2 C 4.49 g/m*3 -0.2 C 0 km/h
2249 03-02-2015 22:45:00 -0.2 C 4.54 g/m*3 -0.2 C 3.2 km/h
2250 03-02-2015 22:50:00 -0.1 C 4.57 g/m*3 -0.1 C 4.8 km/h
Sensor: Nr:Datum:Temp:Abs-Feuchte:Windchill:Wind:
Aussen-T/F 2251 03-02-2015 22:55:00 -0.1 C 4.57 g/m*3 -0.1 C 0 km/h
2252 03-02-2015 23:00:00 -0.1 C 4.62 g/m*3 -0.1 C 0 km/h
2253 03-02-2015 23:05:00 -0.2 C 4.54 g/m*3 -0.2 C 0 km/h
2254 03-02-2015 23:10:00 -0.2 C 4.54 g/m*3 -0.2 C 0 km/h
2255 03-02-2015 23:15:00 -0.3 C 4.51 g/m*3 -0.3 C 1.6 km/h
2256 03-02-2015 23:20:00 -0.4 C 4.48 g/m*3 -0.4 C 0 km/h
2257 03-02-2015 23:25:00 -0.5 C 4.45 g/m*3 -0.5 C 0 km/h
2258 03-02-2015 23:30:00 -0.6 C 4.42 g/m*3 -0.6 C 0 km/h
2259 03-02-2015 23:35:00 -0.7 C 4.39 g/m*3 -0.7 C 0 km/h
2260 03-02-2015 23:40:00 -0.8 C 4.35 g/m*3 -0.8 C 1.6 km/h
2261 03-02-2015 23:45:00 -0.8 C 4.35 g/m*3 -0.8 C 1.6 km/h
2262 03-02-2015 23:50:00 -0.8 C 4.4 g/m*3 -0.8 C 0 km/h
2263 03-02-2015 23:55:00 -0.7 C 4.43 g/m*3 -0.7 C 3.2 km/h
2264 04-02-2015 00:00:00 -0.7 C 4.43 g/m*3 -0.7 C 0 km/h
2265 04-02-2015 00:05:00 -0.6 C 4.46 g/m*3 -0.6 C 1.6 km/h
2266 04-02-2015 00:10:00 -0.4 C 4.52 g/m*3 -0.4 C 0 km/h
2267 04-02-2015 00:15:00 -0.4 C 4.52 g/m*3 -0.4 C 0 km/h
2268 04-02-2015 00:20:00 -0.3 C 4.56 g/m*3 -0.3 C 0 km/h
2269 04-02-2015 00:25:00 -0.3 C 4.56 g/m*3 -0.3 C 0 km/h
2270 04-02-2015 00:30:00 -0.3 C 4.56 g/m*3 -0.3 C 0 km/h
2271 04-02-2015 00:35:00 -0.3 C 4.56 g/m*3 -0.3 C 0 km/h
2272 04-02-2015 00:40:00 -0.3 C 4.56 g/m*3 -0.3 C 0 km/h
2273 04-02-2015 00:45:00 -0.4 C 4.52 g/m*3 -0.4 C 0 km/h
2274 04-02-2015 00:50:00 -0.4 C 4.52 g/m*3 -0.4 C 0 km/h
2275 04-02-2015 00:55:00 -0.4 C 4.52 g/m*3 -0.4 C 1.6 km/h
Sensor: Nr:Datum:Temp:Abs-Feuchte:Windchill:Wind:
Aussen-T/F 2276 04-02-2015 01:00:00 -0.4 C 4.52 g/m*3 -0.4 C 1.6 km/h
2277 04-02-2015 01:05:00 -0.3 C 4.56 g/m*3 -0.3 C 1.6 km/h
2278 04-02-2015 01:10:00 -0.2 C 4.64 g/m*3 -0.2 C 0 km/h
2279 04-02-2015 01:15:00 -0.2 C 4.59 g/m*3 -0.2 C 0 km/h
2280 04-02-2015 01:20:00 -0.2 C 4.59 g/m*3 -0.2 C 1.6 km/h
2281 04-02-2015 01:25:00 -0.1 C 4.62 g/m*3 -0.1 C 3.2 km/h
2282 04-02-2015 01:30:00 0 C 4.7 g/m*3 0 C 1.6 km/h
2283 04-02-2015 01:35:00 0 C 4.7 g/m*3 0 C 4.8 km/h
2284 04-02-2015 01:40:00 0.1 C 4.73 g/m*3 0.1 C 1.6 km/h
2285 04-02-2015 01:45:00 0.1 C 4.73 g/m*3 0.1 C 3.2 km/h
2286 04-02-2015 01:50:00 0.1 C 4.73 g/m*3 0.1 C 0 km/h
2287 04-02-2015 01:55:00 0.1 C 4.73 g/m*3 0.1 C 1.6 km/h
2288 04-02-2015 02:00:00 0.2 C 4.72 g/m*3 0.2 C 0 km/h
2289 04-02-2015 02:05:00 0.2 C 4.77 g/m*3 0.2 C 0 km/h
2290 04-02-2015 02:10:00 0.3 C 4.8 g/m*3 0.3 C 0 km/h
2291 04-02-2015 02:15:00 0.3 C 4.8 g/m*3 0.3 C 0 km/h
2292 04-02-2015 02:20:00 0.3 C 4.8 g/m*3 0.3 C 0 km/h
2293 04-02-2015 02:25:00 0.4 C 4.83 g/m*3 0.4 C 1.6 km/h
2294 04-02-2015 02:30:00 0.4 C 4.83 g/m*3 0.4 C 3.2 km/h
2295 04-02-2015 02:35:00 0.4 C 4.83 g/m*3 0.4 C 3.2 km/h
2296 04-02-2015 02:40:00 0.4 C 4.78 g/m*3 0.4 C 3.2 km/h
2297 04-02-2015 02:45:00 0.3 C 4.75 g/m*3 0.3 C 1.6 km/h
2298 04-02-2015 02:50:00 0.3 C 4.75 g/m*3 0.3 C 0 km/h
2299 04-02-2015 02:55:00 0.3 C 4.75 g/m*3 0.3 C 0 km/h
2300 04-02-2015 03:00:00 0.2 C 4.72 g/m*3 0.2 C 0 km/h
Sensor: Nr:Datum:Temp:Abs-Feuchte:Windchill:Wind:
Aussen-T/F 2301 04-02-2015 03:05:00 0.2 C 4.72 g/m*3 0.2 C 0 km/h
2302 04-02-2015 03:10:00 0.2 C 4.72 g/m*3 0.2 C 3.2 km/h
2303 04-02-2015 03:15:00 0.2 C 4.72 g/m*3 0.2 C 0 km/h
2304 04-02-2015 03:20:00 0.2 C 4.72 g/m*3 0.2 C 3.2 km/h
2305 04-02-2015 03:25:00 0.3 C 4.75 g/m*3 0.3 C 0 km/h
2306 04-02-2015 03:30:00 0.3 C 4.75 g/m*3 0.3 C 0 km/h
2307 04-02-2015 03:35:00 0.3 C 4.75 g/m*3 0.3 C 3.2 km/h
2308 04-02-2015 03:40:00 0.3 C 4.75 g/m*3 0.3 C 3.2 km/h
2309 04-02-2015 03:45:00 0.3 C 4.75 g/m*3 0.3 C 0 km/h
2310 04-02-2015 03:50:00 0.3 C 4.75 g/m*3 0.3 C 0 km/h
2311 04-02-2015 03:55:00 0.3 C 4.7 g/m*3 0.3 C 3.2 km/h
2312 04-02-2015 04:00:00 0.3 C 4.7 g/m*3 -2.42 C 8.1 km/h
2313 04-02-2015 04:05:00 0.3 C 4.65 g/m*3 -2.88 C 9.7 km/h
2314 04-02-2015 04:10:00 0.4 C 4.68 g/m*3 0.4 C 4.8 km/h
2315 04-02-2015 04:15:00 0.5 C 4.66 g/m*3 0.5 C 1.6 km/h
2316 04-02-2015 04:20:00 0.5 C 4.66 g/m*3 0.5 C 4.8 km/h
2317 04-02-2015 04:25:00 0.5 C 4.66 g/m*3 0.5 C 1.6 km/h
2318 04-02-2015 04:30:00 0.6 C 4.65 g/m*3 0.6 C 0 km/h
2319 04-02-2015 04:35:00 0.5 C 4.61 g/m*3 0.5 C 4.8 km/h
2320 04-02-2015 04:40:00 0.5 C 4.61 g/m*3 0.5 C 1.6 km/h
2321 04-02-2015 04:45:00 0.5 C 4.61 g/m*3 0.5 C 1.6 km/h
2322 04-02-2015 04:50:00 0.5 C 4.61 g/m*3 -2.18 C 8.1 km/h
2323 04-02-2015 04:55:00 0.5 C 4.56 g/m*3 0.5 C 1.6 km/h
2324 04-02-2015 05:00:00 0.5 C 4.56 g/m*3 0.5 C 4.8 km/h
2325 04-02-2015 05:05:00 0.5 C 4.56 g/m*3 0.5 C 1.6 km/h
Sensor: Nr:Datum:Temp:Abs-Feuchte:Windchill:Wind:
Aussen-T/F 2326 04-02-2015 05:10:00 0.5 C 4.56 g/m*3 0.5 C 1.6 km/h
2327 04-02-2015 05:15:00 0.5 C 4.56 g/m*3 0.5 C 1.6 km/h
2328 04-02-2015 05:20:00 0.5 C 4.56 g/m*3 0.5 C 3.2 km/h
2329 04-02-2015 05:25:00 0.5 C 4.56 g/m*3 -1.6 C 6.4 km/h
2330 04-02-2015 05:30:00 0.5 C 4.51 g/m*3 0.5 C 4.8 km/h
2331 04-02-2015 05:35:00 0.5 C 4.51 g/m*3 -1.6 C 6.4 km/h
2332 04-02-2015 05:40:00 0.5 C 4.51 g/m*3 -1.6 C 6.4 km/h
2333 04-02-2015 05:45:00 0.5 C 4.51 g/m*3 0.5 C 3.2 km/h
2334 04-02-2015 05:50:00 0.5 C 4.51 g/m*3 0.5 C 4.8 km/h
2335 04-02-2015 05:55:00 0.5 C 4.51 g/m*3 0.5 C 0 km/h
2336 04-02-2015 06:00:00 0.5 C 4.51 g/m*3 0.5 C 4.8 km/h
2337 04-02-2015 06:05:00 0.4 C 4.43 g/m*3 -2.3 C 8.1 km/h
2338 04-02-2015 06:10:00 0.4 C 4.43 g/m*3 -2.3 C 8.1 km/h
2339 04-02-2015 06:15:00 0.3 C 4.4 g/m*3 -1.84 C 6.4 km/h
2340 04-02-2015 06:20:00 0.3 C 4.35 g/m*3 -1.84 C 6.4 km/h
2341 04-02-2015 06:25:00 0.2 C 4.32 g/m*3 -1.95 C 6.4 km/h
2342 04-02-2015 06:30:00 0.2 C 4.32 g/m*3 0.2 C 4.8 km/h
2343 04-02-2015 06:35:00 0.1 C 4.29 g/m*3 0.1 C 3.2 km/h
2344 04-02-2015 06:40:00 0 C 4.26 g/m*3 0 C 0 km/h
2345 04-02-2015 06:45:00 -0.2 C 4.21 g/m*3 -0.2 C 0 km/h
2346 04-02-2015 06:50:00 -0.4 C 4.15 g/m*3 -0.4 C 1.6 km/h
2347 04-02-2015 06:55:00 -0.6 C 4.14 g/m*3 -0.6 C 0 km/h
2348 04-02-2015 07:00:00 -0.7 C 4.15 g/m*3 -0.7 C 0 km/h
2349 04-02-2015 07:05:00 -0.7 C 4.2 g/m*3 -0.7 C 0 km/h
2350 04-02-2015 07:10:00 -0.6 C 4.23 g/m*3 -0.6 C 1.6 km/h
Sensor: Nr:Datum:Temp:Abs-Feuchte:Windchill:Wind:
Aussen-T/F 2351 04-02-2015 07:15:00 -0.6 C 4.18 g/m*3 -0.6 C 3.2 km/h
2352 04-02-2015 07:20:00 -0.5 C 4.21 g/m*3 -2.76 C 6.4 km/h
2353 04-02-2015 07:25:00 -0.4 C 4.24 g/m*3 -0.4 C 1.6 km/h
2354 04-02-2015 07:30:00 -0.4 C 4.19 g/m*3 -0.4 C 3.2 km/h
2355 04-02-2015 07:35:00 -0.4 C 4.15 g/m*3 -0.4 C 3.2 km/h
2356 04-02-2015 07:40:00 -0.5 C 4.12 g/m*3 -0.5 C 1.6 km/h
2357 04-02-2015 07:45:00 -0.6 C 4.09 g/m*3 -0.6 C 3.2 km/h
2358 04-02-2015 07:50:00 -0.7 C 4.06 g/m*3 -0.7 C 1.6 km/h
2359 04-02-2015 07:55:00 -0.7 C 4.06 g/m*3 -0.7 C 0 km/h
2360 04-02-2015 08:00:00 -0.7 C 4.06 g/m*3 -0.7 C 1.6 km/h
2361 04-02-2015 08:05:00 -0.7 C 4.06 g/m*3 -0.7 C 0 km/h
2362 04-02-2015 08:10:00 -0.7 C 4.06 g/m*3 -0.7 C 1.6 km/h
2363 04-02-2015 10:15:00 -0.7 C 4.06 g/m*3 -4.48 C 11.3 km/h
2364 04-02-2015 10:20:00 -0.4 C 4.1 g/m*3 -4.12 C 11.3 km/h
2365 04-02-2015 10:25:00 -0.3 C 4.13 g/m*3 -4.99 C 16.1 km/h
2366 04-02-2015 10:30:00 -0.1 C 4.04 g/m*3 -4.74 C 16.1 km/h
2367 04-02-2015 10:35:00 0.1 C 4.05 g/m*3 -4.2 C 14.5 km/h
2368 04-02-2015 10:40:00 0.2 C 4.03 g/m*3 -4.37 C 16.1 km/h
2369 04-02-2015 10:45:00 0.3 C 4.01 g/m*3 -4.51 C 17.7 km/h
2370 04-02-2015 10:50:00 0.3 C 4.01 g/m*3 -4.24 C 16.1 km/h
2371 04-02-2015 10:55:00 0.3 C 3.96 g/m*3 -3.28 C 11.3 km/h
2372 04-02-2015 11:00:00 0.3 C 3.91 g/m*3 -3.95 C 14.5 km/h
2373 04-02-2015 11:05:00 0.4 C 3.93 g/m*3 -2.3 C 8.1 km/h
2374 04-02-2015 11:10:00 0.4 C 3.88 g/m*3 -3.83 C 14.5 km/h
2375 04-02-2015 11:15:00 0.4 C 3.88 g/m*3 -2.76 C 9.7 km/h
Sensor: Nr:Datum:Temp:Abs-Feuchte:Windchill:Wind:
Aussen-T/F 2376 04-02-2015 11:20:00 0.4 C 3.88 g/m*3 -4.39 C 17.7 km/h
2377 04-02-2015 11:25:00 0.4 C 3.88 g/m*3 -3.83 C 14.5 km/h
2378 04-02-2015 11:30:00 0.5 C 3.91 g/m*3 -3.39 C 12.9 km/h
2379 04-02-2015 11:35:00 0.6 C 3.89 g/m*3 -2.92 C 11.3 km/h
2380 04-02-2015 11:40:00 0.6 C 3.94 g/m*3 -3.27 C 12.9 km/h
2381 04-02-2015 11:45:00 0.7 C 3.97 g/m*3 -2.4 C 9.7 km/h
2382 04-02-2015 11:50:00 0.7 C 3.92 g/m*3 -2.8 C 11.3 km/h
2383 04-02-2015 11:55:00 0.7 C 3.97 g/m*3 -2.8 C 11.3 km/h
2384 04-02-2015 12:00:00 0.7 C 3.92 g/m*3 -3.46 C 14.5 km/h
2385 04-02-2015 12:05:00 0.7 C 3.92 g/m*3 -2.8 C 11.3 km/h
2386 04-02-2015 12:10:00 0.7 C 3.92 g/m*3 -3.15 C 12.9 km/h
2387 04-02-2015 12:15:00 0.8 C 3.89 g/m*3 -3.62 C 16.1 km/h
2388 04-02-2015 12:20:00 0.8 C 3.84 g/m*3 -2.28 C 9.7 km/h
2389 04-02-2015 12:25:00 0.9 C 3.92 g/m*3 -3.5 C 16.1 km/h
2390 04-02-2015 12:30:00 1 C 3.94 g/m*3 -4.11 C 20.9 km/h
2391 04-02-2015 12:35:00 1.1 C 3.97 g/m*3 -1.92 C 9.7 km/h
2392 04-02-2015 12:40:00 1.2 C 3.95 g/m*3 -1.8 C 9.7 km/h
2393 04-02-2015 12:45:00 1.2 C 3.95 g/m*3 -1.8 C 9.7 km/h
2394 04-02-2015 12:50:00 1.1 C 3.92 g/m*3 -1.48 C 8.1 km/h
2395 04-02-2015 12:55:00 1.1 C 3.92 g/m*3 -1.92 C 9.7 km/h
2396 04-02-2015 13:00:00 1.1 C 3.97 g/m*3 -1.92 C 9.7 km/h
2397 04-02-2015 13:05:00 1.2 C 3.95 g/m*3 -1.36 C 8.1 km/h
2398 04-02-2015 13:10:00 1.2 C 4 g/m*3 -2.19 C 11.3 km/h
2399 04-02-2015 13:15:00 1.3 C 4.03 g/m*3 -3 C 16.1 km/h
2400 04-02-2015 13:20:00 1.3 C 3.97 g/m*3 -0.68 C 6.4 km/h
Sensor: Nr:Datum:Temp:Abs-Feuchte:Windchill:Wind:
Aussen-T/F 2401 04-02-2015 13:25:00 1.3 C 3.97 g/m*3 1.3 C 4.8 km/h
2402 04-02-2015 13:30:00 1.4 C 4 g/m*3 -1.95 C 11.3 km/h
2403 04-02-2015 13:35:00 1.5 C 4.03 g/m*3 -0.45 C 6.4 km/h
2404 04-02-2015 13:40:00 1.6 C 4 g/m*3 1.6 C 4.8 km/h
2405 04-02-2015 13:45:00 1.6 C 4.06 g/m*3 -2.35 C 14.5 km/h
2406 04-02-2015 13:50:00 1.7 C 4.08 g/m*3 -1.21 C 9.7 km/h
2407 04-02-2015 13:55:00 1.8 C 4.11 g/m*3 -1.47 C 11.3 km/h
2408 04-02-2015 14:00:00 1.9 C 4.03 g/m*3 -0.97 C 9.7 km/h
2409 04-02-2015 14:05:00 1.9 C 4.08 g/m*3 1.9 C 4.8 km/h
2410 04-02-2015 14:10:00 1.9 C 4.03 g/m*3 1.9 C 4.8 km/h
2411 04-02-2015 14:15:00 2.1 C 4.2 g/m*3 -0.73 C 9.7 km/h
2412 04-02-2015 14:20:00 2.3 C 4.2 g/m*3 -0.87 C 11.3 km/h
2413 04-02-2015 14:25:00 2.4 C 4.17 g/m*3 -0.37 C 9.7 km/h
2414 04-02-2015 14:30:00 2.4 C 4.23 g/m*3 0.59 C 6.4 km/h
2415 04-02-2015 14:35:00 2.6 C 4.34 g/m*3 -0.14 C 9.7 km/h
2416 04-02-2015 14:40:00 2.7 C 4.31 g/m*3 -0.02 C 9.7 km/h
2417 04-02-2015 14:45:00 2.7 C 4.25 g/m*3 0.4 C 8.1 km/h
2418 04-02-2015 14:50:00 2.7 C 4.25 g/m*3 0.4 C 8.1 km/h
2419 04-02-2015 14:55:00 2.8 C 4.28 g/m*3 0.52 C 8.1 km/h
2420 04-02-2015 15:00:00 3 C 4.28 g/m*3 0.76 C 8.1 km/h
2421 04-02-2015 15:05:00 3.2 C 4.28 g/m*3 0.99 C 8.1 km/h
2422 04-02-2015 15:10:00 3.4 C 4.28 g/m*3 1.75 C 6.4 km/h
2423 04-02-2015 15:15:00 3.4 C 4.28 g/m*3 0.46 C 11.3 km/h
2424 04-02-2015 15:20:00 3.4 C 4.28 g/m*3 0.82 C 9.7 km/h
2425 04-02-2015 15:25:00 3.4 C 4.28 g/m*3 0.14 C 12.9 km/h
Sensor: Nr:Datum:Temp:Abs-Feuchte:Windchill:Wind:
Aussen-T/F 2426 04-02-2015 15:30:00 3.3 C 4.19 g/m*3 1.11 C 8.1 km/h
2427 04-02-2015 15:35:00 3.2 C 4.22 g/m*3 0.99 C 8.1 km/h
2428 04-02-2015 15:40:00 3.1 C 4.25 g/m*3 1.4 C 6.4 km/h
2429 04-02-2015 15:45:00 2.9 C 4.25 g/m*3 0.22 C 9.7 km/h
2430 04-02-2015 15:50:00 2.8 C 4.28 g/m*3 -0.26 C 11.3 km/h
2431 04-02-2015 15:55:00 2.7 C 4.25 g/m*3 -0.02 C 9.7 km/h
2432 04-02-2015 16:00:00 2.6 C 4.22 g/m*3 -0.5 C 11.3 km/h
2433 04-02-2015 16:05:00 2.5 C 4.2 g/m*3 -0.95 C 12.9 km/h
2434 04-02-2015 16:10:00 2.4 C 4.17 g/m*3 -0.37 C 9.7 km/h
2435 04-02-2015 16:15:00 2.3 C 4.2 g/m*3 -0.07 C 8.1 km/h
2436 04-02-2015 16:20:00 2.2 C 4.17 g/m*3 -0.61 C 9.7 km/h
2437 04-02-2015 16:25:00 2.2 C 4.17 g/m*3 -0.61 C 9.7 km/h
2438 04-02-2015 16:30:00 2.2 C 4.22 g/m*3 2.2 C 4.8 km/h
2439 04-02-2015 16:35:00 2.1 C 4.2 g/m*3 2.1 C 4.8 km/h
2440 04-02-2015 16:40:00 2 C 4.22 g/m*3 -0.85 C 9.7 km/h
2441 04-02-2015 16:45:00 1.9 C 4.19 g/m*3 0.01 C 6.4 km/h
2442 04-02-2015 16:50:00 1.8 C 4.22 g/m*3 1.8 C 4.8 km/h
2443 04-02-2015 16:55:00 1.7 C 4.19 g/m*3 1.7 C 4.8 km/h
2444 04-02-2015 17:00:00 1.6 C 4.16 g/m*3 1.6 C 0 km/h
2445 04-02-2015 17:05:00 1.3 C 4.19 g/m*3 1.3 C 1.6 km/h
2446 04-02-2015 17:10:00 1 C 4.2 g/m*3 1 C 0 km/h
2447 04-02-2015 17:15:00 0.7 C 4.22 g/m*3 0.7 C 0 km/h
2448 04-02-2015 17:20:00 0.5 C 4.21 g/m*3 0.5 C 0 km/h
2449 04-02-2015 17:25:00 0.3 C 4.16 g/m*3 0.3 C 0 km/h
2450 04-02-2015 17:30:00 0.2 C 4.18 g/m*3 0.2 C 3.2 km/h
Sensor: Nr:Datum:Temp:Abs-Feuchte:Windchill:Wind:
Aussen-T/F 2451 04-02-2015 17:35:00 0.1 C 4.2 g/m*3 0.1 C 1.6 km/h
2452 04-02-2015 17:40:00 0 C 4.17 g/m*3 0 C 0 km/h
2453 04-02-2015 17:45:00 -0.1 C 4.14 g/m*3 -0.1 C 3.2 km/h
2454 04-02-2015 17:50:00 -0.1 C 4.19 g/m*3 -0.1 C 1.6 km/h
2455 04-02-2015 17:55:00 -0.2 C 4.16 g/m*3 -0.2 C 4.8 km/h
2456 04-02-2015 18:00:00 -0.2 C 4.16 g/m*3 -0.2 C 4.8 km/h
2457 04-02-2015 18:05:00 -0.2 C 4.16 g/m*3 -0.2 C 4.8 km/h
2458 04-02-2015 18:10:00 -0.3 C 4.13 g/m*3 -0.3 C 4.8 km/h
2459 04-02-2015 18:15:00 -0.3 C 4.18 g/m*3 -0.3 C 4.8 km/h
2460 04-02-2015 18:20:00 -0.3 C 4.18 g/m*3 -0.3 C 4.8 km/h
2461 04-02-2015 18:25:00 -0.4 C 4.15 g/m*3 -0.4 C 4.8 km/h
2462 04-02-2015 18:30:00 -0.4 C 4.15 g/m*3 -0.4 C 4.8 km/h
2463 04-02-2015 18:35:00 -0.5 C 4.12 g/m*3 -0.5 C 4.8 km/h
2464 04-02-2015 18:40:00 -0.6 C 4.09 g/m*3 -0.6 C 3.2 km/h
2465 04-02-2015 18:45:00 -0.6 C 4.09 g/m*3 -0.6 C 4.8 km/h
2466 04-02-2015 18:50:00 -0.6 C 4.09 g/m*3 -0.6 C 3.2 km/h
2467 04-02-2015 18:55:00 -0.7 C 4.06 g/m*3 -0.7 C 3.2 km/h
2468 04-02-2015 19:00:00 -0.7 C 4.11 g/m*3 -0.7 C 3.2 km/h
2469 04-02-2015 19:05:00 -0.8 C 4.08 g/m*3 -0.8 C 3.2 km/h
2470 04-02-2015 19:10:00 -0.9 C 4.05 g/m*3 -0.9 C 3.2 km/h
2471 04-02-2015 19:15:00 -1 C 4.07 g/m*3 -1 C 3.2 km/h
2472 04-02-2015 19:20:00 -1.1 C 4.09 g/m*3 -1.1 C 0 km/h
2473 04-02-2015 19:25:00 -1.1 C 4.09 g/m*3 -1.1 C 3.2 km/h
2474 04-02-2015 19:30:00 -1.2 C 4.06 g/m*3 -1.2 C 1.6 km/h
2475 04-02-2015 19:35:00 -1.2 C 4.06 g/m*3 -1.2 C 1.6 km/h
Sensor: Nr:Datum:Temp:Abs-Feuchte:Windchill:Wind:
Aussen-T/F 2476 04-02-2015 19:40:00 -1.2 C 4.06 g/m*3 -1.2 C 1.6 km/h
2477 04-02-2015 19:45:00 -1.3 C 4.03 g/m*3 -1.3 C 0 km/h
2478 04-02-2015 19:50:00 -1.4 C 4 g/m*3 -1.4 C 0 km/h
2479 04-02-2015 19:55:00 -1.4 C 4.04 g/m*3 -1.4 C 0 km/h
2480 04-02-2015 20:00:00 -1.4 C 4.04 g/m*3 -1.4 C 0 km/h
2481 04-02-2015 20:05:00 -1.5 C 4.02 g/m*3 -1.5 C 0 km/h
2482 04-02-2015 20:10:00 -1.5 C 4.02 g/m*3 -1.5 C 0 km/h
2483 04-02-2015 20:15:00 -1.6 C 3.99 g/m*3 -1.6 C 0 km/h
2484 04-02-2015 20:20:00 -1.6 C 3.99 g/m*3 -1.6 C 0 km/h
2485 04-02-2015 20:25:00 -1.6 C 3.99 g/m*3 -1.6 C 0 km/h
2486 04-02-2015 20:30:00 -1.7 C 3.96 g/m*3 -1.7 C 0 km/h
2487 04-02-2015 20:35:00 -1.7 C 4 g/m*3 -1.7 C 0 km/h
2488 04-02-2015 20:40:00 -1.7 C 4 g/m*3 -1.7 C 0 km/h
2489 04-02-2015 20:45:00 -1.7 C 4 g/m*3 -1.7 C 0 km/h
2490 04-02-2015 20:50:00 -1.8 C 3.98 g/m*3 -1.8 C 0 km/h
2491 04-02-2015 20:55:00 -1.8 C 3.98 g/m*3 -1.8 C 0 km/h
2492 04-02-2015 21:00:00 -1.8 C 3.98 g/m*3 -1.8 C 0 km/h
2493 04-02-2015 21:05:00 -1.8 C 3.98 g/m*3 -1.8 C 0 km/h
2494 04-02-2015 21:10:00 -1.8 C 3.98 g/m*3 -1.8 C 0 km/h
2495 04-02-2015 21:15:00 -1.9 C 3.95 g/m*3 -1.9 C 0 km/h
2496 04-02-2015 21:20:00 -1.9 C 3.95 g/m*3 -1.9 C 0 km/h
2497 04-02-2015 21:25:00 -2.1 C 3.89 g/m*3 -2.1 C 0 km/h
2498 04-02-2015 21:30:00 -2.2 C 3.87 g/m*3 -2.2 C 0 km/h
2499 04-02-2015 21:35:00 -2.2 C 3.87 g/m*3 -2.2 C 0 km/h
2500 04-02-2015 21:40:00 -2.2 C 3.87 g/m*3 -2.2 C 0 km/h
Sensor: Nr:Datum:Temp:Abs-Feuchte:Windchill:Wind:
Aussen-T/F 2501 04-02-2015 21:45:00 -2.2 C 3.87 g/m*3 -2.2 C 0 km/h
2502 04-02-2015 21:50:00 -2.3 C 3.84 g/m*3 -2.3 C 0 km/h
2503 04-02-2015 21:55:00 -2.3 C 3.88 g/m*3 -2.3 C 0 km/h
2504 04-02-2015 22:00:00 -2.3 C 3.88 g/m*3 -2.3 C 0 km/h
2505 04-02-2015 22:05:00 -2.3 C 3.88 g/m*3 -2.3 C 0 km/h
2506 04-02-2015 22:10:00 -2.3 C 3.88 g/m*3 -2.3 C 1.6 km/h
2507 04-02-2015 22:15:00 -2.4 C 3.85 g/m*3 -2.4 C 0 km/h
2508 04-02-2015 22:20:00 -2.4 C 3.85 g/m*3 -2.4 C 0 km/h
2509 04-02-2015 22:25:00 -2.4 C 3.85 g/m*3 -2.4 C 0 km/h
2510 04-02-2015 22:30:00 -2.5 C 3.83 g/m*3 -2.5 C 0 km/h
2511 04-02-2015 22:35:00 -2.5 C 3.83 g/m*3 -2.5 C 0 km/h
2512 04-02-2015 22:40:00 -2.6 C 3.8 g/m*3 -2.6 C 0 km/h
2513 04-02-2015 22:45:00 -2.6 C 3.8 g/m*3 -2.6 C 0 km/h
2514 04-02-2015 22:50:00 -2.6 C 3.8 g/m*3 -2.6 C 0 km/h
2515 04-02-2015 22:55:00 -2.6 C 3.8 g/m*3 -2.6 C 0 km/h
2516 04-02-2015 23:00:00 -2.6 C 3.8 g/m*3 -2.6 C 0 km/h
2517 04-02-2015 23:05:00 -2.6 C 3.8 g/m*3 -2.6 C 0 km/h
2518 04-02-2015 23:10:00 -2.6 C 3.8 g/m*3 -2.6 C 0 km/h
2519 04-02-2015 23:15:00 -2.6 C 3.8 g/m*3 -2.6 C 0 km/h
2520 04-02-2015 23:20:00 -2.6 C 3.8 g/m*3 -2.6 C 0 km/h
2521 04-02-2015 23:25:00 -2.7 C 3.77 g/m*3 -2.7 C 0 km/h
2522 04-02-2015 23:30:00 -2.7 C 3.77 g/m*3 -2.7 C 3.2 km/h
2523 04-02-2015 23:35:00 -2.6 C 3.84 g/m*3 -2.6 C 3.2 km/h
2524 04-02-2015 23:40:00 -2.6 C 3.84 g/m*3 -2.6 C 0 km/h
2525 04-02-2015 23:45:00 -2.6 C 3.8 g/m*3 -2.6 C 0 km/h
Sensor: Nr:Datum:Temp:Abs-Feuchte:Windchill:Wind:
Aussen-T/F 2526 04-02-2015 23:50:00 -2.7 C 3.77 g/m*3 -2.7 C 3.2 km/h
2527 04-02-2015 23:55:00 -2.6 C 3.8 g/m*3 -2.6 C 1.6 km/h
2528 05-02-2015 00:00:00 -2.6 C 3.84 g/m*3 -2.6 C 1.6 km/h
2529 05-02-2015 00:05:00 -2.6 C 3.8 g/m*3 -2.6 C 1.6 km/h
2530 05-02-2015 00:10:00 -2.7 C 3.77 g/m*3 -2.7 C 1.6 km/h
2531 05-02-2015 00:15:00 -2.7 C 3.77 g/m*3 -2.7 C 1.6 km/h
2532 05-02-2015 00:20:00 -2.8 C 3.75 g/m*3 -2.8 C 1.6 km/h
2533 05-02-2015 00:25:00 -2.8 C 3.75 g/m*3 -2.8 C 1.6 km/h
2534 05-02-2015 00:30:00 -2.9 C 3.72 g/m*3 -2.9 C 1.6 km/h
2535 05-02-2015 00:35:00 -3 C 3.69 g/m*3 -3 C 3.2 km/h
2536 05-02-2015 00:40:00 -3 C 3.69 g/m*3 -3 C 1.6 km/h
2537 05-02-2015 00:45:00 -3 C 3.69 g/m*3 -3 C 0 km/h
2538 05-02-2015 00:50:00 -3.1 C 3.67 g/m*3 -3.1 C 0 km/h
2539 05-02-2015 00:55:00 -3.2 C 3.64 g/m*3 -3.2 C 1.6 km/h
2540 05-02-2015 01:00:00 -3.2 C 3.68 g/m*3 -3.2 C 1.6 km/h
2541 05-02-2015 01:05:00 -3.2 C 3.68 g/m*3 -3.2 C 0 km/h
2542 05-02-2015 01:10:00 -3.2 C 3.64 g/m*3 -3.2 C 0 km/h
2543 05-02-2015 01:15:00 -3.3 C 3.65 g/m*3 -3.3 C 0 km/h
2544 05-02-2015 01:20:00 -3.3 C 3.61 g/m*3 -3.3 C 0 km/h
2545 05-02-2015 01:25:00 -3.3 C 3.65 g/m*3 -3.3 C 1.6 km/h
2546 05-02-2015 01:30:00 -3.4 C 3.63 g/m*3 -3.4 C 0 km/h
2547 05-02-2015 01:35:00 -3.4 C 3.63 g/m*3 -3.4 C 0 km/h
2548 05-02-2015 01:40:00 -3.5 C 3.6 g/m*3 -3.5 C 0 km/h
2549 05-02-2015 01:45:00 -3.6 C 3.54 g/m*3 -3.6 C 0 km/h
2550 05-02-2015 01:50:00 -3.6 C 3.58 g/m*3 -3.6 C 0 km/h
Sensor: Nr:Datum:Temp:Abs-Feuchte:Windchill:Wind:
Aussen-T/F 2551 05-02-2015 01:55:00 -3.7 C 3.55 g/m*3 -3.7 C 0 km/h
2552 05-02-2015 02:00:00 -3.7 C 3.55 g/m*3 -3.7 C 0 km/h
2553 05-02-2015 02:05:00 -3.7 C 3.55 g/m*3 -3.7 C 0 km/h
2554 05-02-2015 02:10:00 -3.8 C 3.53 g/m*3 -3.8 C 0 km/h
2555 05-02-2015 02:15:00 -3.8 C 3.53 g/m*3 -3.8 C 0 km/h
2556 05-02-2015 02:20:00 -3.7 C 3.55 g/m*3 -3.7 C 0 km/h
2557 05-02-2015 02:25:00 -3.8 C 3.53 g/m*3 -3.8 C 1.6 km/h
2558 05-02-2015 02:30:00 -3.8 C 3.53 g/m*3 -3.8 C 0 km/h
2559 05-02-2015 02:35:00 -3.8 C 3.53 g/m*3 -3.8 C 1.6 km/h
2560 05-02-2015 02:40:00 -3.7 C 3.55 g/m*3 -3.7 C 1.6 km/h
2561 05-02-2015 02:45:00 -3.7 C 3.55 g/m*3 -3.7 C 3.2 km/h
2562 05-02-2015 02:50:00 -3.5 C 3.6 g/m*3 -3.5 C 4.8 km/h
2563 05-02-2015 02:55:00 -3.5 C 3.6 g/m*3 -3.5 C 4.8 km/h
2564 05-02-2015 03:00:00 -3.6 C 3.58 g/m*3 -3.6 C 3.2 km/h
2565 05-02-2015 03:05:00 -3.6 C 3.54 g/m*3 -3.6 C 3.2 km/h
2566 05-02-2015 03:10:00 -3.6 C 3.54 g/m*3 -3.6 C 3.2 km/h
2567 05-02-2015 03:15:00 -3.7 C 3.51 g/m*3 -3.7 C 3.2 km/h
2568 05-02-2015 03:20:00 -3.7 C 3.51 g/m*3 -3.7 C 3.2 km/h
2569 05-02-2015 03:25:00 -3.8 C 3.49 g/m*3 -3.8 C 3.2 km/h
2570 05-02-2015 03:30:00 -3.8 C 3.49 g/m*3 -3.8 C 4.8 km/h
2571 05-02-2015 03:35:00 -3.8 C 3.49 g/m*3 -3.8 C 4.8 km/h
2572 05-02-2015 03:40:00 -3.8 C 3.49 g/m*3 -3.8 C 3.2 km/h
2573 05-02-2015 03:45:00 -3.9 C 3.43 g/m*3 -3.9 C 0 km/h
2574 05-02-2015 03:50:00 -3.9 C 3.43 g/m*3 -3.9 C 1.6 km/h
2575 05-02-2015 03:55:00 -4 C 3.4 g/m*3 -4 C 0 km/h
Sensor: Nr:Datum:Temp:Abs-Feuchte:Windchill:Wind:
Aussen-T/F 2576 05-02-2015 04:00:00 -4.1 C 3.38 g/m*3 -4.1 C 1.6 km/h
2577 05-02-2015 04:05:00 -4.2 C 3.35 g/m*3 -4.2 C 0 km/h
2578 05-02-2015 04:10:00 -4.2 C 3.35 g/m*3 -4.2 C 3.2 km/h
2579 05-02-2015 04:15:00 -4.2 C 3.35 g/m*3 -4.2 C 1.6 km/h
2580 05-02-2015 04:20:00 -4.2 C 3.39 g/m*3 -4.2 C 4.8 km/h
2581 05-02-2015 04:25:00 -4.2 C 3.39 g/m*3 -4.2 C 4.8 km/h
2582 05-02-2015 04:30:00 -4.2 C 3.39 g/m*3 -4.2 C 3.2 km/h
2583 05-02-2015 04:35:00 -4.2 C 3.39 g/m*3 -4.2 C 0 km/h
2584 05-02-2015 04:40:00 -4.2 C 3.39 g/m*3 -4.2 C 3.2 km/h
2585 05-02-2015 04:45:00 -4.2 C 3.39 g/m*3 -4.2 C 3.2 km/h
2586 05-02-2015 04:50:00 -4.2 C 3.39 g/m*3 -4.2 C 1.6 km/h
2587 05-02-2015 04:55:00 -4.2 C 3.39 g/m*3 -4.2 C 3.2 km/h
2588 05-02-2015 05:00:00 -4.2 C 3.39 g/m*3 -4.2 C 4.8 km/h
2589 05-02-2015 05:05:00 -4.3 C 3.33 g/m*3 -4.3 C 3.2 km/h
2590 05-02-2015 05:10:00 -4.2 C 3.39 g/m*3 -4.2 C 3.2 km/h
2591 05-02-2015 05:15:00 -4.2 C 3.39 g/m*3 -4.2 C 1.6 km/h
2592 05-02-2015 05:20:00 -4.3 C 3.33 g/m*3 -4.3 C 1.6 km/h
2593 05-02-2015 05:25:00 -4.3 C 3.33 g/m*3 -4.3 C 0 km/h
2594 05-02-2015 05:30:00 -4.4 C 3.31 g/m*3 -4.4 C 0 km/h
2595 05-02-2015 05:35:00 -4.4 C 3.31 g/m*3 -4.4 C 0 km/h
2596 05-02-2015 05:40:00 -4.4 C 3.31 g/m*3 -4.4 C 0 km/h
2597 05-02-2015 05:45:00 -4.4 C 3.31 g/m*3 -4.4 C 0 km/h
2598 05-02-2015 05:50:00 -4.5 C 3.28 g/m*3 -4.5 C 0 km/h
2599 05-02-2015 05:55:00 -4.6 C 3.26 g/m*3 -4.6 C 0 km/h
2600 05-02-2015 06:00:00 -4.6 C 3.26 g/m*3 -4.6 C 0 km/h
Sensor: Nr:Datum:Temp:Abs-Feuchte:Windchill:Wind:
Aussen-T/F 2601 05-02-2015 06:05:00 -4.6 C 3.26 g/m*3 -4.6 C 0 km/h
2602 05-02-2015 06:10:00 -4.7 C 3.24 g/m*3 -4.7 C 0 km/h
2603 05-02-2015 06:15:00 -4.7 C 3.24 g/m*3 -4.7 C 0 km/h
2604 05-02-2015 06:20:00 -4.7 C 3.24 g/m*3 -4.7 C 0 km/h
2605 05-02-2015 06:25:00 -4.7 C 3.27 g/m*3 -4.7 C 0 km/h
2606 05-02-2015 06:30:00 -4.6 C 3.29 g/m*3 -4.6 C 1.6 km/h
2607 05-02-2015 06:35:00 -4.6 C 3.29 g/m*3 -4.6 C 0 km/h
2608 05-02-2015 06:40:00 -4.5 C 3.32 g/m*3 -4.5 C 0 km/h
2609 05-02-2015 06:45:00 -4.4 C 3.34 g/m*3 -4.4 C 0 km/h
2610 05-02-2015 06:50:00 -4.4 C 3.34 g/m*3 -4.4 C 0 km/h
2611 05-02-2015 06:55:00 -4.3 C 3.37 g/m*3 -4.3 C 0 km/h
2612 05-02-2015 07:00:00 -4.3 C 3.37 g/m*3 -4.3 C 0 km/h
2613 05-02-2015 07:05:00 -4.3 C 3.37 g/m*3 -4.3 C 0 km/h
2614 05-02-2015 07:10:00 -4.2 C 3.43 g/m*3 -4.2 C 0 km/h
2615 05-02-2015 07:15:00 -4.1 C 3.45 g/m*3 -4.1 C 0 km/h
2616 05-02-2015 07:20:00 -3.9 C 3.5 g/m*3 -3.9 C 0 km/h
2617 05-02-2015 07:25:00 -3.8 C 3.53 g/m*3 -3.8 C 0 km/h
2618 05-02-2015 07:30:00 -3.8 C 3.49 g/m*3 -3.8 C 0 km/h
2619 05-02-2015 07:35:00 -3.8 C 3.49 g/m*3 -3.8 C 0 km/h
2620 05-02-2015 07:40:00 -3.7 C 3.51 g/m*3 -3.7 C 3.2 km/h
2621 05-02-2015 07:45:00 -3.7 C 3.51 g/m*3 -3.7 C 1.6 km/h
2622 05-02-2015 07:50:00 -3.6 C 3.54 g/m*3 -3.6 C 1.6 km/h
2623 05-02-2015 07:55:00 -3.6 C 3.54 g/m*3 -3.6 C 1.6 km/h
2624 05-02-2015 17:00:00 1.1 C 3.66 g/m*3 -3.25 C 16.1 km/h
2625 05-02-2015 17:05:00 1 C 3.63 g/m*3 -3.09 C 14.5 km/h
Sensor: Nr:Datum:Temp:Abs-Feuchte:Windchill:Wind:
Aussen-T/F 2626 05-02-2015 17:10:00 0.9 C 3.61 g/m*3 -2.9 C 12.9 km/h
2627 05-02-2015 17:15:00 0.9 C 3.61 g/m*3 -3.5 C 16.1 km/h
2628 05-02-2015 17:20:00 0.8 C 3.58 g/m*3 -3.62 C 16.1 km/h
2629 05-02-2015 17:25:00 0.8 C 3.58 g/m*3 -4.77 C 24.1 km/h
2630 05-02-2015 17:30:00 0.8 C 3.63 g/m*3 -3.02 C 12.9 km/h
2631 05-02-2015 17:35:00 0.7 C 3.66 g/m*3 -4.01 C 17.7 km/h
2632 05-02-2015 17:40:00 0.7 C 3.66 g/m*3 -2.4 C 9.7 km/h
2633 05-02-2015 17:45:00 0.7 C 3.66 g/m*3 -3.15 C 12.9 km/h
2634 05-02-2015 17:50:00 0.7 C 3.66 g/m*3 -3.15 C 12.9 km/h
2635 05-02-2015 17:55:00 0.7 C 3.66 g/m*3 -1.95 C 8.1 km/h
2636 05-02-2015 18:00:00 0.7 C 3.66 g/m*3 -2.4 C 9.7 km/h
2637 05-02-2015 18:05:00 0.7 C 3.71 g/m*3 -3.46 C 14.5 km/h
2638 05-02-2015 18:10:00 0.7 C 3.71 g/m*3 -3.75 C 16.1 km/h
2639 05-02-2015 18:15:00 0.7 C 3.66 g/m*3 -3.75 C 16.1 km/h
2640 05-02-2015 18:20:00 0.7 C 3.66 g/m*3 -3.46 C 14.5 km/h
2641 05-02-2015 18:25:00 0.7 C 3.66 g/m*3 -4.01 C 17.7 km/h
2642 05-02-2015 18:30:00 0.7 C 3.71 g/m*3 -3.46 C 14.5 km/h
2643 05-02-2015 18:35:00 0.6 C 3.64 g/m*3 -3.58 C 14.5 km/h
2644 05-02-2015 18:40:00 0.6 C 3.64 g/m*3 -3.27 C 12.9 km/h
2645 05-02-2015 18:45:00 0.6 C 3.64 g/m*3 -3.27 C 12.9 km/h
2646 05-02-2015 18:50:00 0.6 C 3.64 g/m*3 -3.58 C 14.5 km/h
2647 05-02-2015 18:55:00 0.6 C 3.69 g/m*3 -2.06 C 8.1 km/h
2648 05-02-2015 19:00:00 0.5 C 3.66 g/m*3 -3.04 C 11.3 km/h
2649 05-02-2015 19:05:00 0.5 C 3.71 g/m*3 -3.04 C 11.3 km/h
2650 05-02-2015 19:10:00 0.4 C 3.69 g/m*3 -3.16 C 11.3 km/h
Sensor: Nr:Datum:Temp:Abs-Feuchte:Windchill:Wind:
Aussen-T/F 2651 05-02-2015 19:15:00 0.4 C 3.74 g/m*3 -2.76 C 9.7 km/h
2652 05-02-2015 19:20:00 0.4 C 3.74 g/m*3 -3.16 C 11.3 km/h
2653 05-02-2015 19:25:00 0.4 C 3.74 g/m*3 -2.3 C 8.1 km/h
2654 05-02-2015 19:30:00 0.4 C 3.69 g/m*3 -3.16 C 11.3 km/h
2655 05-02-2015 19:35:00 0.5 C 3.66 g/m*3 -3.71 C 14.5 km/h
2656 05-02-2015 19:40:00 0.6 C 3.69 g/m*3 -3.87 C 16.1 km/h
2657 05-02-2015 19:45:00 0.6 C 3.69 g/m*3 -4.14 C 17.7 km/h
2658 05-02-2015 19:50:00 0.6 C 3.69 g/m*3 -2.52 C 9.7 km/h
2659 05-02-2015 19:55:00 0.6 C 3.69 g/m*3 -2.92 C 11.3 km/h
2660 05-02-2015 20:00:00 0.6 C 3.69 g/m*3 -2.06 C 8.1 km/h
2661 05-02-2015 20:05:00 0.6 C 3.64 g/m*3 -3.27 C 12.9 km/h
2662 05-02-2015 20:10:00 0.7 C 3.66 g/m*3 -2.8 C 11.3 km/h
2663 05-02-2015 20:15:00 0.7 C 3.61 g/m*3 -2.4 C 9.7 km/h
2664 05-02-2015 20:20:00 0.7 C 3.56 g/m*3 -3.15 C 12.9 km/h
2665 05-02-2015 20:25:00 0.7 C 3.56 g/m*3 -3.46 C 14.5 km/h
2666 05-02-2015 20:30:00 0.7 C 3.56 g/m*3 -3.75 C 16.1 km/h
2667 05-02-2015 20:35:00 0.7 C 3.51 g/m*3 -3.75 C 16.1 km/h
2668 05-02-2015 20:40:00 0.6 C 3.48 g/m*3 -4.61 C 20.9 km/h
2669 05-02-2015 20:45:00 0.5 C 3.51 g/m*3 -2.64 C 9.7 km/h
2670 05-02-2015 20:50:00 0.5 C 3.51 g/m*3 -3.39 C 12.9 km/h
2671 05-02-2015 20:55:00 0.5 C 3.51 g/m*3 -4.51 C 19.3 km/h
2672 05-02-2015 21:00:00 0.4 C 3.49 g/m*3 -3.51 C 12.9 km/h
2673 05-02-2015 21:05:00 0.5 C 3.51 g/m*3 -3.71 C 14.5 km/h
2674 05-02-2015 21:10:00 0.4 C 3.49 g/m*3 -4.12 C 16.1 km/h
2675 05-02-2015 21:15:00 0.4 C 3.49 g/m*3 -3.83 C 14.5 km/h
Sensor: Nr:Datum:Temp:Abs-Feuchte:Windchill:Wind:
Aussen-T/F 2676 05-02-2015 21:20:00 0.3 C 3.51 g/m*3 -3.28 C 11.3 km/h
2677 05-02-2015 21:25:00 0.3 C 3.51 g/m*3 -2.42 C 8.1 km/h
2678 05-02-2015 21:30:00 0.3 C 3.51 g/m*3 -3.63 C 12.9 km/h
2679 05-02-2015 21:35:00 0.3 C 3.51 g/m*3 -3.95 C 14.5 km/h
2680 05-02-2015 21:40:00 0.3 C 3.46 g/m*3 -3.63 C 12.9 km/h
2681 05-02-2015 21:45:00 0.3 C 3.46 g/m*3 -3.63 C 12.9 km/h
2682 05-02-2015 21:50:00 0.2 C 3.49 g/m*3 -4.89 C 19.3 km/h
2683 05-02-2015 21:55:00 0.2 C 3.49 g/m*3 -3.4 C 11.3 km/h
2684 05-02-2015 22:00:00 0.2 C 3.49 g/m*3 -2.53 C 8.1 km/h
2685 05-02-2015 22:05:00 0.1 C 3.46 g/m*3 -3.52 C 11.3 km/h
2686 05-02-2015 22:10:00 0.1 C 3.46 g/m*3 -3.52 C 11.3 km/h
2687 05-02-2015 22:15:00 0.1 C 3.46 g/m*3 -5.25 C 20.9 km/h
2688 05-02-2015 22:20:00 0.1 C 3.46 g/m*3 -3.12 C 9.7 km/h
2689 05-02-2015 22:25:00 0 C 3.44 g/m*3 -2.77 C 8.1 km/h
2690 05-02-2015 22:30:00 0 C 3.49 g/m*3 -3.64 C 11.3 km/h
2691 05-02-2015 22:35:00 -0.1 C 3.46 g/m*3 -3.76 C 11.3 km/h
2692 05-02-2015 22:40:00 -0.1 C 3.46 g/m*3 -4.12 C 12.9 km/h
2693 05-02-2015 22:45:00 -0.1 C 3.46 g/m*3 -4.12 C 12.9 km/h
2694 05-02-2015 22:50:00 -0.1 C 3.51 g/m*3 -3.35 C 9.7 km/h
2695 05-02-2015 22:55:00 -0.1 C 3.51 g/m*3 -0.1 C 4.8 km/h
2696 05-02-2015 23:00:00 -0.2 C 3.49 g/m*3 -0.2 C 4.8 km/h
2697 05-02-2015 23:05:00 -0.2 C 3.49 g/m*3 -4.86 C 16.1 km/h
2698 05-02-2015 23:10:00 -0.2 C 3.54 g/m*3 -3 C 8.1 km/h
2699 05-02-2015 23:15:00 -0.2 C 3.54 g/m*3 -0.2 C 3.2 km/h
2700 05-02-2015 23:20:00 -0.2 C 3.54 g/m*3 -0.2 C 3.2 km/h
Sensor: Nr:Datum:Temp:Abs-Feuchte:Windchill:Wind:
Aussen-T/F 2701 05-02-2015 23:25:00 -0.2 C 3.54 g/m*3 -3.47 C 9.7 km/h
2702 05-02-2015 23:30:00 -0.2 C 3.54 g/m*3 -4.57 C 14.5 km/h
2703 05-02-2015 23:35:00 -0.2 C 3.54 g/m*3 -3.47 C 9.7 km/h
2704 05-02-2015 23:40:00 -0.2 C 3.54 g/m*3 -3.88 C 11.3 km/h
2705 05-02-2015 23:45:00 -0.2 C 3.54 g/m*3 -4.24 C 12.9 km/h
2706 05-02-2015 23:50:00 -0.2 C 3.54 g/m*3 -3.47 C 9.7 km/h
2707 05-02-2015 23:55:00 -0.2 C 3.54 g/m*3 -3 C 8.1 km/h
2708 06-02-2015 00:00:00 -0.2 C 3.54 g/m*3 -2.41 C 6.4 km/h
2709 06-02-2015 00:05:00 -0.2 C 3.54 g/m*3 -3.47 C 9.7 km/h
2710 06-02-2015 00:10:00 -0.1 C 3.56 g/m*3 -2.89 C 8.1 km/h
2711 06-02-2015 00:15:00 -0.1 C 3.56 g/m*3 -2.89 C 8.1 km/h
2712 06-02-2015 00:20:00 -0.1 C 3.56 g/m*3 -4.12 C 12.9 km/h
2713 06-02-2015 00:25:00 -0.1 C 3.56 g/m*3 -4.12 C 12.9 km/h
2714 06-02-2015 00:30:00 0 C 3.59 g/m*3 -3.23 C 9.7 km/h
2715 06-02-2015 00:35:00 0 C 3.59 g/m*3 -4 C 12.9 km/h
2716 06-02-2015 00:40:00 -0.1 C 3.56 g/m*3 -2.3 C 6.4 km/h
2717 06-02-2015 00:45:00 -0.1 C 3.56 g/m*3 -2.89 C 8.1 km/h
2718 06-02-2015 00:50:00 0 C 3.59 g/m*3 -3.23 C 9.7 km/h
2719 06-02-2015 00:55:00 0 C 3.59 g/m*3 -3.23 C 9.7 km/h
2720 06-02-2015 01:00:00 0 C 3.59 g/m*3 -5.8 C 24.1 km/h
2721 06-02-2015 01:05:00 0 C 3.59 g/m*3 -5.37 C 20.9 km/h
2722 06-02-2015 01:10:00 0 C 3.59 g/m*3 -3.64 C 11.3 km/h
2723 06-02-2015 01:15:00 0 C 3.59 g/m*3 -4.62 C 16.1 km/h
2724 06-02-2015 01:20:00 -0.1 C 3.56 g/m*3 -4.12 C 12.9 km/h
2725 06-02-2015 01:25:00 -0.1 C 3.56 g/m*3 -4.44 C 14.5 km/h
Sensor: Nr:Datum:Temp:Abs-Feuchte:Windchill:Wind:
Aussen-T/F 2726 06-02-2015 01:30:00 -0.1 C 3.56 g/m*3 -5.26 C 19.3 km/h
2727 06-02-2015 01:35:00 -0.1 C 3.56 g/m*3 -2.89 C 8.1 km/h
2728 06-02-2015 01:40:00 -0.1 C 3.56 g/m*3 -5.26 C 19.3 km/h
2729 06-02-2015 01:45:00 -0.1 C 3.56 g/m*3 -2.89 C 8.1 km/h
2730 06-02-2015 01:50:00 -0.1 C 3.56 g/m*3 -2.89 C 8.1 km/h
2731 06-02-2015 01:55:00 -0.1 C 3.61 g/m*3 -2.3 C 6.4 km/h
2732 06-02-2015 02:00:00 -0.1 C 3.61 g/m*3 -4.44 C 14.5 km/h
2733 06-02-2015 02:05:00 -0.1 C 3.61 g/m*3 -3.76 C 11.3 km/h
2734 06-02-2015 02:10:00 -0.1 C 3.61 g/m*3 -2.89 C 8.1 km/h
2735 06-02-2015 02:15:00 -0.1 C 3.61 g/m*3 -4.12 C 12.9 km/h
2736 06-02-2015 02:20:00 -0.1 C 3.56 g/m*3 -4.12 C 12.9 km/h
2737 06-02-2015 02:25:00 -0.1 C 3.56 g/m*3 -2.3 C 6.4 km/h
2738 06-02-2015 02:30:00 -0.1 C 3.56 g/m*3 -3.76 C 11.3 km/h
2739 06-02-2015 02:35:00 -0.1 C 3.56 g/m*3 -3.35 C 9.7 km/h
2740 06-02-2015 02:40:00 -0.1 C 3.61 g/m*3 -4.12 C 12.9 km/h
2741 06-02-2015 02:45:00 -0.1 C 3.61 g/m*3 -3.35 C 9.7 km/h
2742 06-02-2015 02:50:00 -0.1 C 3.61 g/m*3 -3.35 C 9.7 km/h
2743 06-02-2015 02:55:00 -0.2 C 3.58 g/m*3 -3 C 8.1 km/h
2744 06-02-2015 03:00:00 -0.2 C 3.54 g/m*3 -4.86 C 16.1 km/h
2745 06-02-2015 03:05:00 -0.3 C 3.51 g/m*3 -0.3 C 4.8 km/h
2746 06-02-2015 03:10:00 -0.4 C 3.49 g/m*3 -0.4 C 4.8 km/h
2747 06-02-2015 03:15:00 -0.4 C 3.44 g/m*3 -6.31 C 24.1 km/h
2748 06-02-2015 03:20:00 -0.5 C 3.46 g/m*3 -0.5 C 3.2 km/h
2749 06-02-2015 03:25:00 -0.5 C 3.46 g/m*3 -5.24 C 16.1 km/h
2750 06-02-2015 03:30:00 -0.6 C 3.39 g/m*3 -4.73 C 12.9 km/h
Sensor: Nr:Datum:Temp:Abs-Feuchte:Windchill:Wind:
Aussen-T/F 2751 06-02-2015 03:35:00 -0.7 C 3.42 g/m*3 -0.7 C 4.8 km/h
2752 06-02-2015 03:40:00 -0.7 C 3.42 g/m*3 -0.7 C 4.8 km/h
2753 06-02-2015 03:45:00 -0.8 C 3.44 g/m*3 -3.71 C 8.1 km/h
2754 06-02-2015 03:50:00 -0.8 C 3.44 g/m*3 -4.97 C 12.9 km/h
2755 06-02-2015 03:55:00 -0.7 C 3.46 g/m*3 -4.07 C 9.7 km/h
2756 06-02-2015 04:00:00 -0.7 C 3.46 g/m*3 -0.7 C 4.8 km/h
2757 06-02-2015 04:05:00 -0.8 C 3.44 g/m*3 -3.11 C 6.4 km/h
2758 06-02-2015 04:10:00 -0.7 C 3.46 g/m*3 -0.7 C 1.6 km/h
2759 06-02-2015 04:15:00 -0.7 C 3.46 g/m*3 -0.7 C 3.2 km/h
2760 06-02-2015 04:20:00 -0.7 C 3.42 g/m*3 -4.48 C 11.3 km/h
2761 06-02-2015 04:25:00 -0.6 C 3.44 g/m*3 -5.06 C 14.5 km/h
2762 06-02-2015 04:30:00 -0.5 C 3.46 g/m*3 -4.94 C 14.5 km/h
2763 06-02-2015 04:35:00 -0.4 C 3.49 g/m*3 -3.71 C 9.7 km/h
2764 06-02-2015 04:40:00 -0.4 C 3.49 g/m*3 -3.71 C 9.7 km/h
2765 06-02-2015 04:45:00 -0.4 C 3.49 g/m*3 -2.64 C 6.4 km/h
2766 06-02-2015 04:50:00 -0.4 C 3.49 g/m*3 -4.49 C 12.9 km/h
2767 06-02-2015 04:55:00 -0.4 C 3.49 g/m*3 -0.4 C 4.8 km/h
2768 06-02-2015 05:00:00 -0.4 C 3.49 g/m*3 -4.49 C 12.9 km/h
2769 06-02-2015 05:05:00 -0.4 C 3.49 g/m*3 -3.24 C 8.1 km/h
2770 06-02-2015 05:10:00 -0.3 C 3.51 g/m*3 -4.36 C 12.9 km/h
2771 06-02-2015 05:15:00 -0.3 C 3.51 g/m*3 -3.59 C 9.7 km/h
2772 06-02-2015 05:20:00 -0.4 C 3.49 g/m*3 -4.12 C 11.3 km/h
2773 06-02-2015 05:25:00 -0.4 C 3.49 g/m*3 -2.64 C 6.4 km/h
2774 06-02-2015 05:30:00 -0.4 C 3.49 g/m*3 -0.4 C 3.2 km/h
2775 06-02-2015 05:35:00 -0.4 C 3.49 g/m*3 -3.71 C 9.7 km/h
Sensor: Nr:Datum:Temp:Abs-Feuchte:Windchill:Wind:
Aussen-T/F 2776 06-02-2015 05:40:00 -0.4 C 3.49 g/m*3 -2.64 C 6.4 km/h
2777 06-02-2015 05:45:00 -0.5 C 3.46 g/m*3 -5.51 C 17.7 km/h
2778 06-02-2015 05:50:00 -0.5 C 3.51 g/m*3 -0.5 C 4.8 km/h
2779 06-02-2015 05:55:00 -0.5 C 3.51 g/m*3 -4.61 C 12.9 km/h
2780 06-02-2015 06:00:00 -0.5 C 3.46 g/m*3 -3.83 C 9.7 km/h
2781 06-02-2015 06:05:00 -0.5 C 3.46 g/m*3 -4.24 C 11.3 km/h
2782 06-02-2015 06:10:00 -0.5 C 3.46 g/m*3 -3.36 C 8.1 km/h
2783 06-02-2015 06:15:00 -0.6 C 3.44 g/m*3 -3.95 C 9.7 km/h
2784 06-02-2015 06:20:00 -0.6 C 3.44 g/m*3 -3.95 C 9.7 km/h
2785 06-02-2015 06:25:00 -0.7 C 3.42 g/m*3 -5.76 C 17.7 km/h
2786 06-02-2015 06:30:00 -0.7 C 3.46 g/m*3 -3.59 C 8.1 km/h
2787 06-02-2015 06:35:00 -0.7 C 3.46 g/m*3 -0.7 C 3.2 km/h
2788 06-02-2015 06:40:00 -0.7 C 3.46 g/m*3 -3.59 C 8.1 km/h
2789 06-02-2015 06:45:00 -0.7 C 3.46 g/m*3 -3.59 C 8.1 km/h
2790 06-02-2015 06:50:00 -0.7 C 3.46 g/m*3 -4.85 C 12.9 km/h
2791 06-02-2015 06:55:00 -0.7 C 3.46 g/m*3 -2.99 C 6.4 km/h
2792 06-02-2015 07:00:00 -0.7 C 3.46 g/m*3 -0.7 C 4.8 km/h
2793 06-02-2015 07:05:00 -0.7 C 3.46 g/m*3 -4.48 C 11.3 km/h
2794 06-02-2015 07:10:00 -0.7 C 3.42 g/m*3 -3.59 C 8.1 km/h
2795 06-02-2015 07:15:00 -0.7 C 3.46 g/m*3 -4.48 C 11.3 km/h
2796 06-02-2015 07:20:00 -0.6 C 3.44 g/m*3 -4.73 C 12.9 km/h
2797 06-02-2015 07:25:00 -0.6 C 3.44 g/m*3 -2.88 C 6.4 km/h
2798 06-02-2015 07:30:00 -0.6 C 3.44 g/m*3 -3.95 C 9.7 km/h
2799 06-02-2015 07:35:00 -0.6 C 3.44 g/m*3 -3.95 C 9.7 km/h
2800 06-02-2015 07:40:00 -0.6 C 3.49 g/m*3 -3.48 C 8.1 km/h
Sensor: Nr:Datum:Temp:Abs-Feuchte:Windchill:Wind:
Aussen-T/F 2801 06-02-2015 07:45:00 -0.7 C 3.46 g/m*3 -4.48 C 11.3 km/h
2802 06-02-2015 07:50:00 -0.6 C 3.49 g/m*3 -3.95 C 9.7 km/h
2803 06-02-2015 07:55:00 -0.6 C 3.49 g/m*3 -4.36 C 11.3 km/h
2804 06-02-2015 08:00:00 -0.5 C 3.51 g/m*3 -3.83 C 9.7 km/h
2805 06-02-2015 08:05:00 -0.4 C 3.49 g/m*3 -5.11 C 16.1 km/h
2806 06-02-2015 08:10:00 -0.3 C 3.51 g/m*3 -3.12 C 8.1 km/h
2807 06-02-2015 08:15:00 -0.3 C 3.51 g/m*3 -3.59 C 9.7 km/h
2808 06-02-2015 08:20:00 -0.3 C 3.51 g/m*3 -4 C 11.3 km/h
2809 06-02-2015 08:25:00 -0.3 C 3.51 g/m*3 -4.69 C 14.5 km/h
2810 06-02-2015 08:30:00 -0.2 C 3.49 g/m*3 -5.14 C 17.7 km/h
2811 06-02-2015 08:35:00 -0.2 C 3.49 g/m*3 -4.24 C 12.9 km/h
2812 06-02-2015 08:40:00 -0.2 C 3.49 g/m*3 -5.39 C 19.3 km/h
2813 06-02-2015 08:45:00 -0.2 C 3.49 g/m*3 -3 C 8.1 km/h
2814 06-02-2015 08:50:00 -0.1 C 3.51 g/m*3 -2.89 C 8.1 km/h
2815 06-02-2015 08:55:00 -0.1 C 3.51 g/m*3 -4.12 C 12.9 km/h
2816 06-02-2015 09:00:00 -0.1 C 3.51 g/m*3 -3.76 C 11.3 km/h
2817 06-02-2015 09:05:00 -0.1 C 3.51 g/m*3 -4.12 C 12.9 km/h
2818 06-02-2015 09:10:00 0 C 3.54 g/m*3 -3.64 C 11.3 km/h
2819 06-02-2015 09:15:00 0 C 3.54 g/m*3 -2.18 C 6.4 km/h
2820 06-02-2015 09:20:00 0.1 C 3.56 g/m*3 -3.52 C 11.3 km/h
2821 06-02-2015 09:25:00 0.1 C 3.56 g/m*3 -3.52 C 11.3 km/h
2822 06-02-2015 09:30:00 0.1 C 3.51 g/m*3 -3.88 C 12.9 km/h
2823 06-02-2015 09:35:00 0.1 C 3.51 g/m*3 -4.2 C 14.5 km/h
2824 06-02-2015 09:40:00 0.1 C 3.51 g/m*3 -4.76 C 17.7 km/h
2825 06-02-2015 09:45:00 0.1 C 3.51 g/m*3 -4.49 C 16.1 km/h
Sensor: Nr:Datum:Temp:Abs-Feuchte:Windchill:Wind:
Aussen-T/F 2826 06-02-2015 09:50:00 0.2 C 3.54 g/m*3 -3 C 9.7 km/h
2827 06-02-2015 09:55:00 0.2 C 3.54 g/m*3 -3.75 C 12.9 km/h
2828 06-02-2015 10:00:00 0.2 C 3.54 g/m*3 -3.75 C 12.9 km/h
2829 06-02-2015 10:05:00 0.2 C 3.54 g/m*3 -4.64 C 17.7 km/h
2830 06-02-2015 10:10:00 0.2 C 3.49 g/m*3 -4.37 C 16.1 km/h
2831 06-02-2015 10:15:00 0.2 C 3.49 g/m*3 -5.12 C 20.9 km/h
2832 06-02-2015 10:20:00 0.3 C 3.51 g/m*3 -4.24 C 16.1 km/h
2833 06-02-2015 10:25:00 0.3 C 3.51 g/m*3 -4.24 C 16.1 km/h
2834 06-02-2015 10:30:00 0.4 C 3.54 g/m*3 -5.67 C 27.4 km/h
2835 06-02-2015 10:35:00 0.4 C 3.49 g/m*3 -3.16 C 11.3 km/h
2836 06-02-2015 10:40:00 0.3 C 3.51 g/m*3 -3.28 C 11.3 km/h
2837 06-02-2015 10:45:00 0.3 C 3.51 g/m*3 -2.88 C 9.7 km/h
2838 06-02-2015 10:50:00 0.3 C 3.51 g/m*3 -3.28 C 11.3 km/h
2839 06-02-2015 10:55:00 0.3 C 3.51 g/m*3 -2.42 C 8.1 km/h
2840 06-02-2015 11:00:00 0.3 C 3.51 g/m*3 -4.24 C 16.1 km/h
2841 06-02-2015 11:05:00 0.4 C 3.54 g/m*3 -3.83 C 14.5 km/h
2842 06-02-2015 11:10:00 0.4 C 3.54 g/m*3 -4.39 C 17.7 km/h
2843 06-02-2015 11:15:00 0.4 C 3.49 g/m*3 -4.87 C 20.9 km/h
2844 06-02-2015 11:20:00 0.5 C 3.51 g/m*3 -3.39 C 12.9 km/h
2845 06-02-2015 11:25:00 0.6 C 3.53 g/m*3 -2.06 C 8.1 km/h
2846 06-02-2015 11:30:00 0.7 C 3.56 g/m*3 -3.46 C 14.5 km/h
2847 06-02-2015 11:35:00 0.7 C 3.56 g/m*3 -4.01 C 17.7 km/h
2848 06-02-2015 11:40:00 0.8 C 3.53 g/m*3 -4.13 C 19.3 km/h
2849 06-02-2015 11:45:00 0.8 C 3.53 g/m*3 -3.89 C 17.7 km/h
2850 06-02-2015 11:50:00 0.9 C 3.56 g/m*3 -3.21 C 14.5 km/h
Sensor: Nr:Datum:Temp:Abs-Feuchte:Windchill:Wind:
Aussen-T/F 2851 06-02-2015 11:55:00 0.9 C 3.51 g/m*3 -3.21 C 14.5 km/h
2852 06-02-2015 12:00:00 1 C 3.58 g/m*3 -2.43 C 11.3 km/h
2853 06-02-2015 12:05:00 1.1 C 3.55 g/m*3 -3.98 C 20.9 km/h
2854 06-02-2015 12:10:00 1.2 C 3.58 g/m*3 -2.54 C 12.9 km/h
2855 06-02-2015 12:15:00 1.3 C 3.55 g/m*3 -2.41 C 12.9 km/h
2856 06-02-2015 12:20:00 1.3 C 3.55 g/m*3 -2.72 C 14.5 km/h
2857 06-02-2015 12:25:00 1.4 C 3.52 g/m*3 -1.57 C 9.7 km/h
2858 06-02-2015 12:30:00 1.5 C 3.54 g/m*3 -2.17 C 12.9 km/h
2859 06-02-2015 12:35:00 1.7 C 3.54 g/m*3 -2.23 C 14.5 km/h
2860 06-02-2015 12:40:00 1.8 C 3.51 g/m*3 -2.64 C 17.7 km/h
2861 06-02-2015 12:45:00 1.9 C 3.48 g/m*3 -3.36 C 24.1 km/h
2862 06-02-2015 12:50:00 1.9 C 3.53 g/m*3 -0.97 C 9.7 km/h
2863 06-02-2015 12:55:00 2 C 3.56 g/m*3 -0.85 C 9.7 km/h
2864 06-02-2015 13:00:00 2.1 C 3.52 g/m*3 -0.73 C 9.7 km/h
2865 06-02-2015 13:05:00 2.2 C 3.49 g/m*3 -2.59 C 20.9 km/h
2866 06-02-2015 13:10:00 2.2 C 3.55 g/m*3 -2.59 C 20.9 km/h
2867 06-02-2015 13:15:00 2.3 C 3.52 g/m*3 -2.24 C 19.3 km/h
2868 06-02-2015 13:20:00 2.4 C 3.54 g/m*3 -2.33 C 20.9 km/h
2869 06-02-2015 13:25:00 2.4 C 3.54 g/m*3 -1.64 C 16.1 km/h
2870 06-02-2015 13:30:00 2.6 C 3.59 g/m*3 -1.87 C 19.3 km/h
2871 06-02-2015 13:35:00 2.6 C 3.53 g/m*3 -0.83 C 12.9 km/h
2872 06-02-2015 13:40:00 2.7 C 3.61 g/m*3 -1 C 14.5 km/h
2873 06-02-2015 13:45:00 2.8 C 3.58 g/m*3 -1.61 C 19.3 km/h
2874 06-02-2015 13:50:00 2.9 C 3.54 g/m*3 -1.49 C 19.3 km/h
2875 06-02-2015 13:55:00 3 C 3.57 g/m*3 -1.57 C 20.9 km/h
Sensor: Nr:Datum:Temp:Abs-Feuchte:Windchill:Wind:
Aussen-T/F 2876 06-02-2015 14:00:00 3.1 C 3.59 g/m*3 0.46 C 9.7 km/h
2877 06-02-2015 14:05:00 3.2 C 3.56 g/m*3 -0.89 C 17.7 km/h
2878 06-02-2015 14:10:00 3.3 C 3.52 g/m*3 -2.22 C 30.6 km/h
2879 06-02-2015 14:15:00 3.3 C 3.52 g/m*3 -2.22 C 30.6 km/h
2880 06-02-2015 14:20:00 3.4 C 3.54 g/m*3 -0.64 C 17.7 km/h
2881 06-02-2015 14:25:00 3.4 C 3.54 g/m*3 -0.86 C 19.3 km/h
2882 06-02-2015 14:30:00 3.4 C 3.6 g/m*3 -0.64 C 17.7 km/h
2883 06-02-2015 14:35:00 3.4 C 3.48 g/m*3 -0.86 C 19.3 km/h
2884 06-02-2015 14:40:00 3.3 C 3.58 g/m*3 0.34 C 11.3 km/h
2885 06-02-2015 14:45:00 3.4 C 3.54 g/m*3 -0.86 C 19.3 km/h
2886 06-02-2015 14:50:00 3.4 C 3.54 g/m*3 1.23 C 8.1 km/h
2887 06-02-2015 14:55:00 3.6 C 3.59 g/m*3 1.46 C 8.1 km/h
2888 06-02-2015 15:00:00 3.6 C 3.53 g/m*3 -0.15 C 16.1 km/h
2889 06-02-2015 15:05:00 3.8 C 3.51 g/m*3 2.21 C 6.4 km/h
2890 06-02-2015 15:10:00 3.9 C 3.47 g/m*3 2.32 C 6.4 km/h
2891 06-02-2015 15:15:00 4 C 3.43 g/m*3 4 C 4.8 km/h
2892 06-02-2015 15:20:00 4 C 3.43 g/m*3 2.44 C 6.4 km/h
2893 06-02-2015 15:25:00 3.9 C 3.47 g/m*3 1.82 C 8.1 km/h
2894 06-02-2015 15:30:00 3.9 C 3.35 g/m*3 0.75 C 12.9 km/h
2895 06-02-2015 15:35:00 3.9 C 3.35 g/m*3 1.06 C 11.3 km/h
2896 06-02-2015 15:40:00 3.8 C 3.32 g/m*3 1.7 C 8.1 km/h
2897 06-02-2015 15:45:00 3.6 C 3.34 g/m*3 0.7 C 11.3 km/h
2898 06-02-2015 15:50:00 3.4 C 3.36 g/m*3 1.23 C 8.1 km/h
2899 06-02-2015 15:55:00 3.3 C 3.4 g/m*3 1.11 C 8.1 km/h
2900 06-02-2015 16:00:00 3.2 C 3.25 g/m*3 1.51 C 6.4 km/h
Sensor: Nr:Datum:Temp:Abs-Feuchte:Windchill:Wind:
Aussen-T/F 2901 06-02-2015 16:05:00 3.2 C 3.37 g/m*3 0.58 C 9.7 km/h
2902 06-02-2015 16:10:00 3.2 C 3.31 g/m*3 1.51 C 6.4 km/h
2903 06-02-2015 16:15:00 3.1 C 3.47 g/m*3 1.4 C 6.4 km/h
2904 06-02-2015 16:20:00 3 C 3.33 g/m*3 -0.34 C 12.9 km/h
2905 06-02-2015 16:25:00 2.9 C 3.31 g/m*3 -0.46 C 12.9 km/h
2906 06-02-2015 16:30:00 2.9 C 3.43 g/m*3 1.17 C 6.4 km/h
2907 06-02-2015 16:35:00 2.8 C 3.23 g/m*3 -0.88 C 14.5 km/h
2908 06-02-2015 16:40:00 2.8 C 3.28 g/m*3 0.52 C 8.1 km/h
2909 06-02-2015 16:45:00 2.8 C 3.23 g/m*3 -1.61 C 19.3 km/h
2910 06-02-2015 16:50:00 2.8 C 3.17 g/m*3 -2.02 C 22.5 km/h
2911 06-02-2015 16:55:00 2.7 C 3.15 g/m*3 -1.95 C 20.9 km/h
2912 06-02-2015 17:00:00 2.6 C 3.18 g/m*3 -0.83 C 12.9 km/h
2913 06-02-2015 17:05:00 2.5 C 3.22 g/m*3 -0.95 C 12.9 km/h
2914 06-02-2015 17:10:00 2.4 C 3.31 g/m*3 0.05 C 8.1 km/h
2915 06-02-2015 17:15:00 2.1 C 3.19 g/m*3 -0.3 C 8.1 km/h
2916 06-02-2015 17:20:00 2 C 3.22 g/m*3 -0.85 C 9.7 km/h
2917 06-02-2015 17:25:00 1.7 C 3.38 g/m*3 1.7 C 4.8 km/h
2918 06-02-2015 17:30:00 1.3 C 3.39 g/m*3 1.3 C 3.2 km/h
2919 06-02-2015 17:35:00 0.9 C 3.4 g/m*3 0.9 C 4.8 km/h
2920 06-02-2015 17:40:00 0.6 C 3.43 g/m*3 0.6 C 4.8 km/h
2921 06-02-2015 17:45:00 0.4 C 3.39 g/m*3 -1.72 C 6.4 km/h
2922 06-02-2015 17:50:00 0.3 C 3.41 g/m*3 0.3 C 4.8 km/h
2923 06-02-2015 17:55:00 0.2 C 3.39 g/m*3 -2.53 C 8.1 km/h
2924 06-02-2015 18:00:00 0.3 C 3.31 g/m*3 0.3 C 4.8 km/h
2925 06-02-2015 18:05:00 0.3 C 3.41 g/m*3 0.3 C 3.2 km/h
Sensor: Nr:Datum:Temp:Abs-Feuchte:Windchill:Wind:
Aussen-T/F 2926 06-02-2015 18:10:00 0.2 C 3.44 g/m*3 0.2 C 3.2 km/h
2927 06-02-2015 18:15:00 -0.1 C 3.37 g/m*3 -0.1 C 3.2 km/h
2928 06-02-2015 18:20:00 -0.1 C 3.37 g/m*3 -0.1 C 3.2 km/h
2929 06-02-2015 18:25:00 0.1 C 3.32 g/m*3 -2.65 C 8.1 km/h
2930 06-02-2015 18:30:00 0.3 C 3.36 g/m*3 0.3 C 3.2 km/h
2931 06-02-2015 18:35:00 0.4 C 3.34 g/m*3 -3.16 C 11.3 km/h
2932 06-02-2015 18:40:00 0.4 C 3.34 g/m*3 0.4 C 3.2 km/h
2933 06-02-2015 18:45:00 0.3 C 3.26 g/m*3 -3.28 C 11.3 km/h
2934 06-02-2015 18:50:00 0.3 C 3.36 g/m*3 0.3 C 3.2 km/h
2935 06-02-2015 18:55:00 0.1 C 3.37 g/m*3 0.1 C 3.2 km/h
2936 06-02-2015 19:00:00 -0.1 C 3.32 g/m*3 -2.3 C 6.4 km/h
2937 06-02-2015 19:05:00 0 C 3.34 g/m*3 0 C 3.2 km/h
2938 06-02-2015 19:10:00 -0.1 C 3.37 g/m*3 -0.1 C 3.2 km/h
2939 06-02-2015 19:15:00 -0.2 C 3.39 g/m*3 -0.2 C 3.2 km/h
2940 06-02-2015 19:20:00 -0.3 C 3.42 g/m*3 -0.3 C 1.6 km/h
2941 06-02-2015 19:25:00 -0.4 C 3.39 g/m*3 -0.4 C 0 km/h
2942 06-02-2015 19:30:00 -0.5 C 3.37 g/m*3 -0.5 C 0 km/h
2943 06-02-2015 19:35:00 -0.4 C 3.39 g/m*3 -0.4 C 3.2 km/h
2944 06-02-2015 19:40:00 -0.4 C 3.44 g/m*3 -0.4 C 3.2 km/h
2945 06-02-2015 19:45:00 -0.6 C 3.44 g/m*3 -0.6 C 3.2 km/h
2946 06-02-2015 19:50:00 -0.6 C 3.39 g/m*3 -0.6 C 3.2 km/h
2947 06-02-2015 19:55:00 -0.6 C 3.44 g/m*3 -0.6 C 3.2 km/h
2948 06-02-2015 20:00:00 -0.6 C 3.44 g/m*3 -0.6 C 3.2 km/h
2949 06-02-2015 20:05:00 -0.6 C 3.49 g/m*3 -0.6 C 3.2 km/h
2950 06-02-2015 20:10:00 -0.7 C 3.46 g/m*3 -0.7 C 3.2 km/h
Sensor: Nr:Datum:Temp:Abs-Feuchte:Windchill:Wind:
Aussen-T/F 2951 06-02-2015 20:15:00 -0.7 C 3.46 g/m*3 -0.7 C 3.2 km/h
2952 06-02-2015 20:20:00 -0.6 C 3.39 g/m*3 -2.88 C 6.4 km/h
2953 06-02-2015 20:25:00 -0.4 C 3.44 g/m*3 -0.4 C 3.2 km/h
2954 06-02-2015 20:30:00 -0.4 C 3.35 g/m*3 -3.24 C 8.1 km/h
2955 06-02-2015 20:35:00 -0.3 C 3.37 g/m*3 -0.3 C 3.2 km/h
2956 06-02-2015 20:40:00 -0.3 C 3.42 g/m*3 -0.3 C 3.2 km/h
2957 06-02-2015 20:45:00 -0.3 C 3.42 g/m*3 -0.3 C 3.2 km/h
2958 06-02-2015 20:50:00 -0.3 C 3.37 g/m*3 -0.3 C 3.2 km/h
2959 06-02-2015 20:55:00 -0.3 C 3.42 g/m*3 -0.3 C 4.8 km/h
2960 06-02-2015 21:00:00 -0.4 C 3.39 g/m*3 -3.24 C 8.1 km/h
2961 06-02-2015 21:05:00 -0.3 C 3.42 g/m*3 -0.3 C 4.8 km/h
2962 06-02-2015 21:10:00 -0.3 C 3.42 g/m*3 -0.3 C 3.2 km/h
2963 06-02-2015 21:15:00 -0.4 C 3.39 g/m*3 -0.4 C 4.8 km/h
2964 06-02-2015 21:20:00 -0.4 C 3.39 g/m*3 -0.4 C 4.8 km/h
2965 06-02-2015 21:25:00 -0.4 C 3.44 g/m*3 -0.4 C 3.2 km/h
2966 06-02-2015 21:30:00 -0.4 C 3.44 g/m*3 -0.4 C 3.2 km/h
2967 06-02-2015 21:35:00 -0.5 C 3.42 g/m*3 -0.5 C 1.6 km/h
2968 06-02-2015 21:40:00 -0.6 C 3.39 g/m*3 -3.48 C 8.1 km/h
2969 06-02-2015 21:45:00 -0.6 C 3.39 g/m*3 -3.48 C 8.1 km/h
2970 06-02-2015 21:50:00 -0.6 C 3.39 g/m*3 -0.6 C 4.8 km/h
2971 06-02-2015 21:55:00 -0.7 C 3.42 g/m*3 -0.7 C 1.6 km/h
2972 06-02-2015 22:00:00 -0.8 C 3.39 g/m*3 -0.8 C 3.2 km/h
2973 06-02-2015 22:05:00 -0.8 C 3.44 g/m*3 -0.8 C 3.2 km/h
2974 06-02-2015 22:10:00 -0.9 C 3.41 g/m*3 -0.9 C 3.2 km/h
2975 06-02-2015 22:15:00 -0.9 C 3.41 g/m*3 -0.9 C 3.2 km/h
Sensor: Nr:Datum:Temp:Abs-Feuchte:Windchill:Wind:
Aussen-T/F 2976 06-02-2015 22:20:00 -0.9 C 3.41 g/m*3 -3.83 C 8.1 km/h
2977 06-02-2015 22:25:00 -0.9 C 3.41 g/m*3 -3.22 C 6.4 km/h
2978 06-02-2015 22:30:00 -0.9 C 3.41 g/m*3 -0.9 C 4.8 km/h
2979 06-02-2015 22:35:00 -0.9 C 3.41 g/m*3 -3.83 C 8.1 km/h
2980 06-02-2015 22:40:00 -0.9 C 3.41 g/m*3 -4.31 C 9.7 km/h
2981 06-02-2015 22:45:00 -0.9 C 3.41 g/m*3 -3.83 C 8.1 km/h
2982 06-02-2015 22:50:00 -0.9 C 3.37 g/m*3 -4.31 C 9.7 km/h
2983 06-02-2015 22:55:00 -0.9 C 3.37 g/m*3 -0.9 C 4.8 km/h
2984 06-02-2015 23:00:00 -0.9 C 3.37 g/m*3 -3.83 C 8.1 km/h
2985 06-02-2015 23:05:00 -1 C 3.35 g/m*3 -1 C 4.8 km/h
2986 06-02-2015 23:10:00 -1 C 3.35 g/m*3 -5.22 C 12.9 km/h
2987 06-02-2015 23:15:00 -1.1 C 3.32 g/m*3 -4.06 C 8.1 km/h
2988 06-02-2015 23:20:00 -1.1 C 3.28 g/m*3 -3.45 C 6.4 km/h
2989 06-02-2015 23:25:00 -1 C 3.3 g/m*3 -3.95 C 8.1 km/h
2990 06-02-2015 23:30:00 -1.1 C 3.28 g/m*3 -4.06 C 8.1 km/h
2991 06-02-2015 23:35:00 -1.1 C 3.28 g/m*3 -3.45 C 6.4 km/h
2992 06-02-2015 23:40:00 -1.1 C 3.28 g/m*3 -4.97 C 11.3 km/h
2993 06-02-2015 23:45:00 -1.2 C 3.3 g/m*3 -3.57 C 6.4 km/h
2994 06-02-2015 23:50:00 -1.2 C 3.3 g/m*3 -5.09 C 11.3 km/h
2995 06-02-2015 23:55:00 -1.3 C 3.28 g/m*3 -1.3 C 3.2 km/h
2996 07-02-2015 00:00:00 -1.3 C 3.28 g/m*3 -1.3 C 4.8 km/h
2997 07-02-2015 00:05:00 -1.3 C 3.28 g/m*3 -3.68 C 6.4 km/h
2998 07-02-2015 00:10:00 -1.4 C 3.25 g/m*3 -4.42 C 8.1 km/h
2999 07-02-2015 00:15:00 -1.3 C 3.28 g/m*3 -4.78 C 9.7 km/h
3000 07-02-2015 00:20:00 -1.3 C 3.28 g/m*3 -4.78 C 9.7 km/h
Sensor: Nr:Datum:Temp:Abs-Feuchte:Windchill:Wind:
Aussen-T/F 3001 07-02-2015 00:25:00 -1.3 C 3.23 g/m*3 -4.78 C 9.7 km/h
3002 07-02-2015 00:30:00 -1.3 C 3.28 g/m*3 -5.21 C 11.3 km/h
3003 07-02-2015 00:35:00 -1.3 C 3.28 g/m*3 -5.58 C 12.9 km/h
3004 07-02-2015 00:40:00 -1.3 C 3.28 g/m*3 -6.23 C 16.1 km/h
3005 07-02-2015 00:45:00 -1.3 C 3.23 g/m*3 -5.58 C 12.9 km/h
3006 07-02-2015 00:50:00 -1.3 C 3.23 g/m*3 -5.21 C 11.3 km/h
3007 07-02-2015 00:55:00 -1.4 C 3.21 g/m*3 -4.42 C 8.1 km/h
3008 07-02-2015 01:00:00 -1.4 C 3.21 g/m*3 -5.33 C 11.3 km/h
3009 07-02-2015 01:05:00 -1.4 C 3.25 g/m*3 -4.9 C 9.7 km/h
3010 07-02-2015 01:10:00 -1.5 C 3.23 g/m*3 -1.5 C 4.8 km/h
3011 07-02-2015 01:15:00 -1.6 C 3.21 g/m*3 -1.6 C 4.8 km/h
3012 07-02-2015 01:20:00 -1.7 C 3.19 g/m*3 -1.7 C 1.6 km/h
3013 07-02-2015 01:25:00 -1.7 C 3.23 g/m*3 -4.15 C 6.4 km/h
3014 07-02-2015 01:30:00 -1.8 C 3.21 g/m*3 -4.26 C 6.4 km/h
3015 07-02-2015 01:35:00 -1.8 C 3.21 g/m*3 -1.8 C 3.2 km/h
3016 07-02-2015 01:40:00 -1.9 C 3.18 g/m*3 -5.5 C 9.7 km/h
3017 07-02-2015 01:45:00 -1.9 C 3.23 g/m*3 -1.9 C 1.6 km/h
3018 07-02-2015 01:50:00 -1.9 C 3.18 g/m*3 -1.9 C 3.2 km/h
3019 07-02-2015 01:55:00 -2 C 3.2 g/m*3 -2 C 1.6 km/h
3020 07-02-2015 02:00:00 -2.2 C 3.2 g/m*3 -2.2 C 1.6 km/h
3021 07-02-2015 02:05:00 -2.5 C 3.17 g/m*3 -2.5 C 3.2 km/h
3022 07-02-2015 02:10:00 -2.7 C 3.17 g/m*3 -2.7 C 4.8 km/h
3023 07-02-2015 02:15:00 -2.9 C 3.2 g/m*3 -2.9 C 3.2 km/h
3024 07-02-2015 02:20:00 -3 C 3.18 g/m*3 -3 C 3.2 km/h
3025 07-02-2015 02:25:00 -3.1 C 3.16 g/m*3 -3.1 C 4.8 km/h
Sensor: Nr:Datum:Temp:Abs-Feuchte:Windchill:Wind:
Aussen-T/F 3026 07-02-2015 02:30:00 -3.2 C 3.18 g/m*3 -3.2 C 4.8 km/h
3027 07-02-2015 02:35:00 -3.2 C 3.18 g/m*3 -3.2 C 4.8 km/h
3028 07-02-2015 02:40:00 -3.3 C 3.15 g/m*3 -3.3 C 4.8 km/h
3029 07-02-2015 02:45:00 -3.3 C 3.15 g/m*3 -3.3 C 4.8 km/h
3030 07-02-2015 02:50:00 -3.3 C 3.15 g/m*3 -3.3 C 4.8 km/h
3031 07-02-2015 02:55:00 -3.4 C 3.21 g/m*3 -3.4 C 4.8 km/h
3032 07-02-2015 03:00:00 -3.4 C 3.17 g/m*3 -3.4 C 4.8 km/h
3033 07-02-2015 03:05:00 -3.4 C 3.17 g/m*3 -3.4 C 3.2 km/h
3034 07-02-2015 03:10:00 -3.4 C 3.17 g/m*3 -3.4 C 4.8 km/h
3035 07-02-2015 03:15:00 -3.4 C 3.21 g/m*3 -3.4 C 3.2 km/h
3036 07-02-2015 03:20:00 -3.4 C 3.21 g/m*3 -6.11 C 6.4 km/h
3037 07-02-2015 03:25:00 -3.5 C 3.15 g/m*3 -3.5 C 4.8 km/h
3038 07-02-2015 03:30:00 -3.5 C 3.15 g/m*3 -3.5 C 4.8 km/h
3039 07-02-2015 03:35:00 -3.5 C 3.15 g/m*3 -3.5 C 4.8 km/h
3040 07-02-2015 03:40:00 -3.5 C 3.18 g/m*3 -3.5 C 4.8 km/h
3041 07-02-2015 03:45:00 -3.5 C 3.15 g/m*3 -6.22 C 6.4 km/h
3042 07-02-2015 03:50:00 -3.4 C 3.17 g/m*3 -3.4 C 4.8 km/h
3043 07-02-2015 03:55:00 -3.3 C 3.19 g/m*3 -3.3 C 4.8 km/h
3044 07-02-2015 04:00:00 -3.3 C 3.19 g/m*3 -3.3 C 4.8 km/h
3045 07-02-2015 04:05:00 -3.3 C 3.15 g/m*3 -3.3 C 3.2 km/h
3046 07-02-2015 04:10:00 -3.4 C 3.13 g/m*3 -3.4 C 4.8 km/h
3047 07-02-2015 04:15:00 -3.6 C 3.09 g/m*3 -3.6 C 3.2 km/h
3048 07-02-2015 04:20:00 -3.6 C 3.12 g/m*3 -3.6 C 3.2 km/h
3049 07-02-2015 04:25:00 -3.7 C 3.1 g/m*3 -3.7 C 4.8 km/h
3050 07-02-2015 04:30:00 -3.7 C 3.1 g/m*3 -3.7 C 3.2 km/h
Sensor: Nr:Datum:Temp:Abs-Feuchte:Windchill:Wind:
Aussen-T/F 3051 07-02-2015 04:35:00 -3.8 C 3.08 g/m*3 -3.8 C 4.8 km/h
3052 07-02-2015 04:40:00 -3.8 C 3.04 g/m*3 -3.8 C 4.8 km/h
3053 07-02-2015 04:45:00 -3.8 C 3.08 g/m*3 -3.8 C 4.8 km/h
3054 07-02-2015 04:50:00 -3.9 C 3.06 g/m*3 -3.9 C 4.8 km/h
3055 07-02-2015 04:55:00 -3.9 C 3.09 g/m*3 -3.9 C 4.8 km/h
3056 07-02-2015 05:00:00 -3.8 C 3.12 g/m*3 -3.8 C 3.2 km/h
3057 07-02-2015 05:05:00 -3.8 C 3.08 g/m*3 -3.8 C 4.8 km/h
3058 07-02-2015 05:10:00 -3.8 C 3.12 g/m*3 -3.8 C 3.2 km/h
3059 07-02-2015 05:15:00 -3.8 C 3.15 g/m*3 -3.8 C 3.2 km/h
3060 07-02-2015 05:20:00 -3.8 C 3.15 g/m*3 -3.8 C 4.8 km/h
3061 07-02-2015 05:25:00 -3.8 C 3.12 g/m*3 -3.8 C 4.8 km/h
3062 07-02-2015 05:30:00 -3.9 C 3.09 g/m*3 -3.9 C 4.8 km/h
3063 07-02-2015 05:35:00 -3.9 C 3.06 g/m*3 -6.69 C 6.4 km/h
3064 07-02-2015 05:40:00 -3.8 C 3.08 g/m*3 -6.57 C 6.4 km/h
3065 07-02-2015 05:45:00 -3.8 C 3.08 g/m*3 -3.8 C 4.8 km/h
3066 07-02-2015 05:50:00 -3.8 C 3.08 g/m*3 -6.57 C 6.4 km/h
3067 07-02-2015 05:55:00 -3.8 C 3.04 g/m*3 -6.57 C 6.4 km/h
3068 07-02-2015 06:00:00 -3.8 C 3.04 g/m*3 -6.57 C 6.4 km/h
3069 07-02-2015 06:05:00 -3.8 C 3.04 g/m*3 -6.57 C 6.4 km/h
3070 07-02-2015 06:10:00 -3.8 C 3.04 g/m*3 -3.8 C 4.8 km/h
3071 07-02-2015 06:15:00 -3.8 C 3.08 g/m*3 -3.8 C 4.8 km/h
3072 07-02-2015 06:20:00 -3.8 C 3.08 g/m*3 -3.8 C 4.8 km/h
3073 07-02-2015 06:25:00 -3.8 C 3.08 g/m*3 -3.8 C 4.8 km/h
3074 07-02-2015 06:30:00 -3.9 C 3.06 g/m*3 -3.9 C 4.8 km/h
3075 07-02-2015 06:35:00 -3.9 C 3.06 g/m*3 -3.9 C 4.8 km/h
Sensor: Nr:Datum:Temp:Abs-Feuchte:Windchill:Wind:
Aussen-T/F 3076 07-02-2015 06:40:00 -3.9 C 3.09 g/m*3 -3.9 C 3.2 km/h
3077 07-02-2015 06:45:00 -4 C 3.11 g/m*3 -4 C 1.6 km/h
3078 07-02-2015 06:50:00 -4.1 C 3.09 g/m*3 -4.1 C 4.8 km/h
3079 07-02-2015 06:55:00 -4.1 C 3.09 g/m*3 -4.1 C 3.2 km/h
3080 07-02-2015 07:00:00 -4.2 C 3.07 g/m*3 -4.2 C 0 km/h
3081 07-02-2015 07:05:00 -4.3 C 3.04 g/m*3 -4.3 C 0 km/h
3082 07-02-2015 07:10:00 -4.4 C 3.02 g/m*3 -4.4 C 0 km/h
3083 07-02-2015 07:15:00 -4.5 C 3.04 g/m*3 -4.5 C 0 km/h
3084 07-02-2015 07:20:00 -4.6 C 3.01 g/m*3 -4.6 C 0 km/h
3085 07-02-2015 07:25:00 -4.6 C 3.01 g/m*3 -4.6 C 0 km/h
3086 07-02-2015 07:30:00 -4.7 C 2.99 g/m*3 -4.7 C 0 km/h
3087 07-02-2015 07:35:00 -4.7 C 3.03 g/m*3 -4.7 C 0 km/h
3088 07-02-2015 07:40:00 -4.8 C 3.01 g/m*3 -4.8 C 0 km/h
3089 07-02-2015 07:45:00 -4.9 C 2.98 g/m*3 -4.9 C 0 km/h
3090 07-02-2015 07:50:00 -4.9 C 2.98 g/m*3 -4.9 C 0 km/h
3091 07-02-2015 07:55:00 -5 C 2.96 g/m*3 -5 C 0 km/h
3092 07-02-2015 08:00:00 -5 C 2.96 g/m*3 -5 C 0 km/h
3093 07-02-2015 08:05:00 -5.1 C 2.94 g/m*3 -5.1 C 0 km/h
3094 07-02-2015 08:10:00 -5.1 C 2.97 g/m*3 -5.1 C 0 km/h
3095 07-02-2015 08:15:00 -5.1 C 2.97 g/m*3 -5.1 C 0 km/h
3096 07-02-2015 08:20:00 -5.1 C 2.97 g/m*3 -5.1 C 0 km/h
3097 07-02-2015 08:25:00 -5 C 3 g/m*3 -5 C 0 km/h
3098 07-02-2015 08:30:00 -4.9 C 3.05 g/m*3 -4.9 C 4.8 km/h
3099 07-02-2015 08:35:00 -4.9 C 3.05 g/m*3 -4.9 C 0 km/h
3100 07-02-2015 08:40:00 -4.8 C 3.07 g/m*3 -4.8 C 0 km/h
Sensor: Nr:Datum:Temp:Abs-Feuchte:Windchill:Wind:
Aussen-T/F 3101 07-02-2015 08:45:00 -4.8 C 3.04 g/m*3 -4.8 C 0 km/h
3102 07-02-2015 08:50:00 -4.8 C 3.04 g/m*3 -4.8 C 0 km/h
3103 07-02-2015 08:55:00 -4.8 C 3.04 g/m*3 -4.8 C 0 km/h
3104 07-02-2015 09:00:00 -4.8 C 3.04 g/m*3 -4.8 C 0 km/h
3105 07-02-2015 09:05:00 -4.7 C 3.06 g/m*3 -4.7 C 1.6 km/h
3106 07-02-2015 09:10:00 -4.6 C 3.08 g/m*3 -4.6 C 1.6 km/h
3107 07-02-2015 09:15:00 -4.5 C 3.11 g/m*3 -4.5 C 1.6 km/h
3108 07-02-2015 09:20:00 -4.5 C 3.11 g/m*3 -4.5 C 0 km/h
3109 07-02-2015 09:25:00 -4.5 C 3.11 g/m*3 -4.5 C 1.6 km/h
3110 07-02-2015 09:30:00 -4.4 C 3.09 g/m*3 -4.4 C 0 km/h
3111 07-02-2015 09:35:00 -4.4 C 3.13 g/m*3 -4.4 C 0 km/h
3112 07-02-2015 09:40:00 -4.3 C 3.15 g/m*3 -4.3 C 3.2 km/h
3113 07-02-2015 09:45:00 -4.2 C 3.17 g/m*3 -4.2 C 4.8 km/h
3114 07-02-2015 09:50:00 -4.1 C 3.16 g/m*3 -4.1 C 0 km/h
3115 07-02-2015 09:55:00 -3.9 C 3.21 g/m*3 -3.9 C 0 km/h
3116 07-02-2015 10:00:00 -3.8 C 3.19 g/m*3 -3.8 C 0 km/h
3117 07-02-2015 10:05:00 -3.8 C 3.19 g/m*3 -3.8 C 1.6 km/h
3118 07-02-2015 10:10:00 -3.6 C 3.24 g/m*3 -3.6 C 3.2 km/h
3119 07-02-2015 10:15:00 -3.5 C 3.22 g/m*3 -3.5 C 3.2 km/h
3120 07-02-2015 10:20:00 -3.3 C 3.27 g/m*3 -3.3 C 3.2 km/h
3121 07-02-2015 10:25:00 -3.2 C 3.29 g/m*3 -3.2 C 3.2 km/h
3122 07-02-2015 10:30:00 -3.2 C 3.25 g/m*3 -3.2 C 3.2 km/h
3123 07-02-2015 10:35:00 -3.1 C 3.28 g/m*3 -3.1 C 3.2 km/h
3124 07-02-2015 10:40:00 -3 C 3.3 g/m*3 -3 C 4.8 km/h
3125 07-02-2015 10:45:00 -2.9 C 3.32 g/m*3 -2.9 C 3.2 km/h
Sensor: Nr:Datum:Temp:Abs-Feuchte:Windchill:Wind:
Aussen-T/F 3126 07-02-2015 10:50:00 -2.9 C 3.32 g/m*3 -2.9 C 0 km/h
3127 07-02-2015 10:55:00 -2.8 C 3.39 g/m*3 -2.8 C 3.2 km/h
3128 07-02-2015 11:00:00 -2.8 C 3.39 g/m*3 -2.8 C 3.2 km/h
3129 07-02-2015 11:05:00 -2.7 C 3.37 g/m*3 -2.7 C 3.2 km/h
3130 07-02-2015 11:10:00 -2.6 C 3.39 g/m*3 -2.6 C 3.2 km/h
3131 07-02-2015 11:15:00 -2.4 C 3.44 g/m*3 -2.4 C 3.2 km/h
3132 07-02-2015 11:20:00 -2.4 C 3.44 g/m*3 -2.4 C 3.2 km/h
3133 07-02-2015 11:25:00 -2.3 C 3.47 g/m*3 -2.3 C 4.8 km/h
3134 07-02-2015 11:30:00 -2.2 C 3.45 g/m*3 -2.2 C 4.8 km/h
3135 07-02-2015 11:35:00 -2 C 3.5 g/m*3 -2 C 3.2 km/h
3136 07-02-2015 11:40:00 -1.9 C 3.57 g/m*3 -1.9 C 1.6 km/h
3137 07-02-2015 11:45:00 -1.9 C 3.52 g/m*3 -1.9 C 3.2 km/h
3138 07-02-2015 11:50:00 -1.8 C 3.46 g/m*3 -4.89 C 8.1 km/h
3139 07-02-2015 11:55:00 -1.4 C 3.47 g/m*3 -3.8 C 6.4 km/h
3140 07-02-2015 12:00:00 -1.2 C 3.52 g/m*3 -1.2 C 3.2 km/h
3141 07-02-2015 12:05:00 -1.1 C 3.5 g/m*3 -1.1 C 1.6 km/h
3142 07-02-2015 12:10:00 -1 C 3.57 g/m*3 -1 C 3.2 km/h
3143 07-02-2015 12:15:00 -1.1 C 3.64 g/m*3 -1.1 C 4.8 km/h
3144 07-02-2015 12:20:00 -1.1 C 3.64 g/m*3 -1.1 C 3.2 km/h
3145 07-02-2015 12:25:00 -1.1 C 3.55 g/m*3 -1.1 C 0 km/h
3146 07-02-2015 12:30:00 -0.9 C 3.64 g/m*3 -0.9 C 3.2 km/h
3147 07-02-2015 12:35:00 -0.9 C 3.6 g/m*3 -0.9 C 3.2 km/h
3148 07-02-2015 12:40:00 -0.8 C 3.67 g/m*3 -0.8 C 3.2 km/h
3149 07-02-2015 12:45:00 -0.7 C 3.6 g/m*3 -0.7 C 3.2 km/h
3150 07-02-2015 12:50:00 -0.7 C 3.65 g/m*3 -0.7 C 3.2 km/h
Sensor: Nr:Datum:Temp:Abs-Feuchte:Windchill:Wind:
Aussen-T/F 3151 07-02-2015 12:55:00 -0.6 C 3.72 g/m*3 -0.6 C 4.8 km/h
3152 07-02-2015 13:00:00 -0.6 C 3.67 g/m*3 -0.6 C 3.2 km/h
3153 07-02-2015 13:05:00 -0.6 C 3.67 g/m*3 -0.6 C 4.8 km/h
3154 07-02-2015 13:10:00 -0.5 C 3.74 g/m*3 -0.5 C 3.2 km/h
3155 07-02-2015 13:15:00 -0.4 C 3.72 g/m*3 -0.4 C 3.2 km/h
3156 07-02-2015 13:20:00 -0.3 C 3.8 g/m*3 -0.3 C 3.2 km/h
3157 07-02-2015 13:25:00 -0.2 C 3.82 g/m*3 -0.2 C 4.8 km/h
3158 07-02-2015 13:30:00 -0.1 C 3.85 g/m*3 -0.1 C 3.2 km/h
3159 07-02-2015 13:35:00 0.1 C 3.81 g/m*3 0.1 C 3.2 km/h
3160 07-02-2015 13:40:00 0.3 C 3.91 g/m*3 0.3 C 3.2 km/h
3161 07-02-2015 13:45:00 0.4 C 3.84 g/m*3 0.4 C 3.2 km/h
3162 07-02-2015 13:50:00 0.6 C 3.84 g/m*3 0.6 C 3.2 km/h
3163 07-02-2015 13:55:00 0.8 C 3.94 g/m*3 0.8 C 4.8 km/h
3164 07-02-2015 14:00:00 0.9 C 3.92 g/m*3 0.9 C 4.8 km/h
3165 07-02-2015 14:05:00 1.1 C 4.02 g/m*3 1.1 C 4.8 km/h
3166 07-02-2015 14:10:00 1.3 C 3.92 g/m*3 1.3 C 3.2 km/h
3167 07-02-2015 14:15:00 1.5 C 4.08 g/m*3 1.5 C 4.8 km/h
3168 07-02-2015 14:20:00 1.6 C 4.11 g/m*3 1.6 C 3.2 km/h
3169 07-02-2015 14:25:00 1.7 C 4.08 g/m*3 1.7 C 3.2 km/h
3170 07-02-2015 14:30:00 1.8 C 4.06 g/m*3 1.8 C 3.2 km/h
3171 07-02-2015 14:35:00 1.9 C 4.03 g/m*3 1.9 C 4.8 km/h
3172 07-02-2015 14:40:00 2.1 C 4.08 g/m*3 2.1 C 3.2 km/h
3173 07-02-2015 14:45:00 2.2 C 4.06 g/m*3 2.2 C 4.8 km/h
3174 07-02-2015 14:50:00 2.3 C 4.08 g/m*3 2.3 C 3.2 km/h
3175 07-02-2015 14:55:00 2.4 C 4.17 g/m*3 2.4 C 4.8 km/h
Sensor: Nr:Datum:Temp:Abs-Feuchte:Windchill:Wind:
Aussen-T/F 3176 07-02-2015 15:00:00 2.3 C 4.08 g/m*3 2.3 C 3.2 km/h
3177 07-02-2015 15:05:00 2.3 C 4.08 g/m*3 2.3 C 4.8 km/h
3178 07-02-2015 15:10:00 2.4 C 4.23 g/m*3 2.4 C 4.8 km/h
3179 07-02-2015 15:15:00 2.4 C 4.11 g/m*3 2.4 C 4.8 km/h
3180 07-02-2015 15:20:00 2.4 C 4.17 g/m*3 2.4 C 4.8 km/h
3181 07-02-2015 15:25:00 2.5 C 4.08 g/m*3 2.5 C 3.2 km/h
3182 07-02-2015 15:30:00 2.5 C 4.2 g/m*3 2.5 C 3.2 km/h
3183 07-02-2015 15:35:00 2.4 C 4.23 g/m*3 2.4 C 4.8 km/h
3184 07-02-2015 15:40:00 2.4 C 3.94 g/m*3 2.4 C 3.2 km/h
3185 07-02-2015 15:45:00 2.7 C 4.14 g/m*3 2.7 C 3.2 km/h
3186 07-02-2015 15:50:00 2.6 C 3.94 g/m*3 2.6 C 4.8 km/h
3187 07-02-2015 15:55:00 2.9 C 3.9 g/m*3 2.9 C 4.8 km/h
3188 07-02-2015 16:00:00 3.1 C 4.01 g/m*3 1.4 C 6.4 km/h
3189 07-02-2015 16:05:00 3 C 4.04 g/m*3 1.28 C 6.4 km/h
3190 07-02-2015 16:10:00 3.1 C 3.83 g/m*3 -0.77 C 16.1 km/h
3191 07-02-2015 16:15:00 3.4 C 3.85 g/m*3 0.14 C 12.9 km/h
3192 07-02-2015 16:20:00 3.6 C 3.84 g/m*3 1.46 C 8.1 km/h
3193 07-02-2015 16:25:00 3.7 C 3.8 g/m*3 1.58 C 8.1 km/h
3194 07-02-2015 16:30:00 3.7 C 3.68 g/m*3 1.18 C 9.7 km/h
3195 07-02-2015 16:35:00 3.8 C 3.58 g/m*3 -0.14 C 17.7 km/h
3196 07-02-2015 16:40:00 3.8 C 3.58 g/m*3 0.35 C 14.5 km/h
3197 07-02-2015 16:45:00 3.7 C 3.55 g/m*3 1.58 C 8.1 km/h
3198 07-02-2015 16:50:00 3.7 C 3.55 g/m*3 -0.03 C 16.1 km/h
3199 07-02-2015 16:55:00 3.7 C 3.55 g/m*3 1.18 C 9.7 km/h
3200 07-02-2015 17:00:00 3.6 C 3.53 g/m*3 1.98 C 6.4 km/h
Sensor: Nr:Datum:Temp:Abs-Feuchte:Windchill:Wind:
Aussen-T/F 3201 07-02-2015 17:05:00 3.4 C 3.54 g/m*3 1.23 C 8.1 km/h
3202 07-02-2015 17:10:00 3.4 C 3.66 g/m*3 1.23 C 8.1 km/h
3203 07-02-2015 17:15:00 3.2 C 3.86 g/m*3 3.2 C 3.2 km/h
3204 07-02-2015 17:20:00 2.9 C 3.78 g/m*3 2.9 C 4.8 km/h
3205 07-02-2015 17:25:00 2.7 C 3.85 g/m*3 2.7 C 4.8 km/h
3206 07-02-2015 17:30:00 2.3 C 3.86 g/m*3 2.3 C 3.2 km/h
3207 07-02-2015 17:35:00 2.1 C 3.97 g/m*3 2.1 C 1.6 km/h
3208 07-02-2015 17:40:00 1.6 C 3.89 g/m*3 1.6 C 3.2 km/h
3209 07-02-2015 17:45:00 1.3 C 3.92 g/m*3 1.3 C 4.8 km/h
3210 07-02-2015 17:50:00 1.1 C 3.92 g/m*3 1.1 C 1.6 km/h
3211 07-02-2015 17:55:00 1 C 4 g/m*3 1 C 1.6 km/h
3212 07-02-2015 18:00:00 1 C 3.94 g/m*3 1 C 3.2 km/h
3213 07-02-2015 18:05:00 1.3 C 4.08 g/m*3 1.3 C 3.2 km/h
3214 07-02-2015 18:10:00 1.7 C 4.14 g/m*3 1.7 C 4.8 km/h
3215 07-02-2015 18:15:00 1.9 C 4.14 g/m*3 1.9 C 4.8 km/h
3216 07-02-2015 18:20:00 2.2 C 4.28 g/m*3 2.2 C 3.2 km/h
3217 07-02-2015 18:25:00 2.3 C 4.2 g/m*3 2.3 C 3.2 km/h
3218 07-02-2015 18:30:00 2.3 C 4.25 g/m*3 2.3 C 1.6 km/h
3219 07-02-2015 18:35:00 2.3 C 4.25 g/m*3 2.3 C 4.8 km/h
3220 07-02-2015 18:40:00 2.3 C 4.31 g/m*3